<?xml version="1.0" encoding="UTF-8" standalone="no" ?>
<gpx xmlns="http://www.topografix.com/GPX/1/1" xmlns:xsi="http://www.w3.org/2001/XMLSchema-instance" xsi:schemaLocation="http://www.topografix.com/GPX/1/1 http://www.topografix.com/GPX/1/1/gpx.xsd" version="1.1" creator="VisuGPX - https://www.visugpx.com">
  <metadata>
    <name>Camping Arlebosc-Le Corral</name>
    <desc><![CDATA[Parcours entre le camping d'Arlebosc et le gîte le Corral à Cheminas.]]></desc>
  </metadata>
  <trk>
    <name><![CDATA[20180411140905-PUomM]]></name>
    <trkseg>
      <trkpt lat="44.92465" lon="4.72986">
        <ele>603</ele>
        <time>2018-04-09T14:39:15Z</time>
      </trkpt>
      <trkpt lat="44.925" lon="4.73141">
        <ele>610</ele>
        <time>2018-04-09T14:40:15Z</time>
      </trkpt>
      <trkpt lat="44.92489" lon="4.73098">
        <ele>606</ele>
        <time>2018-04-09T14:41:15Z</time>
      </trkpt>
      <trkpt lat="44.9251" lon="4.73168">
        <ele>611</ele>
        <time>2018-04-09T14:42:15Z</time>
      </trkpt>
      <trkpt lat="44.92603" lon="4.73101">
        <ele>601</ele>
        <time>2018-04-09T14:43:15Z</time>
      </trkpt>
      <trkpt lat="44.927" lon="4.73087">
        <ele>590</ele>
        <time>2018-04-09T14:44:15Z</time>
      </trkpt>
      <trkpt lat="44.92738" lon="4.73148">
        <ele>588</ele>
        <time>2018-04-09T14:45:15Z</time>
      </trkpt>
      <trkpt lat="44.92863" lon="4.73224">
        <ele>586</ele>
        <time>2018-04-09T14:46:15Z</time>
      </trkpt>
      <trkpt lat="44.92748" lon="4.73263">
        <ele>588</ele>
        <time>2018-04-09T14:47:15Z</time>
      </trkpt>
      <trkpt lat="44.92802" lon="4.73368">
        <ele>585</ele>
        <time>2018-04-09T14:48:15Z</time>
      </trkpt>
      <trkpt lat="44.92799" lon="4.73512">
        <ele>589</ele>
        <time>2018-04-09T14:49:15Z</time>
      </trkpt>
      <trkpt lat="44.92735" lon="4.73595">
        <ele>592</ele>
        <time>2018-04-09T14:50:15Z</time>
      </trkpt>
      <trkpt lat="44.927" lon="4.73751">
        <ele>593</ele>
        <time>2018-04-09T14:51:15Z</time>
      </trkpt>
      <trkpt lat="44.92646" lon="4.73927">
        <ele>598</ele>
        <time>2018-04-09T14:52:15Z</time>
      </trkpt>
      <trkpt lat="44.92639" lon="4.74084">
        <ele>599</ele>
        <time>2018-04-09T14:53:15Z</time>
      </trkpt>
      <trkpt lat="44.92814" lon="4.74418">
        <ele>591</ele>
        <time>2018-04-09T14:54:15Z</time>
      </trkpt>
      <trkpt lat="44.92861" lon="4.74448">
        <ele>601</ele>
        <time>2018-04-09T14:55:15Z</time>
      </trkpt>
      <trkpt lat="44.9293" lon="4.74483">
        <ele>613</ele>
        <time>2018-04-09T14:56:15Z</time>
      </trkpt>
      <trkpt lat="44.92973" lon="4.74453">
        <ele>620</ele>
        <time>2018-04-09T14:57:15Z</time>
      </trkpt>
      <trkpt lat="44.92992" lon="4.74429">
        <ele>625</ele>
        <time>2018-04-09T14:58:15Z</time>
      </trkpt>
      <trkpt lat="44.93004" lon="4.74372">
        <ele>635</ele>
        <time>2018-04-09T14:59:15Z</time>
      </trkpt>
      <trkpt lat="44.93027" lon="4.74373">
        <ele>636</ele>
        <time>2018-04-09T15:00:15Z</time>
      </trkpt>
      <trkpt lat="44.93206" lon="4.74508">
        <ele>649</ele>
        <time>2018-04-09T15:01:15Z</time>
      </trkpt>
      <trkpt lat="44.93225" lon="4.74565">
        <ele>649</ele>
        <time>2018-04-09T15:02:15Z</time>
      </trkpt>
      <trkpt lat="44.93235" lon="4.74629">
        <ele>651</ele>
        <time>2018-04-09T15:03:15Z</time>
      </trkpt>
      <trkpt lat="44.93262" lon="4.7471">
        <ele>649</ele>
        <time>2018-04-09T15:04:15Z</time>
      </trkpt>
      <trkpt lat="44.93266" lon="4.74732">
        <ele>650</ele>
        <time>2018-04-09T15:05:15Z</time>
      </trkpt>
      <trkpt lat="44.93239" lon="4.7474">
        <ele>651</ele>
        <time>2018-04-09T15:06:15Z</time>
      </trkpt>
      <trkpt lat="44.93318" lon="4.7482">
        <ele>650</ele>
        <time>2018-04-09T15:07:15Z</time>
      </trkpt>
      <trkpt lat="44.93523" lon="4.75034">
        <ele>652</ele>
        <time>2018-04-09T15:08:15Z</time>
      </trkpt>
      <trkpt lat="44.93576" lon="4.75071">
        <ele>653</ele>
        <time>2018-04-09T15:09:15Z</time>
      </trkpt>
      <trkpt lat="44.93631" lon="4.75153">
        <ele>645</ele>
        <time>2018-04-09T15:10:15Z</time>
      </trkpt>
      <trkpt lat="44.93661" lon="4.75189">
        <ele>643</ele>
        <time>2018-04-09T15:11:15Z</time>
      </trkpt>
      <trkpt lat="44.93707" lon="4.75236">
        <ele>639</ele>
        <time>2018-04-09T15:12:15Z</time>
      </trkpt>
      <trkpt lat="44.93739" lon="4.75246">
        <ele>639</ele>
        <time>2018-04-09T15:13:15Z</time>
      </trkpt>
      <trkpt lat="44.93883" lon="4.75123">
        <ele>615</ele>
        <time>2018-04-09T15:14:15Z</time>
      </trkpt>
      <trkpt lat="44.93893" lon="4.75168">
        <ele>619</ele>
        <time>2018-04-09T15:15:15Z</time>
      </trkpt>
      <trkpt lat="44.93919" lon="4.75248">
        <ele>620</ele>
        <time>2018-04-09T15:16:15Z</time>
      </trkpt>
      <trkpt lat="44.93936" lon="4.75287">
        <ele>619</ele>
        <time>2018-04-09T15:17:15Z</time>
      </trkpt>
      <trkpt lat="44.9395" lon="4.75338">
        <ele>621</ele>
        <time>2018-04-09T15:18:15Z</time>
      </trkpt>
      <trkpt lat="44.93957" lon="4.75367">
        <ele>620</ele>
        <time>2018-04-09T15:19:15Z</time>
      </trkpt>
      <trkpt lat="44.93926" lon="4.75416">
        <ele>619</ele>
        <time>2018-04-09T15:20:15Z</time>
      </trkpt>
      <trkpt lat="44.93892" lon="4.75424">
        <ele>615</ele>
        <time>2018-04-09T15:21:15Z</time>
      </trkpt>
      <trkpt lat="44.93864" lon="4.75464">
        <ele>612</ele>
        <time>2018-04-09T15:22:15Z</time>
      </trkpt>
      <trkpt lat="44.93846" lon="4.75489">
        <ele>610</ele>
        <time>2018-04-09T15:23:15Z</time>
      </trkpt>
      <trkpt lat="44.93844" lon="4.75571">
        <ele>601</ele>
        <time>2018-04-09T15:24:15Z</time>
      </trkpt>
      <trkpt lat="44.93839" lon="4.75682">
        <ele>591</ele>
        <time>2018-04-09T15:25:15Z</time>
      </trkpt>
      <trkpt lat="44.93842" lon="4.75767">
        <ele>586</ele>
        <time>2018-04-09T15:26:15Z</time>
      </trkpt>
      <trkpt lat="44.93844" lon="4.75777">
        <ele>586</ele>
        <time>2018-04-09T15:27:15Z</time>
      </trkpt>
      <trkpt lat="44.93853" lon="4.75806">
        <ele>585</ele>
        <time>2018-04-09T15:28:15Z</time>
      </trkpt>
      <trkpt lat="44.93854" lon="4.75825">
        <ele>585</ele>
        <time>2018-04-09T15:29:15Z</time>
      </trkpt>
      <trkpt lat="44.93915" lon="4.7584">
        <ele>584</ele>
        <time>2018-04-09T15:30:15Z</time>
      </trkpt>
      <trkpt lat="44.93963" lon="4.7588">
        <ele>583</ele>
        <time>2018-04-09T15:31:15Z</time>
      </trkpt>
      <trkpt lat="44.94048" lon="4.75912">
        <ele>576</ele>
        <time>2018-04-09T15:32:15Z</time>
      </trkpt>
      <trkpt lat="44.94143" lon="4.7598">
        <ele>575</ele>
        <time>2018-04-09T15:33:15Z</time>
      </trkpt>
      <trkpt lat="44.94185" lon="4.76016">
        <ele>576</ele>
        <time>2018-04-09T15:34:15Z</time>
      </trkpt>
      <trkpt lat="44.94228" lon="4.76028">
        <ele>576</ele>
        <time>2018-04-09T15:35:15Z</time>
      </trkpt>
      <trkpt lat="44.94259" lon="4.76023">
        <ele>575</ele>
        <time>2018-04-09T15:36:15Z</time>
      </trkpt>
      <trkpt lat="44.94286" lon="4.75945">
        <ele>568</ele>
        <time>2018-04-09T15:37:15Z</time>
      </trkpt>
      <trkpt lat="44.94323" lon="4.75908">
        <ele>562</ele>
        <time>2018-04-09T15:38:15Z</time>
      </trkpt>
      <trkpt lat="44.94397" lon="4.75921">
        <ele>567</ele>
        <time>2018-04-09T15:39:15Z</time>
      </trkpt>
      <trkpt lat="44.94457" lon="4.7594">
        <ele>565</ele>
        <time>2018-04-09T15:40:15Z</time>
      </trkpt>
      <trkpt lat="44.9449" lon="4.75954">
        <ele>564</ele>
        <time>2018-04-09T15:41:15Z</time>
      </trkpt>
      <trkpt lat="44.94551" lon="4.7595">
        <ele>559</ele>
        <time>2018-04-09T15:42:15Z</time>
      </trkpt>
      <trkpt lat="44.94681" lon="4.75981">
        <ele>554</ele>
        <time>2018-04-09T15:43:15Z</time>
      </trkpt>
      <trkpt lat="44.9474" lon="4.75965">
        <ele>552</ele>
        <time>2018-04-09T15:44:15Z</time>
      </trkpt>
      <trkpt lat="44.94749" lon="4.75959">
        <ele>552</ele>
        <time>2018-04-09T15:45:15Z</time>
      </trkpt>
      <trkpt lat="44.94842" lon="4.75909">
        <ele>554</ele>
        <time>2018-04-09T15:46:15Z</time>
      </trkpt>
      <trkpt lat="44.94876" lon="4.75936">
        <ele>553</ele>
        <time>2018-04-09T15:47:15Z</time>
      </trkpt>
      <trkpt lat="44.94935" lon="4.75976">
        <ele>550</ele>
        <time>2018-04-09T15:48:15Z</time>
      </trkpt>
      <trkpt lat="44.94933" lon="4.75979">
        <ele>550</ele>
        <time>2018-04-09T15:49:15Z</time>
      </trkpt>
      <trkpt lat="44.94917" lon="4.76013">
        <ele>545</ele>
        <time>2018-04-09T15:50:15Z</time>
      </trkpt>
      <trkpt lat="44.9489" lon="4.76085">
        <ele>538</ele>
        <time>2018-04-09T15:51:15Z</time>
      </trkpt>
      <trkpt lat="44.94872" lon="4.76208">
        <ele>537</ele>
        <time>2018-04-09T15:52:15Z</time>
      </trkpt>
      <trkpt lat="44.94909" lon="4.76257">
        <ele>538</ele>
        <time>2018-04-09T15:53:15Z</time>
      </trkpt>
      <trkpt lat="44.95053" lon="4.76355">
        <ele>544</ele>
        <time>2018-04-09T15:54:15Z</time>
      </trkpt>
      <trkpt lat="44.95151" lon="4.76413">
        <ele>544</ele>
        <time>2018-04-09T15:55:15Z</time>
      </trkpt>
      <trkpt lat="44.95189" lon="4.76418">
        <ele>547</ele>
        <time>2018-04-09T15:56:15Z</time>
      </trkpt>
      <trkpt lat="44.95218" lon="4.76416">
        <ele>546</ele>
        <time>2018-04-09T15:57:15Z</time>
      </trkpt>
      <trkpt lat="44.95289" lon="4.76454">
        <ele>548</ele>
        <time>2018-04-09T15:58:15Z</time>
      </trkpt>
      <trkpt lat="44.95257" lon="4.76484">
        <ele>547</ele>
        <time>2018-04-09T15:59:15Z</time>
      </trkpt>
      <trkpt lat="44.95265" lon="4.76532">
        <ele>543</ele>
        <time>2018-04-09T16:00:15Z</time>
      </trkpt>
      <trkpt lat="44.95264" lon="4.76589">
        <ele>541</ele>
        <time>2018-04-09T16:01:15Z</time>
      </trkpt>
      <trkpt lat="44.95313" lon="4.76626">
        <ele>536</ele>
        <time>2018-04-09T16:02:15Z</time>
      </trkpt>
      <trkpt lat="44.95333" lon="4.76637">
        <ele>535</ele>
        <time>2018-04-09T16:03:15Z</time>
      </trkpt>
      <trkpt lat="44.95372" lon="4.7667">
        <ele>531</ele>
        <time>2018-04-09T16:04:15Z</time>
      </trkpt>
      <trkpt lat="44.95408" lon="4.76697">
        <ele>530</ele>
        <time>2018-04-09T16:05:15Z</time>
      </trkpt>
      <trkpt lat="44.95438" lon="4.76768">
        <ele>530</ele>
        <time>2018-04-09T16:06:15Z</time>
      </trkpt>
      <trkpt lat="44.95445" lon="4.76854">
        <ele>533</ele>
        <time>2018-04-09T16:07:15Z</time>
      </trkpt>
      <trkpt lat="44.95466" lon="4.76924">
        <ele>528</ele>
        <time>2018-04-09T16:08:15Z</time>
      </trkpt>
      <trkpt lat="44.95483" lon="4.76951">
        <ele>527</ele>
        <time>2018-04-09T16:09:15Z</time>
      </trkpt>
      <trkpt lat="44.95492" lon="4.76957">
        <ele>527</ele>
        <time>2018-04-09T16:10:15Z</time>
      </trkpt>
      <trkpt lat="44.95533" lon="4.76953">
        <ele>518</ele>
        <time>2018-04-09T16:11:15Z</time>
      </trkpt>
      <trkpt lat="44.95559" lon="4.76963">
        <ele>517</ele>
        <time>2018-04-09T16:12:15Z</time>
      </trkpt>
      <trkpt lat="44.95579" lon="4.76996">
        <ele>512</ele>
        <time>2018-04-09T16:13:15Z</time>
      </trkpt>
      <trkpt lat="44.95619" lon="4.77001">
        <ele>503</ele>
        <time>2018-04-09T16:14:15Z</time>
      </trkpt>
      <trkpt lat="44.95676" lon="4.76981">
        <ele>495</ele>
        <time>2018-04-09T16:15:15Z</time>
      </trkpt>
      <trkpt lat="44.95724" lon="4.76948">
        <ele>491</ele>
        <time>2018-04-09T16:16:15Z</time>
      </trkpt>
      <trkpt lat="44.95749" lon="4.76921">
        <ele>487</ele>
        <time>2018-04-09T16:17:15Z</time>
      </trkpt>
      <trkpt lat="44.95786" lon="4.76913">
        <ele>477</ele>
        <time>2018-04-09T16:18:15Z</time>
      </trkpt>
      <trkpt lat="44.95831" lon="4.76886">
        <ele>474</ele>
        <time>2018-04-09T16:19:15Z</time>
      </trkpt>
      <trkpt lat="44.95863" lon="4.7685">
        <ele>467</ele>
        <time>2018-04-09T16:20:15Z</time>
      </trkpt>
      <trkpt lat="44.95884" lon="4.76832">
        <ele>466</ele>
        <time>2018-04-09T16:21:15Z</time>
      </trkpt>
      <trkpt lat="44.95902" lon="4.76839">
        <ele>463</ele>
        <time>2018-04-09T16:22:15Z</time>
      </trkpt>
      <trkpt lat="44.95892" lon="4.76867">
        <ele>464</ele>
        <time>2018-04-09T16:23:15Z</time>
      </trkpt>
      <trkpt lat="44.95882" lon="4.76908">
        <ele>464</ele>
        <time>2018-04-09T16:24:15Z</time>
      </trkpt>
      <trkpt lat="44.95886" lon="4.76943">
        <ele>463</ele>
        <time>2018-04-09T16:25:15Z</time>
      </trkpt>
      <trkpt lat="44.95908" lon="4.76969">
        <ele>463</ele>
        <time>2018-04-09T16:26:15Z</time>
      </trkpt>
      <trkpt lat="44.95919" lon="4.76985">
        <ele>463</ele>
        <time>2018-04-09T16:27:15Z</time>
      </trkpt>
      <trkpt lat="44.95929" lon="4.77021">
        <ele>467</ele>
        <time>2018-04-09T16:28:15Z</time>
      </trkpt>
      <trkpt lat="44.95884" lon="4.77038">
        <ele>469</ele>
        <time>2018-04-09T16:29:15Z</time>
      </trkpt>
      <trkpt lat="44.9589" lon="4.77054">
        <ele>470</ele>
        <time>2018-04-09T16:30:15Z</time>
      </trkpt>
      <trkpt lat="44.95932" lon="4.771">
        <ele>481</ele>
        <time>2018-04-09T16:31:15Z</time>
      </trkpt>
      <trkpt lat="44.95872" lon="4.7718">
        <ele>487</ele>
        <time>2018-04-09T16:32:15Z</time>
      </trkpt>
      <trkpt lat="44.95889" lon="4.77215">
        <ele>489</ele>
        <time>2018-04-09T16:33:15Z</time>
      </trkpt>
      <trkpt lat="44.9587" lon="4.77272">
        <ele>491</ele>
        <time>2018-04-09T16:34:15Z</time>
      </trkpt>
      <trkpt lat="44.95868" lon="4.77344">
        <ele>491</ele>
        <time>2018-04-09T16:35:15Z</time>
      </trkpt>
      <trkpt lat="44.95882" lon="4.7744">
        <ele>491</ele>
        <time>2018-04-09T16:36:15Z</time>
      </trkpt>
      <trkpt lat="44.95883" lon="4.77481">
        <ele>492</ele>
        <time>2018-04-09T16:37:15Z</time>
      </trkpt>
      <trkpt lat="44.95894" lon="4.77498">
        <ele>492</ele>
        <time>2018-04-09T16:38:15Z</time>
      </trkpt>
      <trkpt lat="44.95905" lon="4.77517">
        <ele>494</ele>
        <time>2018-04-09T16:39:15Z</time>
      </trkpt>
      <trkpt lat="44.95902" lon="4.77542">
        <ele>495</ele>
        <time>2018-04-09T16:40:15Z</time>
      </trkpt>
      <trkpt lat="44.95872" lon="4.77573">
        <ele>497</ele>
        <time>2018-04-09T16:41:15Z</time>
      </trkpt>
      <trkpt lat="44.95829" lon="4.7759">
        <ele>500</ele>
        <time>2018-04-09T16:42:15Z</time>
      </trkpt>
      <trkpt lat="44.95822" lon="4.77596">
        <ele>500</ele>
        <time>2018-04-09T16:43:15Z</time>
      </trkpt>
      <trkpt lat="44.95822" lon="4.77624">
        <ele>500</ele>
        <time>2018-04-09T16:44:15Z</time>
      </trkpt>
      <trkpt lat="44.95816" lon="4.77697">
        <ele>504</ele>
        <time>2018-04-09T16:45:15Z</time>
      </trkpt>
      <trkpt lat="44.95814" lon="4.77748">
        <ele>507</ele>
        <time>2018-04-09T16:46:15Z</time>
      </trkpt>
      <trkpt lat="44.95812" lon="4.7776">
        <ele>510</ele>
        <time>2018-04-09T16:47:15Z</time>
      </trkpt>
      <trkpt lat="44.95809" lon="4.77792">
        <ele>511</ele>
        <time>2018-04-09T16:48:15Z</time>
      </trkpt>
      <trkpt lat="44.95827" lon="4.77808">
        <ele>513</ele>
        <time>2018-04-09T16:49:15Z</time>
      </trkpt>
      <trkpt lat="44.9591" lon="4.77898">
        <ele>527</ele>
        <time>2018-04-09T16:50:15Z</time>
      </trkpt>
      <trkpt lat="44.95927" lon="4.77924">
        <ele>529</ele>
        <time>2018-04-09T16:51:15Z</time>
      </trkpt>
      <trkpt lat="44.9593" lon="4.77933">
        <ele>529</ele>
        <time>2018-04-09T16:52:15Z</time>
      </trkpt>
      <trkpt lat="44.95933" lon="4.77997">
        <ele>530</ele>
        <time>2018-04-09T16:53:15Z</time>
      </trkpt>
      <trkpt lat="44.95959" lon="4.78039">
        <ele>531</ele>
        <time>2018-04-09T16:54:15Z</time>
      </trkpt>
      <trkpt lat="44.96027" lon="4.78099">
        <ele>530</ele>
        <time>2018-04-09T16:55:15Z</time>
      </trkpt>
      <trkpt lat="44.96085" lon="4.7813">
        <ele>526</ele>
        <time>2018-04-09T16:56:15Z</time>
      </trkpt>
      <trkpt lat="44.96107" lon="4.7815">
        <ele>527</ele>
        <time>2018-04-09T16:57:15Z</time>
      </trkpt>
      <trkpt lat="44.96124" lon="4.78202">
        <ele>534</ele>
        <time>2018-04-09T16:58:15Z</time>
      </trkpt>
      <trkpt lat="44.96255" lon="4.78182">
        <ele>522</ele>
        <time>2018-04-09T16:59:15Z</time>
      </trkpt>
      <trkpt lat="44.96312" lon="4.78156">
        <ele>511</ele>
        <time>2018-04-09T17:00:15Z</time>
      </trkpt>
      <trkpt lat="44.96364" lon="4.78142">
        <ele>504</ele>
        <time>2018-04-09T17:01:15Z</time>
      </trkpt>
      <trkpt lat="44.96366" lon="4.78127">
        <ele>504</ele>
        <time>2018-04-09T17:02:15Z</time>
      </trkpt>
      <trkpt lat="44.96383" lon="4.78099">
        <ele>502</ele>
        <time>2018-04-09T17:03:15Z</time>
      </trkpt>
      <trkpt lat="44.96412" lon="4.78075">
        <ele>499</ele>
        <time>2018-04-09T17:04:15Z</time>
      </trkpt>
      <trkpt lat="44.96433" lon="4.78066">
        <ele>498</ele>
        <time>2018-04-09T17:05:15Z</time>
      </trkpt>
      <trkpt lat="44.96475" lon="4.77976">
        <ele>501</ele>
        <time>2018-04-09T17:06:15Z</time>
      </trkpt>
      <trkpt lat="44.96511" lon="4.77908">
        <ele>506</ele>
        <time>2018-04-09T17:07:15Z</time>
      </trkpt>
      <trkpt lat="44.9655" lon="4.77859">
        <ele>508</ele>
        <time>2018-04-09T17:08:15Z</time>
      </trkpt>
      <trkpt lat="44.96584" lon="4.77822">
        <ele>516</ele>
        <time>2018-04-09T17:09:15Z</time>
      </trkpt>
      <trkpt lat="44.96605" lon="4.77804">
        <ele>520</ele>
        <time>2018-04-09T17:10:15Z</time>
      </trkpt>
      <trkpt lat="44.96575" lon="4.7773">
        <ele>514</ele>
        <time>2018-04-09T17:11:15Z</time>
      </trkpt>
      <trkpt lat="44.96576" lon="4.77695">
        <ele>513</ele>
        <time>2018-04-09T17:12:15Z</time>
      </trkpt>
      <trkpt lat="44.96634" lon="4.77707">
        <ele>524</ele>
        <time>2018-04-09T17:13:15Z</time>
      </trkpt>
      <trkpt lat="44.96693" lon="4.77704">
        <ele>535</ele>
        <time>2018-04-09T17:14:15Z</time>
      </trkpt>
      <trkpt lat="44.96747" lon="4.77706">
        <ele>539</ele>
        <time>2018-04-09T17:15:15Z</time>
      </trkpt>
      <trkpt lat="44.96772" lon="4.77675">
        <ele>546</ele>
        <time>2018-04-09T17:16:15Z</time>
      </trkpt>
      <trkpt lat="44.96809" lon="4.77642">
        <ele>547</ele>
        <time>2018-04-09T17:17:15Z</time>
      </trkpt>
      <trkpt lat="44.96864" lon="4.77607">
        <ele>552</ele>
        <time>2018-04-09T17:18:15Z</time>
      </trkpt>
      <trkpt lat="44.96889" lon="4.77579">
        <ele>548</ele>
        <time>2018-04-09T17:19:15Z</time>
      </trkpt>
      <trkpt lat="44.96908" lon="4.77555">
        <ele>548</ele>
        <time>2018-04-09T17:20:15Z</time>
      </trkpt>
      <trkpt lat="44.96885" lon="4.77471">
        <ele>544</ele>
        <time>2018-04-09T17:21:15Z</time>
      </trkpt>
      <trkpt lat="44.96854" lon="4.7741">
        <ele>544</ele>
        <time>2018-04-09T17:22:15Z</time>
      </trkpt>
      <trkpt lat="44.96862" lon="4.77391">
        <ele>548</ele>
        <time>2018-04-09T17:23:15Z</time>
      </trkpt>
      <trkpt lat="44.96855" lon="4.77368">
        <ele>548</ele>
        <time>2018-04-09T17:24:15Z</time>
      </trkpt>
      <trkpt lat="44.96854" lon="4.7734">
        <ele>549</ele>
        <time>2018-04-09T17:25:15Z</time>
      </trkpt>
      <trkpt lat="44.96832" lon="4.77317">
        <ele>547</ele>
        <time>2018-04-09T17:26:15Z</time>
      </trkpt>
      <trkpt lat="44.96812" lon="4.77281">
        <ele>552</ele>
        <time>2018-04-09T17:27:15Z</time>
      </trkpt>
      <trkpt lat="44.96802" lon="4.77236">
        <ele>566</ele>
        <time>2018-04-09T17:28:15Z</time>
      </trkpt>
      <trkpt lat="44.96782" lon="4.77226">
        <ele>566</ele>
        <time>2018-04-09T17:29:15Z</time>
      </trkpt>
      <trkpt lat="44.96757" lon="4.77218">
        <ele>565</ele>
        <time>2018-04-09T17:30:15Z</time>
      </trkpt>
      <trkpt lat="44.9673" lon="4.7722">
        <ele>559</ele>
        <time>2018-04-09T17:31:15Z</time>
      </trkpt>
      <trkpt lat="44.96713" lon="4.77207">
        <ele>560</ele>
        <time>2018-04-09T17:32:15Z</time>
      </trkpt>
      <trkpt lat="44.96708" lon="4.77197">
        <ele>560</ele>
        <time>2018-04-09T17:33:15Z</time>
      </trkpt>
      <trkpt lat="44.96758" lon="4.7719">
        <ele>569</ele>
        <time>2018-04-09T17:34:15Z</time>
      </trkpt>
      <trkpt lat="44.96732" lon="4.7717">
        <ele>565</ele>
        <time>2018-04-09T17:35:15Z</time>
      </trkpt>
      <trkpt lat="44.96728" lon="4.77138">
        <ele>565</ele>
        <time>2018-04-09T17:36:15Z</time>
      </trkpt>
      <trkpt lat="44.96791" lon="4.77033">
        <ele>577</ele>
        <time>2018-04-09T17:37:15Z</time>
      </trkpt>
      <trkpt lat="44.96853" lon="4.76887">
        <ele>571</ele>
        <time>2018-04-09T17:38:15Z</time>
      </trkpt>
      <trkpt lat="44.96893" lon="4.76803">
        <ele>560</ele>
        <time>2018-04-09T17:39:15Z</time>
      </trkpt>
      <trkpt lat="44.9692" lon="4.76794">
        <ele>557</ele>
        <time>2018-04-09T17:40:15Z</time>
      </trkpt>
      <trkpt lat="44.96959" lon="4.76834">
        <ele>564</ele>
        <time>2018-04-09T17:41:15Z</time>
      </trkpt>
      <trkpt lat="44.97013" lon="4.76859">
        <ele>556</ele>
        <time>2018-04-09T17:42:15Z</time>
      </trkpt>
      <trkpt lat="44.97096" lon="4.76853">
        <ele>540</ele>
        <time>2018-04-09T17:43:15Z</time>
      </trkpt>
      <trkpt lat="44.97145" lon="4.76865">
        <ele>537</ele>
        <time>2018-04-09T17:44:15Z</time>
      </trkpt>
      <trkpt lat="44.97159" lon="4.76846">
        <ele>530</ele>
        <time>2018-04-09T17:45:15Z</time>
      </trkpt>
      <trkpt lat="44.97142" lon="4.76823">
        <ele>522</ele>
        <time>2018-04-09T17:46:15Z</time>
      </trkpt>
      <trkpt lat="44.97151" lon="4.76805">
        <ele>521</ele>
        <time>2018-04-09T17:47:15Z</time>
      </trkpt>
      <trkpt lat="44.97187" lon="4.76812">
        <ele>513</ele>
        <time>2018-04-09T17:48:15Z</time>
      </trkpt>
      <trkpt lat="44.97261" lon="4.76819">
        <ele>508</ele>
        <time>2018-04-09T17:49:15Z</time>
      </trkpt>
      <trkpt lat="44.9727" lon="4.76816">
        <ele>508</ele>
        <time>2018-04-09T17:50:15Z</time>
      </trkpt>
      <trkpt lat="44.97271" lon="4.76772">
        <ele>507</ele>
        <time>2018-04-09T17:51:15Z</time>
      </trkpt>
      <trkpt lat="44.97265" lon="4.76743">
        <ele>508</ele>
        <time>2018-04-09T17:52:15Z</time>
      </trkpt>
      <trkpt lat="44.97263" lon="4.76737">
        <ele>508</ele>
        <time>2018-04-09T17:53:15Z</time>
      </trkpt>
      <trkpt lat="44.97234" lon="4.76707">
        <ele>506</ele>
        <time>2018-04-09T17:54:15Z</time>
      </trkpt>
      <trkpt lat="44.97228" lon="4.76691">
        <ele>506</ele>
        <time>2018-04-09T17:55:15Z</time>
      </trkpt>
      <trkpt lat="44.97224" lon="4.76675">
        <ele>506</ele>
        <time>2018-04-09T17:56:15Z</time>
      </trkpt>
      <trkpt lat="44.97253" lon="4.76676">
        <ele>512</ele>
        <time>2018-04-09T17:57:15Z</time>
      </trkpt>
      <trkpt lat="44.97269" lon="4.76664">
        <ele>517</ele>
        <time>2018-04-09T17:58:15Z</time>
      </trkpt>
      <trkpt lat="44.97271" lon="4.76597">
        <ele>522</ele>
        <time>2018-04-09T17:59:15Z</time>
      </trkpt>
      <trkpt lat="44.97261" lon="4.76534">
        <ele>530</ele>
        <time>2018-04-09T18:00:15Z</time>
      </trkpt>
      <trkpt lat="44.9725" lon="4.76489">
        <ele>530</ele>
        <time>2018-04-09T18:01:15Z</time>
      </trkpt>
      <trkpt lat="44.97252" lon="4.76406">
        <ele>541</ele>
        <time>2018-04-09T18:02:15Z</time>
      </trkpt>
      <trkpt lat="44.97223" lon="4.7632">
        <ele>543</ele>
        <time>2018-04-09T18:03:15Z</time>
      </trkpt>
      <trkpt lat="44.97188" lon="4.76271">
        <ele>542</ele>
        <time>2018-04-09T18:04:15Z</time>
      </trkpt>
      <trkpt lat="44.97159" lon="4.76244">
        <ele>537</ele>
        <time>2018-04-09T18:05:15Z</time>
      </trkpt>
      <trkpt lat="44.97183" lon="4.76188">
        <ele>545</ele>
        <time>2018-04-09T18:06:15Z</time>
      </trkpt>
      <trkpt lat="44.97193" lon="4.76153">
        <ele>545</ele>
        <time>2018-04-09T18:07:15Z</time>
      </trkpt>
      <trkpt lat="44.97194" lon="4.76074">
        <ele>543</ele>
        <time>2018-04-09T18:08:15Z</time>
      </trkpt>
      <trkpt lat="44.9721" lon="4.75996">
        <ele>541</ele>
        <time>2018-04-09T18:09:15Z</time>
      </trkpt>
      <trkpt lat="44.97227" lon="4.75924">
        <ele>540</ele>
        <time>2018-04-09T18:10:15Z</time>
      </trkpt>
      <trkpt lat="44.97268" lon="4.75887">
        <ele>532</ele>
        <time>2018-04-09T18:11:15Z</time>
      </trkpt>
      <trkpt lat="44.97311" lon="4.75902">
        <ele>531</ele>
        <time>2018-04-09T18:12:15Z</time>
      </trkpt>
      <trkpt lat="44.97328" lon="4.75937">
        <ele>539</ele>
        <time>2018-04-09T18:13:15Z</time>
      </trkpt>
      <trkpt lat="44.97361" lon="4.75958">
        <ele>540</ele>
        <time>2018-04-09T18:14:15Z</time>
      </trkpt>
      <trkpt lat="44.97474" lon="4.75842">
        <ele>522</ele>
        <time>2018-04-09T18:15:15Z</time>
      </trkpt>
      <trkpt lat="44.97568" lon="4.75774">
        <ele>514</ele>
        <time>2018-04-09T18:16:15Z</time>
      </trkpt>
      <trkpt lat="44.97597" lon="4.75772">
        <ele>513</ele>
        <time>2018-04-09T18:17:15Z</time>
      </trkpt>
      <trkpt lat="44.97622" lon="4.75738">
        <ele>507</ele>
        <time>2018-04-09T18:18:15Z</time>
      </trkpt>
      <trkpt lat="44.97634" lon="4.7571">
        <ele>506</ele>
        <time>2018-04-09T18:19:15Z</time>
      </trkpt>
      <trkpt lat="44.97655" lon="4.75701">
        <ele>505</ele>
        <time>2018-04-09T18:20:15Z</time>
      </trkpt>
      <trkpt lat="44.9768" lon="4.75658">
        <ele>501</ele>
        <time>2018-04-09T18:21:15Z</time>
      </trkpt>
      <trkpt lat="44.97689" lon="4.75585">
        <ele>497</ele>
        <time>2018-04-09T18:22:15Z</time>
      </trkpt>
      <trkpt lat="44.97746" lon="4.75445">
        <ele>483</ele>
        <time>2018-04-09T18:23:15Z</time>
      </trkpt>
      <trkpt lat="44.97744" lon="4.75401">
        <ele>477</ele>
        <time>2018-04-09T18:24:15Z</time>
      </trkpt>
      <trkpt lat="44.97752" lon="4.75385">
        <ele>475</ele>
        <time>2018-04-09T18:25:15Z</time>
      </trkpt>
      <trkpt lat="44.97854" lon="4.75238">
        <ele>466</ele>
        <time>2018-04-09T18:26:15Z</time>
      </trkpt>
      <trkpt lat="44.9789" lon="4.75217">
        <ele>463</ele>
        <time>2018-04-09T18:27:15Z</time>
      </trkpt>
      <trkpt lat="44.97914" lon="4.7518">
        <ele>463</ele>
        <time>2018-04-09T18:28:15Z</time>
      </trkpt>
      <trkpt lat="44.97923" lon="4.7518">
        <ele>460</ele>
        <time>2018-04-09T18:29:15Z</time>
      </trkpt>
      <trkpt lat="44.98025" lon="4.75128">
        <ele>454</ele>
        <time>2018-04-09T18:30:15Z</time>
      </trkpt>
      <trkpt lat="44.98121" lon="4.75075">
        <ele>449</ele>
        <time>2018-04-09T18:31:15Z</time>
      </trkpt>
      <trkpt lat="44.98127" lon="4.75072">
        <ele>449</ele>
        <time>2018-04-09T18:32:15Z</time>
      </trkpt>
      <trkpt lat="44.98157" lon="4.75051">
        <ele>448</ele>
        <time>2018-04-09T18:33:15Z</time>
      </trkpt>
      <trkpt lat="44.98234" lon="4.75042">
        <ele>443</ele>
        <time>2018-04-09T18:34:15Z</time>
      </trkpt>
      <trkpt lat="44.9827" lon="4.75046">
        <ele>436</ele>
        <time>2018-04-09T18:35:15Z</time>
      </trkpt>
      <trkpt lat="44.98288" lon="4.75044">
        <ele>434</ele>
        <time>2018-04-09T18:36:15Z</time>
      </trkpt>
      <trkpt lat="44.98319" lon="4.75045">
        <ele>432</ele>
        <time>2018-04-09T18:37:15Z</time>
      </trkpt>
      <trkpt lat="44.98348" lon="4.7505">
        <ele>424</ele>
        <time>2018-04-09T18:38:15Z</time>
      </trkpt>
      <trkpt lat="44.98402" lon="4.75081">
        <ele>422</ele>
        <time>2018-04-09T18:39:15Z</time>
      </trkpt>
      <trkpt lat="44.98433" lon="4.75082">
        <ele>415</ele>
        <time>2018-04-09T18:40:15Z</time>
      </trkpt>
      <trkpt lat="44.98437" lon="4.75092">
        <ele>415</ele>
        <time>2018-04-09T18:41:15Z</time>
      </trkpt>
      <trkpt lat="44.98475" lon="4.75125">
        <ele>410</ele>
        <time>2018-04-09T18:42:15Z</time>
      </trkpt>
      <trkpt lat="44.98477" lon="4.75141">
        <ele>409</ele>
        <time>2018-04-09T18:43:15Z</time>
      </trkpt>
      <trkpt lat="44.98465" lon="4.75156">
        <ele>409</ele>
        <time>2018-04-09T18:44:15Z</time>
      </trkpt>
      <trkpt lat="44.98465" lon="4.75169">
        <ele>405</ele>
        <time>2018-04-09T18:45:15Z</time>
      </trkpt>
      <trkpt lat="44.98472" lon="4.75252">
        <ele>394</ele>
        <time>2018-04-09T18:46:15Z</time>
      </trkpt>
      <trkpt lat="44.98499" lon="4.75256">
        <ele>396</ele>
        <time>2018-04-09T18:47:15Z</time>
      </trkpt>
      <trkpt lat="44.98531" lon="4.75232">
        <ele>389</ele>
        <time>2018-04-09T18:48:15Z</time>
      </trkpt>
      <trkpt lat="44.98558" lon="4.75214">
        <ele>385</ele>
        <time>2018-04-09T18:49:15Z</time>
      </trkpt>
      <trkpt lat="44.98556" lon="4.75138">
        <ele>388</ele>
        <time>2018-04-09T18:50:15Z</time>
      </trkpt>
      <trkpt lat="44.9858" lon="4.75168">
        <ele>378</ele>
        <time>2018-04-09T18:51:15Z</time>
      </trkpt>
      <trkpt lat="44.98598" lon="4.75168">
        <ele>373</ele>
        <time>2018-04-09T18:52:15Z</time>
      </trkpt>
      <trkpt lat="44.98586" lon="4.75104">
        <ele>373</ele>
        <time>2018-04-09T18:53:15Z</time>
      </trkpt>
      <trkpt lat="44.98559" lon="4.74999">
        <ele>377</ele>
        <time>2018-04-09T18:54:15Z</time>
      </trkpt>
      <trkpt lat="44.98608" lon="4.74899">
        <ele>380</ele>
        <time>2018-04-09T18:55:15Z</time>
      </trkpt>
      <trkpt lat="44.9859" lon="4.74886">
        <ele>380</ele>
        <time>2018-04-09T18:56:15Z</time>
      </trkpt>
      <trkpt lat="44.98546" lon="4.74836">
        <ele>379</ele>
        <time>2018-04-09T18:57:15Z</time>
      </trkpt>
      <trkpt lat="44.98541" lon="4.74773">
        <ele>382</ele>
        <time>2018-04-09T18:58:15Z</time>
      </trkpt>
      <trkpt lat="44.98524" lon="4.74734">
        <ele>387</ele>
        <time>2018-04-09T18:59:15Z</time>
      </trkpt>
      <trkpt lat="44.98434" lon="4.74626">
        <ele>390</ele>
        <time>2018-04-09T19:00:15Z</time>
      </trkpt>
      <trkpt lat="44.98403" lon="4.74608">
        <ele>382</ele>
        <time>2018-04-09T19:01:15Z</time>
      </trkpt>
      <trkpt lat="44.98409" lon="4.74552">
        <ele>389</ele>
        <time>2018-04-09T19:02:15Z</time>
      </trkpt>
      <trkpt lat="44.98394" lon="4.74526">
        <ele>390</ele>
        <time>2018-04-09T19:03:15Z</time>
      </trkpt>
      <trkpt lat="44.98396" lon="4.74532">
        <ele>390</ele>
        <time>2018-04-09T19:04:15Z</time>
      </trkpt>
      <trkpt lat="44.98332" lon="4.74558">
        <ele>386</ele>
        <time>2018-04-09T19:05:15Z</time>
      </trkpt>
      <trkpt lat="44.98254" lon="4.74523">
        <ele>391</ele>
        <time>2018-04-09T19:06:15Z</time>
      </trkpt>
      <trkpt lat="44.98207" lon="4.74514">
        <ele>388</ele>
        <time>2018-04-09T19:07:15Z</time>
      </trkpt>
      <trkpt lat="44.98167" lon="4.74494">
        <ele>392</ele>
        <time>2018-04-09T19:08:15Z</time>
      </trkpt>
      <trkpt lat="44.98161" lon="4.74455">
        <ele>399</ele>
        <time>2018-04-09T19:09:15Z</time>
      </trkpt>
      <trkpt lat="44.98122" lon="4.74409">
        <ele>402</ele>
        <time>2018-04-09T19:10:15Z</time>
      </trkpt>
      <trkpt lat="44.98112" lon="4.74447">
        <ele>403</ele>
        <time>2018-04-09T19:11:15Z</time>
      </trkpt>
      <trkpt lat="44.98136" lon="4.7447">
        <ele>400</ele>
        <time>2018-04-09T19:12:15Z</time>
      </trkpt>
      <trkpt lat="44.98138" lon="4.74483">
        <ele>400</ele>
        <time>2018-04-09T19:13:15Z</time>
      </trkpt>
      <trkpt lat="44.98119" lon="4.74517">
        <ele>397</ele>
        <time>2018-04-09T19:14:15Z</time>
      </trkpt>
      <trkpt lat="44.981" lon="4.74481">
        <ele>405</ele>
        <time>2018-04-09T19:15:15Z</time>
      </trkpt>
      <trkpt lat="44.98057" lon="4.7447">
        <ele>416</ele>
        <time>2018-04-09T19:16:15Z</time>
      </trkpt>
      <trkpt lat="44.98006" lon="4.74449">
        <ele>419</ele>
        <time>2018-04-09T19:17:15Z</time>
      </trkpt>
      <trkpt lat="44.97975" lon="4.74447">
        <ele>427</ele>
        <time>2018-04-09T19:18:15Z</time>
      </trkpt>
      <trkpt lat="44.97866" lon="4.74379">
        <ele>439</ele>
        <time>2018-04-09T19:19:15Z</time>
      </trkpt>
      <trkpt lat="44.97868" lon="4.7437">
        <ele>439</ele>
        <time>2018-04-09T19:20:15Z</time>
      </trkpt>
      <trkpt lat="44.97833" lon="4.74355">
        <ele>446</ele>
        <time>2018-04-09T19:21:15Z</time>
      </trkpt>
      <trkpt lat="44.97803" lon="4.74386">
        <ele>445</ele>
        <time>2018-04-09T19:22:15Z</time>
      </trkpt>
      <trkpt lat="44.97773" lon="4.74385">
        <ele>447</ele>
        <time>2018-04-09T19:23:15Z</time>
      </trkpt>
      <trkpt lat="44.97757" lon="4.74403">
        <ele>446</ele>
        <time>2018-04-09T19:24:15Z</time>
      </trkpt>
      <trkpt lat="44.97737" lon="4.74494">
        <ele>443</ele>
        <time>2018-04-09T19:25:15Z</time>
      </trkpt>
      <trkpt lat="44.97705" lon="4.74531">
        <ele>443</ele>
        <time>2018-04-09T19:26:15Z</time>
      </trkpt>
      <trkpt lat="44.97702" lon="4.74559">
        <ele>442</ele>
        <time>2018-04-09T19:27:15Z</time>
      </trkpt>
      <trkpt lat="44.97692" lon="4.74603">
        <ele>438</ele>
        <time>2018-04-09T19:28:15Z</time>
      </trkpt>
      <trkpt lat="44.97692" lon="4.74612">
        <ele>438</ele>
        <time>2018-04-09T19:29:15Z</time>
      </trkpt>
      <trkpt lat="44.97658" lon="4.74608">
        <ele>443</ele>
        <time>2018-04-09T19:30:15Z</time>
      </trkpt>
      <trkpt lat="44.97618" lon="4.74584">
        <ele>445</ele>
        <time>2018-04-09T19:31:15Z</time>
      </trkpt>
      <trkpt lat="44.97536" lon="4.7453">
        <ele>463</ele>
        <time>2018-04-09T19:32:15Z</time>
      </trkpt>
      <trkpt lat="44.97543" lon="4.74406">
        <ele>481</ele>
        <time>2018-04-09T19:33:15Z</time>
      </trkpt>
      <trkpt lat="44.97574" lon="4.74366">
        <ele>482</ele>
        <time>2018-04-09T19:34:15Z</time>
      </trkpt>
      <trkpt lat="44.97573" lon="4.74306">
        <ele>490</ele>
        <time>2018-04-09T19:35:15Z</time>
      </trkpt>
      <trkpt lat="44.97466" lon="4.74245">
        <ele>507</ele>
        <time>2018-04-09T19:36:15Z</time>
      </trkpt>
      <trkpt lat="44.97391" lon="4.74184">
        <ele>505</ele>
        <time>2018-04-09T19:37:15Z</time>
      </trkpt>
      <trkpt lat="44.9734" lon="4.7415">
        <ele>502</ele>
        <time>2018-04-09T19:38:15Z</time>
      </trkpt>
      <trkpt lat="44.97336" lon="4.74131">
        <ele>502</ele>
        <time>2018-04-09T19:39:15Z</time>
      </trkpt>
      <trkpt lat="44.97308" lon="4.74073">
        <ele>504</ele>
        <time>2018-04-09T19:40:15Z</time>
      </trkpt>
      <trkpt lat="44.97358" lon="4.74024">
        <ele>498</ele>
        <time>2018-04-09T19:41:15Z</time>
      </trkpt>
      <trkpt lat="44.9736" lon="4.73926">
        <ele>495</ele>
        <time>2018-04-09T19:42:15Z</time>
      </trkpt>
      <trkpt lat="44.97384" lon="4.73861">
        <ele>487</ele>
        <time>2018-04-09T19:43:15Z</time>
      </trkpt>
      <trkpt lat="44.97387" lon="4.73731">
        <ele>477</ele>
        <time>2018-04-09T19:44:15Z</time>
      </trkpt>
      <trkpt lat="44.97382" lon="4.73661">
        <ele>468</ele>
        <time>2018-04-09T19:45:15Z</time>
      </trkpt>
      <trkpt lat="44.97336" lon="4.73586">
        <ele>476</ele>
        <time>2018-04-09T19:46:15Z</time>
      </trkpt>
      <trkpt lat="44.97301" lon="4.73556">
        <ele>484</ele>
        <time>2018-04-09T19:47:15Z</time>
      </trkpt>
      <trkpt lat="44.9729" lon="4.73527">
        <ele>484</ele>
        <time>2018-04-09T19:48:15Z</time>
      </trkpt>
      <trkpt lat="44.97287" lon="4.73476">
        <ele>476</ele>
        <time>2018-04-09T19:49:15Z</time>
      </trkpt>
      <trkpt lat="44.97288" lon="4.73448">
        <ele>474</ele>
        <time>2018-04-09T19:50:15Z</time>
      </trkpt>
      <trkpt lat="44.97274" lon="4.73358">
        <ele>461</ele>
        <time>2018-04-09T19:51:15Z</time>
      </trkpt>
      <trkpt lat="44.97265" lon="4.73358">
        <ele>461</ele>
        <time>2018-04-09T19:52:15Z</time>
      </trkpt>
      <trkpt lat="44.97251" lon="4.73348">
        <ele>461</ele>
        <time>2018-04-09T19:53:15Z</time>
      </trkpt>
      <trkpt lat="44.97225" lon="4.7334">
        <ele>469</ele>
        <time>2018-04-09T19:54:15Z</time>
      </trkpt>
      <trkpt lat="44.97185" lon="4.73304">
        <ele>459</ele>
        <time>2018-04-09T19:55:15Z</time>
      </trkpt>
      <trkpt lat="44.97149" lon="4.73286">
        <ele>462</ele>
        <time>2018-04-09T19:56:15Z</time>
      </trkpt>
      <trkpt lat="44.96993" lon="4.73353">
        <ele>481</ele>
        <time>2018-04-09T19:57:15Z</time>
      </trkpt>
      <trkpt lat="44.96913" lon="4.734">
        <ele>488</ele>
        <time>2018-04-09T19:58:15Z</time>
      </trkpt>
      <trkpt lat="44.96878" lon="4.73433">
        <ele>497</ele>
        <time>2018-04-09T19:59:15Z</time>
      </trkpt>
      <trkpt lat="44.96844" lon="4.73448">
        <ele>497</ele>
        <time>2018-04-09T20:00:15Z</time>
      </trkpt>
      <trkpt lat="44.96818" lon="4.73424">
        <ele>496</ele>
        <time>2018-04-09T20:01:15Z</time>
      </trkpt>
      <trkpt lat="44.9678" lon="4.73404">
        <ele>491</ele>
        <time>2018-04-09T20:02:15Z</time>
      </trkpt>
      <trkpt lat="44.96746" lon="4.73396">
        <ele>495</ele>
        <time>2018-04-09T20:03:15Z</time>
      </trkpt>
      <trkpt lat="44.96678" lon="4.73425">
        <ele>502</ele>
        <time>2018-04-09T20:04:15Z</time>
      </trkpt>
      <trkpt lat="44.96661" lon="4.73392">
        <ele>497</ele>
        <time>2018-04-09T20:05:15Z</time>
      </trkpt>
      <trkpt lat="44.96637" lon="4.73372">
        <ele>496</ele>
        <time>2018-04-09T20:06:15Z</time>
      </trkpt>
      <trkpt lat="44.96608" lon="4.73352">
        <ele>495</ele>
        <time>2018-04-09T20:07:15Z</time>
      </trkpt>
      <trkpt lat="44.96599" lon="4.73352">
        <ele>494</ele>
        <time>2018-04-09T20:08:15Z</time>
      </trkpt>
      <trkpt lat="44.96565" lon="4.73347">
        <ele>500</ele>
        <time>2018-04-09T20:09:15Z</time>
      </trkpt>
      <trkpt lat="44.9653" lon="4.73317">
        <ele>497</ele>
        <time>2018-04-09T20:10:15Z</time>
      </trkpt>
      <trkpt lat="44.96517" lon="4.733">
        <ele>497</ele>
        <time>2018-04-09T20:11:15Z</time>
      </trkpt>
      <trkpt lat="44.96502" lon="4.73274">
        <ele>498</ele>
        <time>2018-04-09T20:12:15Z</time>
      </trkpt>
      <trkpt lat="44.96502" lon="4.7324">
        <ele>498</ele>
        <time>2018-04-09T20:13:15Z</time>
      </trkpt>
      <trkpt lat="44.96507" lon="4.73233">
        <ele>497</ele>
        <time>2018-04-09T20:14:15Z</time>
      </trkpt>
      <trkpt lat="44.96535" lon="4.73178">
        <ele>494</ele>
        <time>2018-04-09T20:15:15Z</time>
      </trkpt>
      <trkpt lat="44.96536" lon="4.7314">
        <ele>495</ele>
        <time>2018-04-09T20:16:15Z</time>
      </trkpt>
      <trkpt lat="44.96517" lon="4.73088">
        <ele>497</ele>
        <time>2018-04-09T20:17:15Z</time>
      </trkpt>
      <trkpt lat="44.96495" lon="4.73071">
        <ele>504</ele>
        <time>2018-04-09T20:18:15Z</time>
      </trkpt>
      <trkpt lat="44.96511" lon="4.73037">
        <ele>502</ele>
        <time>2018-04-09T20:19:15Z</time>
      </trkpt>
      <trkpt lat="44.96548" lon="4.73023">
        <ele>501</ele>
        <time>2018-04-09T20:20:15Z</time>
      </trkpt>
      <trkpt lat="44.96593" lon="4.73009">
        <ele>498</ele>
        <time>2018-04-09T20:21:15Z</time>
      </trkpt>
      <trkpt lat="44.96621" lon="4.72966">
        <ele>509</ele>
        <time>2018-04-09T20:22:15Z</time>
      </trkpt>
      <trkpt lat="44.96659" lon="4.72967">
        <ele>508</ele>
        <time>2018-04-09T20:23:15Z</time>
      </trkpt>
      <trkpt lat="44.96688" lon="4.72962">
        <ele>505</ele>
        <time>2018-04-09T20:24:15Z</time>
      </trkpt>
      <trkpt lat="44.96725" lon="4.72935">
        <ele>507</ele>
        <time>2018-04-09T20:25:15Z</time>
      </trkpt>
      <trkpt lat="44.96733" lon="4.7286">
        <ele>522</ele>
        <time>2018-04-09T20:26:15Z</time>
      </trkpt>
      <trkpt lat="44.96728" lon="4.72812">
        <ele>530</ele>
        <time>2018-04-09T20:27:15Z</time>
      </trkpt>
      <trkpt lat="44.96738" lon="4.72743">
        <ele>534</ele>
        <time>2018-04-09T20:28:15Z</time>
      </trkpt>
      <trkpt lat="44.96717" lon="4.72675">
        <ele>537</ele>
        <time>2018-04-09T20:29:15Z</time>
      </trkpt>
      <trkpt lat="44.96695" lon="4.72573">
        <ele>538</ele>
        <time>2018-04-09T20:30:15Z</time>
      </trkpt>
      <trkpt lat="44.96689" lon="4.72522">
        <ele>536</ele>
        <time>2018-04-09T20:31:15Z</time>
      </trkpt>
      <trkpt lat="44.96676" lon="4.72512">
        <ele>538</ele>
        <time>2018-04-09T20:32:15Z</time>
      </trkpt>
      <trkpt lat="44.96643" lon="4.72539">
        <ele>546</ele>
        <time>2018-04-09T20:33:15Z</time>
      </trkpt>
      <trkpt lat="44.96616" lon="4.72557">
        <ele>549</ele>
        <time>2018-04-09T20:34:15Z</time>
      </trkpt>
      <trkpt lat="44.96615" lon="4.72601">
        <ele>555</ele>
        <time>2018-04-09T20:35:15Z</time>
      </trkpt>
      <trkpt lat="44.966" lon="4.7268">
        <ele>558</ele>
        <time>2018-04-09T20:36:15Z</time>
      </trkpt>
      <trkpt lat="44.9658" lon="4.72685">
        <ele>566</ele>
        <time>2018-04-09T20:37:15Z</time>
      </trkpt>
      <trkpt lat="44.96472" lon="4.72655">
        <ele>580</ele>
        <time>2018-04-09T20:38:15Z</time>
      </trkpt>
      <trkpt lat="44.96349" lon="4.7264">
        <ele>592</ele>
        <time>2018-04-09T20:39:15Z</time>
      </trkpt>
      <trkpt lat="44.96247" lon="4.72655">
        <ele>606</ele>
        <time>2018-04-09T20:40:15Z</time>
      </trkpt>
      <trkpt lat="44.96249" lon="4.72658">
        <ele>606</ele>
        <time>2018-04-09T20:41:15Z</time>
      </trkpt>
      <trkpt lat="44.96135" lon="4.72628">
        <ele>614</ele>
        <time>2018-04-09T20:42:15Z</time>
      </trkpt>
      <trkpt lat="44.95989" lon="4.72749">
        <ele>614</ele>
        <time>2018-04-09T20:43:15Z</time>
      </trkpt>
      <trkpt lat="44.95991" lon="4.72841">
        <ele>613</ele>
        <time>2018-04-09T20:44:15Z</time>
      </trkpt>
      <trkpt lat="44.95995" lon="4.72885">
        <ele>614</ele>
        <time>2018-04-09T20:45:15Z</time>
      </trkpt>
      <trkpt lat="44.95995" lon="4.72898">
        <ele>613</ele>
        <time>2018-04-09T20:46:15Z</time>
      </trkpt>
      <trkpt lat="44.95975" lon="4.7296">
        <ele>613</ele>
        <time>2018-04-09T20:47:15Z</time>
      </trkpt>
      <trkpt lat="44.95983" lon="4.73021">
        <ele>609</ele>
        <time>2018-04-09T20:48:15Z</time>
      </trkpt>
      <trkpt lat="44.95964" lon="4.73071">
        <ele>609</ele>
        <time>2018-04-09T20:49:15Z</time>
      </trkpt>
      <trkpt lat="44.9593" lon="4.73183">
        <ele>607</ele>
        <time>2018-04-09T20:50:15Z</time>
      </trkpt>
      <trkpt lat="44.95911" lon="4.73221">
        <ele>606</ele>
        <time>2018-04-09T20:51:15Z</time>
      </trkpt>
      <trkpt lat="44.95886" lon="4.73223">
        <ele>605</ele>
        <time>2018-04-09T20:52:15Z</time>
      </trkpt>
      <trkpt lat="44.95813" lon="4.73172">
        <ele>601</ele>
        <time>2018-04-09T20:53:15Z</time>
      </trkpt>
      <trkpt lat="44.95741" lon="4.73172">
        <ele>597</ele>
        <time>2018-04-09T20:54:15Z</time>
      </trkpt>
      <trkpt lat="44.95685" lon="4.7316">
        <ele>595</ele>
        <time>2018-04-09T20:55:15Z</time>
      </trkpt>
      <trkpt lat="44.9563" lon="4.73132">
        <ele>589</ele>
        <time>2018-04-09T20:56:15Z</time>
      </trkpt>
      <trkpt lat="44.95603" lon="4.73125">
        <ele>588</ele>
        <time>2018-04-09T20:57:15Z</time>
      </trkpt>
      <trkpt lat="44.95582" lon="4.73061">
        <ele>586</ele>
        <time>2018-04-09T20:58:15Z</time>
      </trkpt>
      <trkpt lat="44.95571" lon="4.73022">
        <ele>587</ele>
        <time>2018-04-09T20:59:15Z</time>
      </trkpt>
      <trkpt lat="44.9543" lon="4.73086">
        <ele>576</ele>
        <time>2018-04-09T21:00:15Z</time>
      </trkpt>
      <trkpt lat="44.95437" lon="4.72978">
        <ele>575</ele>
        <time>2018-04-09T21:01:15Z</time>
      </trkpt>
      <trkpt lat="44.9542" lon="4.72959">
        <ele>574</ele>
        <time>2018-04-09T21:02:15Z</time>
      </trkpt>
      <trkpt lat="44.95408" lon="4.7285">
        <ele>567</ele>
        <time>2018-04-09T21:03:15Z</time>
      </trkpt>
      <trkpt lat="44.95359" lon="4.72734">
        <ele>567</ele>
        <time>2018-04-09T21:04:15Z</time>
      </trkpt>
      <trkpt lat="44.9533" lon="4.7273">
        <ele>567</ele>
        <time>2018-04-09T21:05:15Z</time>
      </trkpt>
      <trkpt lat="44.95235" lon="4.7265">
        <ele>571</ele>
        <time>2018-04-09T21:06:15Z</time>
      </trkpt>
      <trkpt lat="44.9502" lon="4.72587">
        <ele>575</ele>
        <time>2018-04-09T21:07:15Z</time>
      </trkpt>
      <trkpt lat="44.95002" lon="4.72624">
        <ele>573</ele>
        <time>2018-04-09T21:08:15Z</time>
      </trkpt>
      <trkpt lat="44.94963" lon="4.72651">
        <ele>570</ele>
        <time>2018-04-09T21:09:15Z</time>
      </trkpt>
      <trkpt lat="44.94933" lon="4.72675">
        <ele>566</ele>
        <time>2018-04-09T21:10:15Z</time>
      </trkpt>
      <trkpt lat="44.94882" lon="4.72749">
        <ele>565</ele>
        <time>2018-04-09T21:11:15Z</time>
      </trkpt>
      <trkpt lat="44.94768" lon="4.72823">
        <ele>558</ele>
        <time>2018-04-09T21:12:15Z</time>
      </trkpt>
      <trkpt lat="44.94655" lon="4.72815">
        <ele>560</ele>
        <time>2018-04-09T21:13:15Z</time>
      </trkpt>
      <trkpt lat="44.94569" lon="4.72849">
        <ele>558</ele>
        <time>2018-04-09T21:14:15Z</time>
      </trkpt>
      <trkpt lat="44.9453" lon="4.72908">
        <ele>556</ele>
        <time>2018-04-09T21:15:15Z</time>
      </trkpt>
      <trkpt lat="44.94487" lon="4.729">
        <ele>554</ele>
        <time>2018-04-09T21:16:15Z</time>
      </trkpt>
      <trkpt lat="44.94457" lon="4.72949">
        <ele>551</ele>
        <time>2018-04-09T21:17:15Z</time>
      </trkpt>
      <trkpt lat="44.94431" lon="4.72881">
        <ele>555</ele>
        <time>2018-04-09T21:18:15Z</time>
      </trkpt>
      <trkpt lat="44.94418" lon="4.72878">
        <ele>555</ele>
        <time>2018-04-09T21:19:15Z</time>
      </trkpt>
      <trkpt lat="44.94395" lon="4.7288">
        <ele>552</ele>
        <time>2018-04-09T21:20:15Z</time>
      </trkpt>
      <trkpt lat="44.94345" lon="4.72913">
        <ele>549</ele>
        <time>2018-04-09T21:21:15Z</time>
      </trkpt>
      <trkpt lat="44.94189" lon="4.73039">
        <ele>535</ele>
        <time>2018-04-09T21:22:15Z</time>
      </trkpt>
      <trkpt lat="44.94008" lon="4.73101">
        <ele>525</ele>
        <time>2018-04-09T21:23:15Z</time>
      </trkpt>
      <trkpt lat="44.93922" lon="4.73119">
        <ele>522</ele>
        <time>2018-04-09T21:24:15Z</time>
      </trkpt>
      <trkpt lat="44.93827" lon="4.73172">
        <ele>531</ele>
        <time>2018-04-09T21:25:15Z</time>
      </trkpt>
      <trkpt lat="44.9377" lon="4.73173">
        <ele>537</ele>
        <time>2018-04-09T21:26:15Z</time>
      </trkpt>
      <trkpt lat="44.93728" lon="4.73159">
        <ele>539</ele>
        <time>2018-04-09T21:27:15Z</time>
      </trkpt>
      <trkpt lat="44.93708" lon="4.73142">
        <ele>540</ele>
        <time>2018-04-09T21:28:15Z</time>
      </trkpt>
      <trkpt lat="44.93682" lon="4.73112">
        <ele>540</ele>
        <time>2018-04-09T21:29:15Z</time>
      </trkpt>
      <trkpt lat="44.93675" lon="4.73125">
        <ele>540</ele>
        <time>2018-04-09T21:30:15Z</time>
      </trkpt>
      <trkpt lat="44.93636" lon="4.73161">
        <ele>547</ele>
        <time>2018-04-09T21:31:15Z</time>
      </trkpt>
      <trkpt lat="44.93425" lon="4.73215">
        <ele>568</ele>
        <time>2018-04-09T21:32:15Z</time>
      </trkpt>
      <trkpt lat="44.93364" lon="4.73254">
        <ele>570</ele>
        <time>2018-04-09T21:33:15Z</time>
      </trkpt>
      <trkpt lat="44.93272" lon="4.73244">
        <ele>574</ele>
        <time>2018-04-09T21:34:15Z</time>
      </trkpt>
      <trkpt lat="44.93087" lon="4.73255">
        <ele>578</ele>
        <time>2018-04-09T21:35:15Z</time>
      </trkpt>
      <trkpt lat="44.92966" lon="4.7323">
        <ele>583</ele>
        <time>2018-04-09T21:36:15Z</time>
      </trkpt>
      <trkpt lat="44.92856" lon="4.73232">
        <ele>587</ele>
        <time>2018-04-09T21:37:15Z</time>
      </trkpt>
      <trkpt lat="44.92818" lon="4.73192">
        <ele>586</ele>
        <time>2018-04-09T21:38:15Z</time>
      </trkpt>
      <trkpt lat="44.92801" lon="4.73163">
        <ele>583</ele>
        <time>2018-04-09T21:39:15Z</time>
      </trkpt>
      <trkpt lat="44.92731" lon="4.7316">
        <ele>589</ele>
        <time>2018-04-09T21:40:15Z</time>
      </trkpt>
      <trkpt lat="44.92712" lon="4.73134">
        <ele>590</ele>
        <time>2018-04-09T21:41:15Z</time>
      </trkpt>
      <trkpt lat="44.92699" lon="4.73108">
        <ele>590</ele>
        <time>2018-04-09T21:42:15Z</time>
      </trkpt>
      <trkpt lat="44.92674" lon="4.73085">
        <ele>594</ele>
        <time>2018-04-09T21:43:15Z</time>
      </trkpt>
      <trkpt lat="44.92652" lon="4.73081">
        <ele>594</ele>
        <time>2018-04-09T21:44:15Z</time>
      </trkpt>
      <trkpt lat="44.92591" lon="4.73094">
        <ele>601</ele>
        <time>2018-04-09T21:45:15Z</time>
      </trkpt>
      <trkpt lat="44.92525" lon="4.73145">
        <ele>606</ele>
        <time>2018-04-09T21:46:15Z</time>
      </trkpt>
      <trkpt lat="44.92517" lon="4.73175">
        <ele>611</ele>
        <time>2018-04-09T21:47:15Z</time>
      </trkpt>
      <trkpt lat="44.92478" lon="4.73054">
        <ele>603</ele>
        <time>2018-04-09T21:48:15Z</time>
      </trkpt>
    </trkseg>
  </trk>
  <trk>
    <name><![CDATA[20180411140905-PUomM]]></name>
    <trkseg>
      <trkpt lat="45.02428" lon="4.64933">
        <ele>298</ele>
        <time>2018-04-11T10:38:48Z</time>
      </trkpt>
      <trkpt lat="45.02511" lon="4.64864">
        <ele>305</ele>
        <time>2018-04-11T10:39:48Z</time>
      </trkpt>
      <trkpt lat="45.02594" lon="4.64756">
        <ele>305</ele>
        <time>2018-04-11T10:40:48Z</time>
      </trkpt>
      <trkpt lat="45.02659" lon="4.64739">
        <ele>307</ele>
        <time>2018-04-11T10:41:48Z</time>
      </trkpt>
      <trkpt lat="45.02706" lon="4.64737">
        <ele>311</ele>
        <time>2018-04-11T10:42:48Z</time>
      </trkpt>
      <trkpt lat="45.02757" lon="4.64711">
        <ele>315</ele>
        <time>2018-04-11T10:43:48Z</time>
      </trkpt>
      <trkpt lat="45.02814" lon="4.64657">
        <ele>328</ele>
        <time>2018-04-11T10:44:48Z</time>
      </trkpt>
      <trkpt lat="45.02951" lon="4.64685">
        <ele>320</ele>
        <time>2018-04-11T10:45:48Z</time>
      </trkpt>
      <trkpt lat="45.0303" lon="4.64576">
        <ele>347</ele>
        <time>2018-04-11T10:46:48Z</time>
      </trkpt>
      <trkpt lat="45.0307" lon="4.64306">
        <ele>364</ele>
        <time>2018-04-11T10:47:48Z</time>
      </trkpt>
      <trkpt lat="45.03089" lon="4.6438">
        <ele>363</ele>
        <time>2018-04-11T10:48:48Z</time>
      </trkpt>
      <trkpt lat="45.03104" lon="4.645">
        <ele>357</ele>
        <time>2018-04-11T10:49:48Z</time>
      </trkpt>
      <trkpt lat="45.03127" lon="4.64602">
        <ele>351</ele>
        <time>2018-04-11T10:50:48Z</time>
      </trkpt>
      <trkpt lat="45.03221" lon="4.64589">
        <ele>368</ele>
        <time>2018-04-11T10:51:48Z</time>
      </trkpt>
      <trkpt lat="45.03306" lon="4.64566">
        <ele>379</ele>
        <time>2018-04-11T10:52:48Z</time>
      </trkpt>
      <trkpt lat="45.03286" lon="4.64658">
        <ele>375</ele>
        <time>2018-04-11T10:53:48Z</time>
      </trkpt>
      <trkpt lat="45.03311" lon="4.64714">
        <ele>378</ele>
        <time>2018-04-11T10:54:48Z</time>
      </trkpt>
      <trkpt lat="45.03338" lon="4.64877">
        <ele>382</ele>
        <time>2018-04-11T10:55:48Z</time>
      </trkpt>
      <trkpt lat="45.03311" lon="4.6493">
        <ele>377</ele>
        <time>2018-04-11T10:56:48Z</time>
      </trkpt>
      <trkpt lat="45.03322" lon="4.65012">
        <ele>377</ele>
        <time>2018-04-11T10:57:48Z</time>
      </trkpt>
      <trkpt lat="45.03394" lon="4.65076">
        <ele>384</ele>
        <time>2018-04-11T10:58:48Z</time>
      </trkpt>
      <trkpt lat="45.0345" lon="4.65165">
        <ele>392</ele>
        <time>2018-04-11T10:59:48Z</time>
      </trkpt>
      <trkpt lat="45.0354" lon="4.6515">
        <ele>406</ele>
        <time>2018-04-11T11:00:48Z</time>
      </trkpt>
      <trkpt lat="45.03556" lon="4.65193">
        <ele>408</ele>
        <time>2018-04-11T11:01:48Z</time>
      </trkpt>
      <trkpt lat="45.03635" lon="4.65199">
        <ele>417</ele>
        <time>2018-04-11T11:02:48Z</time>
      </trkpt>
      <trkpt lat="45.03646" lon="4.65276">
        <ele>418</ele>
        <time>2018-04-11T11:03:48Z</time>
      </trkpt>
      <trkpt lat="45.03759" lon="4.65171">
        <ele>431</ele>
        <time>2018-04-11T11:04:48Z</time>
      </trkpt>
      <trkpt lat="45.0386" lon="4.65112">
        <ele>448</ele>
        <time>2018-04-11T11:05:48Z</time>
      </trkpt>
      <trkpt lat="45.03889" lon="4.65069">
        <ele>453</ele>
        <time>2018-04-11T11:06:48Z</time>
      </trkpt>
      <trkpt lat="45.04024" lon="4.64839">
        <ele>469</ele>
        <time>2018-04-11T11:07:48Z</time>
      </trkpt>
      <trkpt lat="45.04027" lon="4.64719">
        <ele>479</ele>
        <time>2018-04-11T11:08:48Z</time>
      </trkpt>
      <trkpt lat="45.04052" lon="4.64637">
        <ele>484</ele>
        <time>2018-04-11T11:09:48Z</time>
      </trkpt>
      <trkpt lat="45.04135" lon="4.64601">
        <ele>483</ele>
        <time>2018-04-11T11:10:48Z</time>
      </trkpt>
      <trkpt lat="45.04191" lon="4.6464">
        <ele>477</ele>
        <time>2018-04-11T11:11:48Z</time>
      </trkpt>
      <trkpt lat="45.04256" lon="4.64594">
        <ele>476</ele>
        <time>2018-04-11T11:12:48Z</time>
      </trkpt>
      <trkpt lat="45.04297" lon="4.64545">
        <ele>476</ele>
        <time>2018-04-11T11:13:48Z</time>
      </trkpt>
      <trkpt lat="45.04285" lon="4.64474">
        <ele>484</ele>
        <time>2018-04-11T11:14:48Z</time>
      </trkpt>
      <trkpt lat="45.04335" lon="4.64443">
        <ele>472</ele>
        <time>2018-04-11T11:15:48Z</time>
      </trkpt>
      <trkpt lat="45.04346" lon="4.64308">
        <ele>482</ele>
        <time>2018-04-11T11:16:48Z</time>
      </trkpt>
      <trkpt lat="45.04371" lon="4.64253">
        <ele>482</ele>
        <time>2018-04-11T11:17:48Z</time>
      </trkpt>
      <trkpt lat="45.04368" lon="4.64166">
        <ele>500</ele>
        <time>2018-04-11T11:18:48Z</time>
      </trkpt>
      <trkpt lat="45.04422" lon="4.64092">
        <ele>504</ele>
        <time>2018-04-11T11:19:48Z</time>
      </trkpt>
      <trkpt lat="45.04447" lon="4.64181">
        <ele>495</ele>
        <time>2018-04-11T11:20:48Z</time>
      </trkpt>
      <trkpt lat="45.04489" lon="4.64222">
        <ele>497</ele>
        <time>2018-04-11T11:21:48Z</time>
      </trkpt>
      <trkpt lat="45.04554" lon="4.64173">
        <ele>518</ele>
        <time>2018-04-11T11:22:48Z</time>
      </trkpt>
      <trkpt lat="45.0457" lon="4.64115">
        <ele>525</ele>
        <time>2018-04-11T11:23:48Z</time>
      </trkpt>
      <trkpt lat="45.04597" lon="4.64082">
        <ele>542</ele>
        <time>2018-04-11T11:24:48Z</time>
      </trkpt>
      <trkpt lat="45.04581" lon="4.6401">
        <ele>535</ele>
        <time>2018-04-11T11:25:48Z</time>
      </trkpt>
      <trkpt lat="45.04584" lon="4.63977">
        <ele>544</ele>
        <time>2018-04-11T11:26:48Z</time>
      </trkpt>
      <trkpt lat="45.04718" lon="4.63811">
        <ele>557</ele>
        <time>2018-04-11T11:27:48Z</time>
      </trkpt>
      <trkpt lat="45.04778" lon="4.63633">
        <ele>570</ele>
        <time>2018-04-11T11:28:48Z</time>
      </trkpt>
      <trkpt lat="45.04816" lon="4.63406">
        <ele>584</ele>
        <time>2018-04-11T11:29:48Z</time>
      </trkpt>
      <trkpt lat="45.04846" lon="4.63397">
        <ele>587</ele>
        <time>2018-04-11T11:30:48Z</time>
      </trkpt>
      <trkpt lat="45.04866" lon="4.63516">
        <ele>587</ele>
        <time>2018-04-11T11:31:48Z</time>
      </trkpt>
      <trkpt lat="45.04875" lon="4.63621">
        <ele>591</ele>
        <time>2018-04-11T11:32:48Z</time>
      </trkpt>
      <trkpt lat="45.04966" lon="4.63664">
        <ele>610</ele>
        <time>2018-04-11T11:33:48Z</time>
      </trkpt>
      <trkpt lat="45.05014" lon="4.63789">
        <ele>618</ele>
        <time>2018-04-11T11:34:48Z</time>
      </trkpt>
      <trkpt lat="45.05074" lon="4.63764">
        <ele>617</ele>
        <time>2018-04-11T11:35:48Z</time>
      </trkpt>
      <trkpt lat="45.05079" lon="4.63848">
        <ele>615</ele>
        <time>2018-04-11T11:36:48Z</time>
      </trkpt>
      <trkpt lat="45.0513" lon="4.63896">
        <ele>607</ele>
        <time>2018-04-11T11:37:48Z</time>
      </trkpt>
      <trkpt lat="45.05162" lon="4.63851">
        <ele>608</ele>
        <time>2018-04-11T11:38:48Z</time>
      </trkpt>
      <trkpt lat="45.05317" lon="4.63914">
        <ele>608</ele>
        <time>2018-04-11T11:39:48Z</time>
      </trkpt>
      <trkpt lat="45.05429" lon="4.63986">
        <ele>598</ele>
        <time>2018-04-11T11:40:48Z</time>
      </trkpt>
      <trkpt lat="45.05569" lon="4.63976">
        <ele>603</ele>
        <time>2018-04-11T11:41:48Z</time>
      </trkpt>
      <trkpt lat="45.05634" lon="4.63958">
        <ele>610</ele>
        <time>2018-04-11T11:42:48Z</time>
      </trkpt>
      <trkpt lat="45.05783" lon="4.64035">
        <ele>620</ele>
        <time>2018-04-11T11:43:48Z</time>
      </trkpt>
      <trkpt lat="45.05851" lon="4.64099">
        <ele>612</ele>
        <time>2018-04-11T11:44:48Z</time>
      </trkpt>
      <trkpt lat="45.05909" lon="4.64147">
        <ele>609</ele>
        <time>2018-04-11T11:45:48Z</time>
      </trkpt>
      <trkpt lat="45.0588" lon="4.64209">
        <ele>597</ele>
        <time>2018-04-11T11:46:48Z</time>
      </trkpt>
      <trkpt lat="45.05833" lon="4.6422">
        <ele>590</ele>
        <time>2018-04-11T11:47:48Z</time>
      </trkpt>
      <trkpt lat="45.05813" lon="4.64243">
        <ele>589</ele>
        <time>2018-04-11T11:48:48Z</time>
      </trkpt>
      <trkpt lat="45.05831" lon="4.64328">
        <ele>576</ele>
        <time>2018-04-11T11:49:48Z</time>
      </trkpt>
      <trkpt lat="45.05773" lon="4.64414">
        <ele>566</ele>
        <time>2018-04-11T11:50:48Z</time>
      </trkpt>
      <trkpt lat="45.05726" lon="4.64524">
        <ele>543</ele>
        <time>2018-04-11T11:51:48Z</time>
      </trkpt>
      <trkpt lat="45.05672" lon="4.64598">
        <ele>533</ele>
        <time>2018-04-11T11:52:48Z</time>
      </trkpt>
      <trkpt lat="45.05622" lon="4.64629">
        <ele>530</ele>
        <time>2018-04-11T11:53:48Z</time>
      </trkpt>
      <trkpt lat="45.0558" lon="4.64772">
        <ele>531</ele>
        <time>2018-04-11T11:54:48Z</time>
      </trkpt>
      <trkpt lat="45.05607" lon="4.64866">
        <ele>527</ele>
        <time>2018-04-11T11:55:48Z</time>
      </trkpt>
      <trkpt lat="45.05604" lon="4.64912">
        <ele>529</ele>
        <time>2018-04-11T11:56:48Z</time>
      </trkpt>
      <trkpt lat="45.05622" lon="4.65008">
        <ele>528</ele>
        <time>2018-04-11T11:57:48Z</time>
      </trkpt>
      <trkpt lat="45.05598" lon="4.65046">
        <ele>530</ele>
        <time>2018-04-11T11:58:48Z</time>
      </trkpt>
      <trkpt lat="45.05485" lon="4.65163">
        <ele>543</ele>
        <time>2018-04-11T11:59:48Z</time>
      </trkpt>
      <trkpt lat="45.05346" lon="4.65311">
        <ele>542</ele>
        <time>2018-04-11T12:00:48Z</time>
      </trkpt>
      <trkpt lat="45.05268" lon="4.65448">
        <ele>527</ele>
        <time>2018-04-11T12:01:48Z</time>
      </trkpt>
      <trkpt lat="45.05214" lon="4.65502">
        <ele>521</ele>
        <time>2018-04-11T12:02:48Z</time>
      </trkpt>
      <trkpt lat="45.05209" lon="4.65571">
        <ele>518</ele>
        <time>2018-04-11T12:03:48Z</time>
      </trkpt>
      <trkpt lat="45.05174" lon="4.6575">
        <ele>505</ele>
        <time>2018-04-11T12:04:48Z</time>
      </trkpt>
      <trkpt lat="45.05106" lon="4.65911">
        <ele>496</ele>
        <time>2018-04-11T12:05:48Z</time>
      </trkpt>
      <trkpt lat="45.05117" lon="4.66017">
        <ele>487</ele>
        <time>2018-04-11T12:06:48Z</time>
      </trkpt>
      <trkpt lat="45.05145" lon="4.66144">
        <ele>480</ele>
        <time>2018-04-11T12:07:48Z</time>
      </trkpt>
      <trkpt lat="45.05113" lon="4.66218">
        <ele>474</ele>
        <time>2018-04-11T12:08:48Z</time>
      </trkpt>
      <trkpt lat="45.05201" lon="4.66339">
        <ele>473</ele>
        <time>2018-04-11T12:09:48Z</time>
      </trkpt>
      <trkpt lat="45.05296" lon="4.66406">
        <ele>473</ele>
        <time>2018-04-11T12:10:48Z</time>
      </trkpt>
      <trkpt lat="45.0541" lon="4.66446">
        <ele>470</ele>
        <time>2018-04-11T12:11:48Z</time>
      </trkpt>
      <trkpt lat="45.05487" lon="4.66607">
        <ele>464</ele>
        <time>2018-04-11T12:12:48Z</time>
      </trkpt>
      <trkpt lat="45.05513" lon="4.66671">
        <ele>458</ele>
        <time>2018-04-11T12:13:48Z</time>
      </trkpt>
      <trkpt lat="45.05504" lon="4.66737">
        <ele>455</ele>
        <time>2018-04-11T12:14:48Z</time>
      </trkpt>
      <trkpt lat="45.05506" lon="4.66824">
        <ele>448</ele>
        <time>2018-04-11T12:15:48Z</time>
      </trkpt>
      <trkpt lat="45.05579" lon="4.66917">
        <ele>441</ele>
        <time>2018-04-11T12:16:48Z</time>
      </trkpt>
      <trkpt lat="45.0565" lon="4.66856">
        <ele>434</ele>
        <time>2018-04-11T12:17:48Z</time>
      </trkpt>
      <trkpt lat="45.05724" lon="4.66779">
        <ele>428</ele>
        <time>2018-04-11T12:18:48Z</time>
      </trkpt>
      <trkpt lat="45.05794" lon="4.66764">
        <ele>425</ele>
        <time>2018-04-11T12:19:48Z</time>
      </trkpt>
      <trkpt lat="45.05892" lon="4.66764">
        <ele>420</ele>
        <time>2018-04-11T12:20:48Z</time>
      </trkpt>
      <trkpt lat="45.05901" lon="4.66695">
        <ele>422</ele>
        <time>2018-04-11T12:21:48Z</time>
      </trkpt>
      <trkpt lat="45.05913" lon="4.6665">
        <ele>423</ele>
        <time>2018-04-11T12:22:48Z</time>
      </trkpt>
      <trkpt lat="45.0595" lon="4.66605">
        <ele>427</ele>
        <time>2018-04-11T12:23:48Z</time>
      </trkpt>
      <trkpt lat="45.0598" lon="4.66673">
        <ele>428</ele>
        <time>2018-04-11T12:24:48Z</time>
      </trkpt>
      <trkpt lat="45.06068" lon="4.66656">
        <ele>436</ele>
        <time>2018-04-11T12:25:48Z</time>
      </trkpt>
      <trkpt lat="45.06141" lon="4.66708">
        <ele>440</ele>
        <time>2018-04-11T12:26:48Z</time>
      </trkpt>
      <trkpt lat="45.06189" lon="4.66731">
        <ele>446</ele>
        <time>2018-04-11T12:27:48Z</time>
      </trkpt>
      <trkpt lat="45.06307" lon="4.66723">
        <ele>455</ele>
        <time>2018-04-11T12:28:48Z</time>
      </trkpt>
      <trkpt lat="45.06445" lon="4.66723">
        <ele>466</ele>
        <time>2018-04-11T12:29:48Z</time>
      </trkpt>
      <trkpt lat="45.06549" lon="4.66766">
        <ele>465</ele>
        <time>2018-04-11T12:30:48Z</time>
      </trkpt>
      <trkpt lat="45.06554" lon="4.66859">
        <ele>465</ele>
        <time>2018-04-11T12:31:48Z</time>
      </trkpt>
      <trkpt lat="45.06563" lon="4.67048">
        <ele>467</ele>
        <time>2018-04-11T12:32:48Z</time>
      </trkpt>
      <trkpt lat="45.06544" lon="4.67249">
        <ele>479</ele>
        <time>2018-04-11T12:33:48Z</time>
      </trkpt>
      <trkpt lat="45.06544" lon="4.67485">
        <ele>491</ele>
        <time>2018-04-11T12:34:48Z</time>
      </trkpt>
      <trkpt lat="45.06528" lon="4.6765">
        <ele>496</ele>
        <time>2018-04-11T12:35:48Z</time>
      </trkpt>
      <trkpt lat="45.06509" lon="4.6783">
        <ele>497</ele>
        <time>2018-04-11T12:36:48Z</time>
      </trkpt>
      <trkpt lat="45.06495" lon="4.68016">
        <ele>494</ele>
        <time>2018-04-11T12:37:48Z</time>
      </trkpt>
      <trkpt lat="45.06425" lon="4.68216">
        <ele>486</ele>
        <time>2018-04-11T12:38:48Z</time>
      </trkpt>
      <trkpt lat="45.06454" lon="4.6839">
        <ele>486</ele>
        <time>2018-04-11T12:39:48Z</time>
      </trkpt>
      <trkpt lat="45.0646" lon="4.68489">
        <ele>486</ele>
        <time>2018-04-11T12:40:48Z</time>
      </trkpt>
      <trkpt lat="45.06524" lon="4.68555">
        <ele>484</ele>
        <time>2018-04-11T12:41:48Z</time>
      </trkpt>
      <trkpt lat="45.06574" lon="4.68645">
        <ele>484</ele>
        <time>2018-04-11T12:42:48Z</time>
      </trkpt>
      <trkpt lat="45.06572" lon="4.68761">
        <ele>476</ele>
        <time>2018-04-11T12:43:48Z</time>
      </trkpt>
      <trkpt lat="45.06559" lon="4.68823">
        <ele>472</ele>
        <time>2018-04-11T12:44:48Z</time>
      </trkpt>
      <trkpt lat="45.06577" lon="4.68905">
        <ele>461</ele>
        <time>2018-04-11T12:45:48Z</time>
      </trkpt>
      <trkpt lat="45.06568" lon="4.68961">
        <ele>456</ele>
        <time>2018-04-11T12:46:48Z</time>
      </trkpt>
      <trkpt lat="45.06605" lon="4.69014">
        <ele>449</ele>
        <time>2018-04-11T12:47:48Z</time>
      </trkpt>
      <trkpt lat="45.06674" lon="4.69038">
        <ele>448</ele>
        <time>2018-04-11T12:48:48Z</time>
      </trkpt>
      <trkpt lat="45.06681" lon="4.6907">
        <ele>447</ele>
        <time>2018-04-11T12:49:48Z</time>
      </trkpt>
      <trkpt lat="45.06771" lon="4.69051">
        <ele>447</ele>
        <time>2018-04-11T12:50:48Z</time>
      </trkpt>
      <trkpt lat="45.06833" lon="4.69085">
        <ele>443</ele>
        <time>2018-04-11T12:51:48Z</time>
      </trkpt>
      <trkpt lat="45.06899" lon="4.69089">
        <ele>438</ele>
        <time>2018-04-11T12:52:48Z</time>
      </trkpt>
      <trkpt lat="45.06969" lon="4.69102">
        <ele>431</ele>
        <time>2018-04-11T12:53:48Z</time>
      </trkpt>
      <trkpt lat="45.07045" lon="4.69081">
        <ele>425</ele>
        <time>2018-04-11T12:54:48Z</time>
      </trkpt>
      <trkpt lat="45.07121" lon="4.69113">
        <ele>418</ele>
        <time>2018-04-11T12:55:48Z</time>
      </trkpt>
      <trkpt lat="45.07171" lon="4.69194">
        <ele>408</ele>
        <time>2018-04-11T12:56:48Z</time>
      </trkpt>
      <trkpt lat="45.07174" lon="4.69246">
        <ele>408</ele>
        <time>2018-04-11T12:57:48Z</time>
      </trkpt>
      <trkpt lat="45.07165" lon="4.69267">
        <ele>410</ele>
        <time>2018-04-11T12:58:48Z</time>
      </trkpt>
      <trkpt lat="45.07257" lon="4.69464">
        <ele>386</ele>
        <time>2018-04-11T12:59:48Z</time>
      </trkpt>
      <trkpt lat="45.07383" lon="4.69548">
        <ele>371</ele>
        <time>2018-04-11T13:00:48Z</time>
      </trkpt>
      <trkpt lat="45.07474" lon="4.69579">
        <ele>360</ele>
        <time>2018-04-11T13:01:48Z</time>
      </trkpt>
      <trkpt lat="45.07552" lon="4.69628">
        <ele>343</ele>
        <time>2018-04-11T13:02:48Z</time>
      </trkpt>
      <trkpt lat="45.07555" lon="4.69521">
        <ele>348</ele>
        <time>2018-04-11T13:03:48Z</time>
      </trkpt>
      <trkpt lat="45.07593" lon="4.6963">
        <ele>341</ele>
        <time>2018-04-11T13:04:48Z</time>
      </trkpt>
      <trkpt lat="45.07593" lon="4.69533">
        <ele>346</ele>
        <time>2018-04-11T13:05:48Z</time>
      </trkpt>
      <trkpt lat="45.07593" lon="4.69439">
        <ele>350</ele>
        <time>2018-04-11T13:06:48Z</time>
      </trkpt>
      <trkpt lat="45.07577" lon="4.69278">
        <ele>352</ele>
        <time>2018-04-11T13:07:48Z</time>
      </trkpt>
      <trkpt lat="45.07687" lon="4.69458">
        <ele>375</ele>
        <time>2018-04-11T13:08:48Z</time>
      </trkpt>
      <trkpt lat="45.077" lon="4.6951">
        <ele>366</ele>
        <time>2018-04-11T13:09:48Z</time>
      </trkpt>
      <trkpt lat="45.07756" lon="4.69518">
        <ele>381</ele>
        <time>2018-04-11T13:10:48Z</time>
      </trkpt>
      <trkpt lat="45.07732" lon="4.69388">
        <ele>389</ele>
        <time>2018-04-11T13:11:48Z</time>
      </trkpt>
      <trkpt lat="45.07771" lon="4.69439">
        <ele>394</ele>
        <time>2018-04-11T13:12:48Z</time>
      </trkpt>
      <trkpt lat="45.07798" lon="4.69431">
        <ele>396</ele>
        <time>2018-04-11T13:13:48Z</time>
      </trkpt>
      <trkpt lat="45.078" lon="4.69332">
        <ele>409</ele>
        <time>2018-04-11T13:14:48Z</time>
      </trkpt>
      <trkpt lat="45.07751" lon="4.69201">
        <ele>419</ele>
        <time>2018-04-11T13:15:48Z</time>
      </trkpt>
      <trkpt lat="45.0775" lon="4.69098">
        <ele>426</ele>
        <time>2018-04-11T13:16:48Z</time>
      </trkpt>
      <trkpt lat="45.07797" lon="4.68995">
        <ele>436</ele>
        <time>2018-04-11T13:17:48Z</time>
      </trkpt>
      <trkpt lat="45.07941" lon="4.68925">
        <ele>453</ele>
        <time>2018-04-11T13:18:48Z</time>
      </trkpt>
      <trkpt lat="45.08027" lon="4.68878">
        <ele>461</ele>
        <time>2018-04-11T13:19:48Z</time>
      </trkpt>
      <trkpt lat="45.08085" lon="4.68725">
        <ele>471</ele>
        <time>2018-04-11T13:20:48Z</time>
      </trkpt>
      <trkpt lat="45.08156" lon="4.68698">
        <ele>469</ele>
        <time>2018-04-11T13:21:48Z</time>
      </trkpt>
      <trkpt lat="45.08277" lon="4.68631">
        <ele>467</ele>
        <time>2018-04-11T13:22:48Z</time>
      </trkpt>
      <trkpt lat="45.08348" lon="4.68631">
        <ele>465</ele>
        <time>2018-04-11T13:23:48Z</time>
      </trkpt>
      <trkpt lat="45.08391" lon="4.68714">
        <ele>463</ele>
        <time>2018-04-11T13:24:48Z</time>
      </trkpt>
      <trkpt lat="45.08365" lon="4.68822">
        <ele>465</ele>
        <time>2018-04-11T13:25:48Z</time>
      </trkpt>
      <trkpt lat="45.0859" lon="4.69069">
        <ele>488</ele>
        <time>2018-04-11T13:26:48Z</time>
      </trkpt>
      <trkpt lat="45.08643" lon="4.69269">
        <ele>486</ele>
        <time>2018-04-11T13:27:48Z</time>
      </trkpt>
      <trkpt lat="45.08686" lon="4.69423">
        <ele>486</ele>
        <time>2018-04-11T13:28:48Z</time>
      </trkpt>
      <trkpt lat="45.0879" lon="4.69552">
        <ele>484</ele>
        <time>2018-04-11T13:29:48Z</time>
      </trkpt>
      <trkpt lat="45.08869" lon="4.6959">
        <ele>481</ele>
        <time>2018-04-11T13:30:48Z</time>
      </trkpt>
      <trkpt lat="45.08975" lon="4.69595">
        <ele>490</ele>
        <time>2018-04-11T13:31:48Z</time>
      </trkpt>
      <trkpt lat="45.0901" lon="4.69674">
        <ele>492</ele>
        <time>2018-04-11T13:32:48Z</time>
      </trkpt>
      <trkpt lat="45.09135" lon="4.69775">
        <ele>493</ele>
        <time>2018-04-11T13:33:48Z</time>
      </trkpt>
      <trkpt lat="45.09432" lon="4.70185">
        <ele>492</ele>
        <time>2018-04-11T13:34:48Z</time>
      </trkpt>
      <trkpt lat="45.09644" lon="4.69784">
        <ele>514</ele>
        <time>2018-04-11T13:35:48Z</time>
      </trkpt>
      <trkpt lat="45.09663" lon="4.69721">
        <ele>518</ele>
        <time>2018-04-11T13:36:48Z</time>
      </trkpt>
      <trkpt lat="45.09716" lon="4.69699">
        <ele>520</ele>
        <time>2018-04-11T13:37:48Z</time>
      </trkpt>
      <trkpt lat="45.10016" lon="4.69429">
        <ele>524</ele>
        <time>2018-04-11T13:38:48Z</time>
      </trkpt>
      <trkpt lat="45.10064" lon="4.69279">
        <ele>528</ele>
        <time>2018-04-11T13:39:48Z</time>
      </trkpt>
      <trkpt lat="45.10187" lon="4.69133">
        <ele>519</ele>
        <time>2018-04-11T13:40:48Z</time>
      </trkpt>
      <trkpt lat="45.1026" lon="4.69174">
        <ele>513</ele>
        <time>2018-04-11T13:41:48Z</time>
      </trkpt>
      <trkpt lat="45.10293" lon="4.69324">
        <ele>509</ele>
        <time>2018-04-11T13:42:48Z</time>
      </trkpt>
      <trkpt lat="45.10349" lon="4.69457">
        <ele>502</ele>
        <time>2018-04-11T13:43:48Z</time>
      </trkpt>
      <trkpt lat="45.10445" lon="4.69502">
        <ele>496</ele>
        <time>2018-04-11T13:44:48Z</time>
      </trkpt>
      <trkpt lat="45.10538" lon="4.69416">
        <ele>496</ele>
        <time>2018-04-11T13:45:48Z</time>
      </trkpt>
      <trkpt lat="45.10617" lon="4.69422">
        <ele>499</ele>
        <time>2018-04-11T13:46:48Z</time>
      </trkpt>
      <trkpt lat="45.10692" lon="4.69373">
        <ele>508</ele>
        <time>2018-04-11T13:47:48Z</time>
      </trkpt>
      <trkpt lat="45.10754" lon="4.69562">
        <ele>510</ele>
        <time>2018-04-11T13:48:48Z</time>
      </trkpt>
      <trkpt lat="45.10752" lon="4.69611">
        <ele>509</ele>
        <time>2018-04-11T13:49:48Z</time>
      </trkpt>
      <trkpt lat="45.10803" lon="4.69642">
        <ele>509</ele>
        <time>2018-04-11T13:50:48Z</time>
      </trkpt>
      <trkpt lat="45.10879" lon="4.69869">
        <ele>496</ele>
        <time>2018-04-11T13:51:48Z</time>
      </trkpt>
      <trkpt lat="45.11132" lon="4.69667">
        <ele>504</ele>
        <time>2018-04-11T13:52:48Z</time>
      </trkpt>
      <trkpt lat="45.11214" lon="4.69812">
        <ele>503</ele>
        <time>2018-04-11T13:53:48Z</time>
      </trkpt>
      <trkpt lat="45.11248" lon="4.6997">
        <ele>503</ele>
        <time>2018-04-11T13:54:48Z</time>
      </trkpt>
      <trkpt lat="45.11288" lon="4.70149">
        <ele>505</ele>
        <time>2018-04-11T13:55:48Z</time>
      </trkpt>
      <trkpt lat="45.11242" lon="4.70181">
        <ele>505</ele>
        <time>2018-04-11T13:56:48Z</time>
      </trkpt>
      <trkpt lat="45.11209" lon="4.70218">
        <ele>505</ele>
        <time>2018-04-11T13:57:48Z</time>
      </trkpt>
      <trkpt lat="45.11205" lon="4.70314">
        <ele>509</ele>
        <time>2018-04-11T13:58:48Z</time>
      </trkpt>
      <trkpt lat="45.11195" lon="4.70366">
        <ele>511</ele>
        <time>2018-04-11T13:59:48Z</time>
      </trkpt>
      <trkpt lat="45.11236" lon="4.70497">
        <ele>517</ele>
        <time>2018-04-11T14:00:48Z</time>
      </trkpt>
      <trkpt lat="45.11344" lon="4.70628">
        <ele>528</ele>
        <time>2018-04-11T14:01:48Z</time>
      </trkpt>
      <trkpt lat="45.1137" lon="4.70668">
        <ele>531</ele>
        <time>2018-04-11T14:02:48Z</time>
      </trkpt>
      <trkpt lat="45.11325" lon="4.7079">
        <ele>538</ele>
        <time>2018-04-11T14:03:48Z</time>
      </trkpt>
      <trkpt lat="45.11241" lon="4.70974">
        <ele>543</ele>
        <time>2018-04-11T14:04:48Z</time>
      </trkpt>
      <trkpt lat="45.1121" lon="4.71045">
        <ele>543</ele>
        <time>2018-04-11T14:05:48Z</time>
      </trkpt>
      <trkpt lat="45.11188" lon="4.7114">
        <ele>543</ele>
        <time>2018-04-11T14:06:48Z</time>
      </trkpt>
      <trkpt lat="45.11101" lon="4.71401">
        <ele>538</ele>
        <time>2018-04-11T14:07:48Z</time>
      </trkpt>
      <trkpt lat="45.1106" lon="4.71457">
        <ele>540</ele>
        <time>2018-04-11T14:08:48Z</time>
      </trkpt>
      <trkpt lat="45.10992" lon="4.71457">
        <ele>545</ele>
        <time>2018-04-11T14:09:48Z</time>
      </trkpt>
      <trkpt lat="45.10971" lon="4.71715">
        <ele>530</ele>
        <time>2018-04-11T14:10:48Z</time>
      </trkpt>
      <trkpt lat="45.11042" lon="4.71768">
        <ele>526</ele>
        <time>2018-04-11T14:11:48Z</time>
      </trkpt>
      <trkpt lat="45.11127" lon="4.71863">
        <ele>518</ele>
        <time>2018-04-11T14:12:48Z</time>
      </trkpt>
      <trkpt lat="45.11436" lon="4.71901">
        <ele>511</ele>
        <time>2018-04-11T14:13:48Z</time>
      </trkpt>
      <trkpt lat="45.11483" lon="4.71863">
        <ele>511</ele>
        <time>2018-04-11T14:14:48Z</time>
      </trkpt>
      <trkpt lat="45.11702" lon="4.71974">
        <ele>511</ele>
        <time>2018-04-11T14:15:48Z</time>
      </trkpt>
      <trkpt lat="45.11742" lon="4.71985">
        <ele>512</ele>
        <time>2018-04-11T14:16:48Z</time>
      </trkpt>
      <trkpt lat="45.11832" lon="4.71953">
        <ele>518</ele>
        <time>2018-04-11T14:17:48Z</time>
      </trkpt>
      <trkpt lat="45.11959" lon="4.7199">
        <ele>521</ele>
        <time>2018-04-11T14:18:48Z</time>
      </trkpt>
      <trkpt lat="45.121" lon="4.71889">
        <ele>515</ele>
        <time>2018-04-11T14:19:48Z</time>
      </trkpt>
      <trkpt lat="45.12166" lon="4.71988">
        <ele>511</ele>
        <time>2018-04-11T14:20:48Z</time>
      </trkpt>
      <trkpt lat="45.12264" lon="4.72149">
        <ele>485</ele>
        <time>2018-04-11T14:21:48Z</time>
      </trkpt>
      <trkpt lat="45.12172" lon="4.72265">
        <ele>483</ele>
        <time>2018-04-11T14:22:48Z</time>
      </trkpt>
      <trkpt lat="45.12095" lon="4.72372">
        <ele>483</ele>
        <time>2018-04-11T14:23:48Z</time>
      </trkpt>
      <trkpt lat="45.11913" lon="4.726">
        <ele>494</ele>
        <time>2018-04-11T14:24:48Z</time>
      </trkpt>
      <trkpt lat="45.12009" lon="4.7269">
        <ele>493</ele>
        <time>2018-04-11T14:25:48Z</time>
      </trkpt>
      <trkpt lat="45.12313" lon="4.72737">
        <ele>486</ele>
        <time>2018-04-11T14:26:48Z</time>
      </trkpt>
      <trkpt lat="45.12621" lon="4.72804">
        <ele>472</ele>
        <time>2018-04-11T14:27:48Z</time>
      </trkpt>
      <trkpt lat="45.12888" lon="4.72733">
        <ele>469</ele>
        <time>2018-04-11T14:28:48Z</time>
      </trkpt>
      <trkpt lat="45.13073" lon="4.72618">
        <ele>462</ele>
        <time>2018-04-11T14:29:48Z</time>
      </trkpt>
      <trkpt lat="45.1315" lon="4.72586">
        <ele>459</ele>
        <time>2018-04-11T14:30:48Z</time>
      </trkpt>
      <trkpt lat="45.13342" lon="4.72657">
        <ele>441</ele>
        <time>2018-04-11T14:31:48Z</time>
      </trkpt>
      <trkpt lat="45.13344" lon="4.72955">
        <ele>438</ele>
        <time>2018-04-11T14:32:48Z</time>
      </trkpt>
      <trkpt lat="45.13476" lon="4.72946">
        <ele>437</ele>
        <time>2018-04-11T14:33:48Z</time>
      </trkpt>
      <trkpt lat="45.13495" lon="4.73024">
        <ele>444</ele>
        <time>2018-04-11T14:34:48Z</time>
      </trkpt>
      <trkpt lat="45.13554" lon="4.73056">
        <ele>444</ele>
        <time>2018-04-11T14:35:48Z</time>
      </trkpt>
      <trkpt lat="45.13586" lon="4.73022">
        <ele>439</ele>
        <time>2018-04-11T14:36:48Z</time>
      </trkpt>
      <trkpt lat="45.13663" lon="4.73277">
        <ele>441</ele>
        <time>2018-04-11T14:37:48Z</time>
      </trkpt>
    </trkseg>
  </trk>
  <trk>
    <name><![CDATA[20180411140905-PUomM]]></name>
    <trkseg>
      <trkpt lat="44.92465" lon="4.72986">
        <ele>603</ele>
        <time>2018-04-09T14:39:15Z</time>
      </trkpt>
      <trkpt lat="44.925" lon="4.73141">
        <ele>610</ele>
        <time>2018-04-09T14:40:15Z</time>
      </trkpt>
      <trkpt lat="44.92489" lon="4.73098">
        <ele>606</ele>
        <time>2018-04-09T14:41:15Z</time>
      </trkpt>
      <trkpt lat="44.9251" lon="4.73168">
        <ele>611</ele>
        <time>2018-04-09T14:42:15Z</time>
      </trkpt>
      <trkpt lat="44.92603" lon="4.73101">
        <ele>601</ele>
        <time>2018-04-09T14:43:15Z</time>
      </trkpt>
      <trkpt lat="44.927" lon="4.73087">
        <ele>590</ele>
        <time>2018-04-09T14:44:15Z</time>
      </trkpt>
      <trkpt lat="44.92738" lon="4.73148">
        <ele>588</ele>
        <time>2018-04-09T14:45:15Z</time>
      </trkpt>
      <trkpt lat="44.92863" lon="4.73224">
        <ele>586</ele>
        <time>2018-04-09T14:46:15Z</time>
      </trkpt>
      <trkpt lat="44.92748" lon="4.73263">
        <ele>588</ele>
        <time>2018-04-09T14:47:15Z</time>
      </trkpt>
      <trkpt lat="44.92802" lon="4.73368">
        <ele>585</ele>
        <time>2018-04-09T14:48:15Z</time>
      </trkpt>
      <trkpt lat="44.92799" lon="4.73512">
        <ele>589</ele>
        <time>2018-04-09T14:49:15Z</time>
      </trkpt>
      <trkpt lat="44.92735" lon="4.73595">
        <ele>592</ele>
        <time>2018-04-09T14:50:15Z</time>
      </trkpt>
      <trkpt lat="44.927" lon="4.73751">
        <ele>593</ele>
        <time>2018-04-09T14:51:15Z</time>
      </trkpt>
      <trkpt lat="44.92646" lon="4.73927">
        <ele>598</ele>
        <time>2018-04-09T14:52:15Z</time>
      </trkpt>
      <trkpt lat="44.92639" lon="4.74084">
        <ele>599</ele>
        <time>2018-04-09T14:53:15Z</time>
      </trkpt>
      <trkpt lat="44.92814" lon="4.74418">
        <ele>591</ele>
        <time>2018-04-09T14:54:15Z</time>
      </trkpt>
      <trkpt lat="44.92861" lon="4.74448">
        <ele>601</ele>
        <time>2018-04-09T14:55:15Z</time>
      </trkpt>
      <trkpt lat="44.9293" lon="4.74483">
        <ele>613</ele>
        <time>2018-04-09T14:56:15Z</time>
      </trkpt>
      <trkpt lat="44.92973" lon="4.74453">
        <ele>620</ele>
        <time>2018-04-09T14:57:15Z</time>
      </trkpt>
      <trkpt lat="44.92992" lon="4.74429">
        <ele>625</ele>
        <time>2018-04-09T14:58:15Z</time>
      </trkpt>
      <trkpt lat="44.93004" lon="4.74372">
        <ele>635</ele>
        <time>2018-04-09T14:59:15Z</time>
      </trkpt>
      <trkpt lat="44.93027" lon="4.74373">
        <ele>636</ele>
        <time>2018-04-09T15:00:15Z</time>
      </trkpt>
      <trkpt lat="44.93206" lon="4.74508">
        <ele>649</ele>
        <time>2018-04-09T15:01:15Z</time>
      </trkpt>
      <trkpt lat="44.93225" lon="4.74565">
        <ele>649</ele>
        <time>2018-04-09T15:02:15Z</time>
      </trkpt>
      <trkpt lat="44.93235" lon="4.74629">
        <ele>651</ele>
        <time>2018-04-09T15:03:15Z</time>
      </trkpt>
      <trkpt lat="44.93262" lon="4.7471">
        <ele>649</ele>
        <time>2018-04-09T15:04:15Z</time>
      </trkpt>
      <trkpt lat="44.93266" lon="4.74732">
        <ele>650</ele>
        <time>2018-04-09T15:05:15Z</time>
      </trkpt>
      <trkpt lat="44.93239" lon="4.7474">
        <ele>651</ele>
        <time>2018-04-09T15:06:15Z</time>
      </trkpt>
      <trkpt lat="44.93318" lon="4.7482">
        <ele>650</ele>
        <time>2018-04-09T15:07:15Z</time>
      </trkpt>
      <trkpt lat="44.93523" lon="4.75034">
        <ele>652</ele>
        <time>2018-04-09T15:08:15Z</time>
      </trkpt>
      <trkpt lat="44.93576" lon="4.75071">
        <ele>653</ele>
        <time>2018-04-09T15:09:15Z</time>
      </trkpt>
      <trkpt lat="44.93631" lon="4.75153">
        <ele>645</ele>
        <time>2018-04-09T15:10:15Z</time>
      </trkpt>
      <trkpt lat="44.93661" lon="4.75189">
        <ele>643</ele>
        <time>2018-04-09T15:11:15Z</time>
      </trkpt>
      <trkpt lat="44.93707" lon="4.75236">
        <ele>639</ele>
        <time>2018-04-09T15:12:15Z</time>
      </trkpt>
      <trkpt lat="44.93739" lon="4.75246">
        <ele>639</ele>
        <time>2018-04-09T15:13:15Z</time>
      </trkpt>
      <trkpt lat="44.93883" lon="4.75123">
        <ele>615</ele>
        <time>2018-04-09T15:14:15Z</time>
      </trkpt>
      <trkpt lat="44.93893" lon="4.75168">
        <ele>619</ele>
        <time>2018-04-09T15:15:15Z</time>
      </trkpt>
      <trkpt lat="44.93919" lon="4.75248">
        <ele>620</ele>
        <time>2018-04-09T15:16:15Z</time>
      </trkpt>
      <trkpt lat="44.93936" lon="4.75287">
        <ele>619</ele>
        <time>2018-04-09T15:17:15Z</time>
      </trkpt>
      <trkpt lat="44.9395" lon="4.75338">
        <ele>621</ele>
        <time>2018-04-09T15:18:15Z</time>
      </trkpt>
      <trkpt lat="44.93957" lon="4.75367">
        <ele>620</ele>
        <time>2018-04-09T15:19:15Z</time>
      </trkpt>
      <trkpt lat="44.93926" lon="4.75416">
        <ele>619</ele>
        <time>2018-04-09T15:20:15Z</time>
      </trkpt>
      <trkpt lat="44.93892" lon="4.75424">
        <ele>615</ele>
        <time>2018-04-09T15:21:15Z</time>
      </trkpt>
      <trkpt lat="44.93864" lon="4.75464">
        <ele>612</ele>
        <time>2018-04-09T15:22:15Z</time>
      </trkpt>
      <trkpt lat="44.93846" lon="4.75489">
        <ele>610</ele>
        <time>2018-04-09T15:23:15Z</time>
      </trkpt>
      <trkpt lat="44.93844" lon="4.75571">
        <ele>601</ele>
        <time>2018-04-09T15:24:15Z</time>
      </trkpt>
      <trkpt lat="44.93839" lon="4.75682">
        <ele>591</ele>
        <time>2018-04-09T15:25:15Z</time>
      </trkpt>
      <trkpt lat="44.93842" lon="4.75767">
        <ele>586</ele>
        <time>2018-04-09T15:26:15Z</time>
      </trkpt>
      <trkpt lat="44.93844" lon="4.75777">
        <ele>586</ele>
        <time>2018-04-09T15:27:15Z</time>
      </trkpt>
      <trkpt lat="44.93853" lon="4.75806">
        <ele>585</ele>
        <time>2018-04-09T15:28:15Z</time>
      </trkpt>
      <trkpt lat="44.93854" lon="4.75825">
        <ele>585</ele>
        <time>2018-04-09T15:29:15Z</time>
      </trkpt>
      <trkpt lat="44.93915" lon="4.7584">
        <ele>584</ele>
        <time>2018-04-09T15:30:15Z</time>
      </trkpt>
      <trkpt lat="44.93963" lon="4.7588">
        <ele>583</ele>
        <time>2018-04-09T15:31:15Z</time>
      </trkpt>
      <trkpt lat="44.94048" lon="4.75912">
        <ele>576</ele>
        <time>2018-04-09T15:32:15Z</time>
      </trkpt>
      <trkpt lat="44.94143" lon="4.7598">
        <ele>575</ele>
        <time>2018-04-09T15:33:15Z</time>
      </trkpt>
      <trkpt lat="44.94185" lon="4.76016">
        <ele>576</ele>
        <time>2018-04-09T15:34:15Z</time>
      </trkpt>
      <trkpt lat="44.94228" lon="4.76028">
        <ele>576</ele>
        <time>2018-04-09T15:35:15Z</time>
      </trkpt>
      <trkpt lat="44.94259" lon="4.76023">
        <ele>575</ele>
        <time>2018-04-09T15:36:15Z</time>
      </trkpt>
      <trkpt lat="44.94286" lon="4.75945">
        <ele>568</ele>
        <time>2018-04-09T15:37:15Z</time>
      </trkpt>
      <trkpt lat="44.94323" lon="4.75908">
        <ele>562</ele>
        <time>2018-04-09T15:38:15Z</time>
      </trkpt>
      <trkpt lat="44.94397" lon="4.75921">
        <ele>567</ele>
        <time>2018-04-09T15:39:15Z</time>
      </trkpt>
      <trkpt lat="44.94457" lon="4.7594">
        <ele>565</ele>
        <time>2018-04-09T15:40:15Z</time>
      </trkpt>
      <trkpt lat="44.9449" lon="4.75954">
        <ele>564</ele>
        <time>2018-04-09T15:41:15Z</time>
      </trkpt>
      <trkpt lat="44.94551" lon="4.7595">
        <ele>559</ele>
        <time>2018-04-09T15:42:15Z</time>
      </trkpt>
      <trkpt lat="44.94681" lon="4.75981">
        <ele>554</ele>
        <time>2018-04-09T15:43:15Z</time>
      </trkpt>
      <trkpt lat="44.9474" lon="4.75965">
        <ele>552</ele>
        <time>2018-04-09T15:44:15Z</time>
      </trkpt>
      <trkpt lat="44.94749" lon="4.75959">
        <ele>552</ele>
        <time>2018-04-09T15:45:15Z</time>
      </trkpt>
      <trkpt lat="44.94842" lon="4.75909">
        <ele>554</ele>
        <time>2018-04-09T15:46:15Z</time>
      </trkpt>
      <trkpt lat="44.94876" lon="4.75936">
        <ele>553</ele>
        <time>2018-04-09T15:47:15Z</time>
      </trkpt>
      <trkpt lat="44.94935" lon="4.75976">
        <ele>550</ele>
        <time>2018-04-09T15:48:15Z</time>
      </trkpt>
      <trkpt lat="44.94933" lon="4.75979">
        <ele>550</ele>
        <time>2018-04-09T15:49:15Z</time>
      </trkpt>
      <trkpt lat="44.94917" lon="4.76013">
        <ele>545</ele>
        <time>2018-04-09T15:50:15Z</time>
      </trkpt>
      <trkpt lat="44.9489" lon="4.76085">
        <ele>538</ele>
        <time>2018-04-09T15:51:15Z</time>
      </trkpt>
      <trkpt lat="44.94872" lon="4.76208">
        <ele>537</ele>
        <time>2018-04-09T15:52:15Z</time>
      </trkpt>
      <trkpt lat="44.94909" lon="4.76257">
        <ele>538</ele>
        <time>2018-04-09T15:53:15Z</time>
      </trkpt>
      <trkpt lat="44.95053" lon="4.76355">
        <ele>544</ele>
        <time>2018-04-09T15:54:15Z</time>
      </trkpt>
      <trkpt lat="44.95151" lon="4.76413">
        <ele>544</ele>
        <time>2018-04-09T15:55:15Z</time>
      </trkpt>
      <trkpt lat="44.95189" lon="4.76418">
        <ele>547</ele>
        <time>2018-04-09T15:56:15Z</time>
      </trkpt>
      <trkpt lat="44.95218" lon="4.76416">
        <ele>546</ele>
        <time>2018-04-09T15:57:15Z</time>
      </trkpt>
      <trkpt lat="44.95289" lon="4.76454">
        <ele>548</ele>
        <time>2018-04-09T15:58:15Z</time>
      </trkpt>
      <trkpt lat="44.95257" lon="4.76484">
        <ele>547</ele>
        <time>2018-04-09T15:59:15Z</time>
      </trkpt>
      <trkpt lat="44.95265" lon="4.76532">
        <ele>543</ele>
        <time>2018-04-09T16:00:15Z</time>
      </trkpt>
      <trkpt lat="44.95264" lon="4.76589">
        <ele>541</ele>
        <time>2018-04-09T16:01:15Z</time>
      </trkpt>
      <trkpt lat="44.95313" lon="4.76626">
        <ele>536</ele>
        <time>2018-04-09T16:02:15Z</time>
      </trkpt>
      <trkpt lat="44.95333" lon="4.76637">
        <ele>535</ele>
        <time>2018-04-09T16:03:15Z</time>
      </trkpt>
      <trkpt lat="44.95372" lon="4.7667">
        <ele>531</ele>
        <time>2018-04-09T16:04:15Z</time>
      </trkpt>
      <trkpt lat="44.95408" lon="4.76697">
        <ele>530</ele>
        <time>2018-04-09T16:05:15Z</time>
      </trkpt>
      <trkpt lat="44.95438" lon="4.76768">
        <ele>530</ele>
        <time>2018-04-09T16:06:15Z</time>
      </trkpt>
      <trkpt lat="44.95445" lon="4.76854">
        <ele>533</ele>
        <time>2018-04-09T16:07:15Z</time>
      </trkpt>
      <trkpt lat="44.95466" lon="4.76924">
        <ele>528</ele>
        <time>2018-04-09T16:08:15Z</time>
      </trkpt>
      <trkpt lat="44.95483" lon="4.76951">
        <ele>527</ele>
        <time>2018-04-09T16:09:15Z</time>
      </trkpt>
      <trkpt lat="44.95492" lon="4.76957">
        <ele>527</ele>
        <time>2018-04-09T16:10:15Z</time>
      </trkpt>
      <trkpt lat="44.95533" lon="4.76953">
        <ele>518</ele>
        <time>2018-04-09T16:11:15Z</time>
      </trkpt>
      <trkpt lat="44.95559" lon="4.76963">
        <ele>517</ele>
        <time>2018-04-09T16:12:15Z</time>
      </trkpt>
      <trkpt lat="44.95579" lon="4.76996">
        <ele>512</ele>
        <time>2018-04-09T16:13:15Z</time>
      </trkpt>
      <trkpt lat="44.95619" lon="4.77001">
        <ele>503</ele>
        <time>2018-04-09T16:14:15Z</time>
      </trkpt>
      <trkpt lat="44.95676" lon="4.76981">
        <ele>495</ele>
        <time>2018-04-09T16:15:15Z</time>
      </trkpt>
      <trkpt lat="44.95724" lon="4.76948">
        <ele>491</ele>
        <time>2018-04-09T16:16:15Z</time>
      </trkpt>
      <trkpt lat="44.95749" lon="4.76921">
        <ele>487</ele>
        <time>2018-04-09T16:17:15Z</time>
      </trkpt>
      <trkpt lat="44.95786" lon="4.76913">
        <ele>477</ele>
        <time>2018-04-09T16:18:15Z</time>
      </trkpt>
      <trkpt lat="44.95831" lon="4.76886">
        <ele>474</ele>
        <time>2018-04-09T16:19:15Z</time>
      </trkpt>
      <trkpt lat="44.95863" lon="4.7685">
        <ele>467</ele>
        <time>2018-04-09T16:20:15Z</time>
      </trkpt>
      <trkpt lat="44.95884" lon="4.76832">
        <ele>466</ele>
        <time>2018-04-09T16:21:15Z</time>
      </trkpt>
      <trkpt lat="44.95902" lon="4.76839">
        <ele>463</ele>
        <time>2018-04-09T16:22:15Z</time>
      </trkpt>
      <trkpt lat="44.95892" lon="4.76867">
        <ele>464</ele>
        <time>2018-04-09T16:23:15Z</time>
      </trkpt>
      <trkpt lat="44.95882" lon="4.76908">
        <ele>464</ele>
        <time>2018-04-09T16:24:15Z</time>
      </trkpt>
      <trkpt lat="44.95886" lon="4.76943">
        <ele>463</ele>
        <time>2018-04-09T16:25:15Z</time>
      </trkpt>
      <trkpt lat="44.95908" lon="4.76969">
        <ele>463</ele>
        <time>2018-04-09T16:26:15Z</time>
      </trkpt>
      <trkpt lat="44.95919" lon="4.76985">
        <ele>463</ele>
        <time>2018-04-09T16:27:15Z</time>
      </trkpt>
      <trkpt lat="44.95929" lon="4.77021">
        <ele>467</ele>
        <time>2018-04-09T16:28:15Z</time>
      </trkpt>
      <trkpt lat="44.95884" lon="4.77038">
        <ele>469</ele>
        <time>2018-04-09T16:29:15Z</time>
      </trkpt>
      <trkpt lat="44.9589" lon="4.77054">
        <ele>470</ele>
        <time>2018-04-09T16:30:15Z</time>
      </trkpt>
      <trkpt lat="44.95932" lon="4.771">
        <ele>481</ele>
        <time>2018-04-09T16:31:15Z</time>
      </trkpt>
      <trkpt lat="44.95872" lon="4.7718">
        <ele>487</ele>
        <time>2018-04-09T16:32:15Z</time>
      </trkpt>
      <trkpt lat="44.95889" lon="4.77215">
        <ele>489</ele>
        <time>2018-04-09T16:33:15Z</time>
      </trkpt>
      <trkpt lat="44.9587" lon="4.77272">
        <ele>491</ele>
        <time>2018-04-09T16:34:15Z</time>
      </trkpt>
      <trkpt lat="44.95868" lon="4.77344">
        <ele>491</ele>
        <time>2018-04-09T16:35:15Z</time>
      </trkpt>
      <trkpt lat="44.95882" lon="4.7744">
        <ele>491</ele>
        <time>2018-04-09T16:36:15Z</time>
      </trkpt>
      <trkpt lat="44.95883" lon="4.77481">
        <ele>492</ele>
        <time>2018-04-09T16:37:15Z</time>
      </trkpt>
      <trkpt lat="44.95894" lon="4.77498">
        <ele>492</ele>
        <time>2018-04-09T16:38:15Z</time>
      </trkpt>
      <trkpt lat="44.95905" lon="4.77517">
        <ele>494</ele>
        <time>2018-04-09T16:39:15Z</time>
      </trkpt>
      <trkpt lat="44.95902" lon="4.77542">
        <ele>495</ele>
        <time>2018-04-09T16:40:15Z</time>
      </trkpt>
      <trkpt lat="44.95872" lon="4.77573">
        <ele>497</ele>
        <time>2018-04-09T16:41:15Z</time>
      </trkpt>
      <trkpt lat="44.95829" lon="4.7759">
        <ele>500</ele>
        <time>2018-04-09T16:42:15Z</time>
      </trkpt>
      <trkpt lat="44.95822" lon="4.77596">
        <ele>500</ele>
        <time>2018-04-09T16:43:15Z</time>
      </trkpt>
      <trkpt lat="44.95822" lon="4.77624">
        <ele>500</ele>
        <time>2018-04-09T16:44:15Z</time>
      </trkpt>
      <trkpt lat="44.95816" lon="4.77697">
        <ele>504</ele>
        <time>2018-04-09T16:45:15Z</time>
      </trkpt>
      <trkpt lat="44.95814" lon="4.77748">
        <ele>507</ele>
        <time>2018-04-09T16:46:15Z</time>
      </trkpt>
      <trkpt lat="44.95812" lon="4.7776">
        <ele>510</ele>
        <time>2018-04-09T16:47:15Z</time>
      </trkpt>
      <trkpt lat="44.95809" lon="4.77792">
        <ele>511</ele>
        <time>2018-04-09T16:48:15Z</time>
      </trkpt>
      <trkpt lat="44.95827" lon="4.77808">
        <ele>513</ele>
        <time>2018-04-09T16:49:15Z</time>
      </trkpt>
      <trkpt lat="44.9591" lon="4.77898">
        <ele>527</ele>
        <time>2018-04-09T16:50:15Z</time>
      </trkpt>
      <trkpt lat="44.95927" lon="4.77924">
        <ele>529</ele>
        <time>2018-04-09T16:51:15Z</time>
      </trkpt>
      <trkpt lat="44.9593" lon="4.77933">
        <ele>529</ele>
        <time>2018-04-09T16:52:15Z</time>
      </trkpt>
      <trkpt lat="44.95933" lon="4.77997">
        <ele>530</ele>
        <time>2018-04-09T16:53:15Z</time>
      </trkpt>
      <trkpt lat="44.95959" lon="4.78039">
        <ele>531</ele>
        <time>2018-04-09T16:54:15Z</time>
      </trkpt>
      <trkpt lat="44.96027" lon="4.78099">
        <ele>530</ele>
        <time>2018-04-09T16:55:15Z</time>
      </trkpt>
      <trkpt lat="44.96085" lon="4.7813">
        <ele>526</ele>
        <time>2018-04-09T16:56:15Z</time>
      </trkpt>
      <trkpt lat="44.96107" lon="4.7815">
        <ele>527</ele>
        <time>2018-04-09T16:57:15Z</time>
      </trkpt>
      <trkpt lat="44.96124" lon="4.78202">
        <ele>534</ele>
        <time>2018-04-09T16:58:15Z</time>
      </trkpt>
      <trkpt lat="44.96255" lon="4.78182">
        <ele>522</ele>
        <time>2018-04-09T16:59:15Z</time>
      </trkpt>
      <trkpt lat="44.96312" lon="4.78156">
        <ele>511</ele>
        <time>2018-04-09T17:00:15Z</time>
      </trkpt>
      <trkpt lat="44.96364" lon="4.78142">
        <ele>504</ele>
        <time>2018-04-09T17:01:15Z</time>
      </trkpt>
      <trkpt lat="44.96366" lon="4.78127">
        <ele>504</ele>
        <time>2018-04-09T17:02:15Z</time>
      </trkpt>
      <trkpt lat="44.96383" lon="4.78099">
        <ele>502</ele>
        <time>2018-04-09T17:03:15Z</time>
      </trkpt>
      <trkpt lat="44.96412" lon="4.78075">
        <ele>499</ele>
        <time>2018-04-09T17:04:15Z</time>
      </trkpt>
      <trkpt lat="44.96433" lon="4.78066">
        <ele>498</ele>
        <time>2018-04-09T17:05:15Z</time>
      </trkpt>
      <trkpt lat="44.96475" lon="4.77976">
        <ele>501</ele>
        <time>2018-04-09T17:06:15Z</time>
      </trkpt>
      <trkpt lat="44.96511" lon="4.77908">
        <ele>506</ele>
        <time>2018-04-09T17:07:15Z</time>
      </trkpt>
      <trkpt lat="44.9655" lon="4.77859">
        <ele>508</ele>
        <time>2018-04-09T17:08:15Z</time>
      </trkpt>
      <trkpt lat="44.96584" lon="4.77822">
        <ele>516</ele>
        <time>2018-04-09T17:09:15Z</time>
      </trkpt>
      <trkpt lat="44.96605" lon="4.77804">
        <ele>520</ele>
        <time>2018-04-09T17:10:15Z</time>
      </trkpt>
      <trkpt lat="44.96575" lon="4.7773">
        <ele>514</ele>
        <time>2018-04-09T17:11:15Z</time>
      </trkpt>
      <trkpt lat="44.96576" lon="4.77695">
        <ele>513</ele>
        <time>2018-04-09T17:12:15Z</time>
      </trkpt>
      <trkpt lat="44.96634" lon="4.77707">
        <ele>524</ele>
        <time>2018-04-09T17:13:15Z</time>
      </trkpt>
      <trkpt lat="44.96693" lon="4.77704">
        <ele>535</ele>
        <time>2018-04-09T17:14:15Z</time>
      </trkpt>
      <trkpt lat="44.96747" lon="4.77706">
        <ele>539</ele>
        <time>2018-04-09T17:15:15Z</time>
      </trkpt>
      <trkpt lat="44.96772" lon="4.77675">
        <ele>546</ele>
        <time>2018-04-09T17:16:15Z</time>
      </trkpt>
      <trkpt lat="44.96809" lon="4.77642">
        <ele>547</ele>
        <time>2018-04-09T17:17:15Z</time>
      </trkpt>
      <trkpt lat="44.96864" lon="4.77607">
        <ele>552</ele>
        <time>2018-04-09T17:18:15Z</time>
      </trkpt>
      <trkpt lat="44.96889" lon="4.77579">
        <ele>548</ele>
        <time>2018-04-09T17:19:15Z</time>
      </trkpt>
      <trkpt lat="44.96908" lon="4.77555">
        <ele>548</ele>
        <time>2018-04-09T17:20:15Z</time>
      </trkpt>
      <trkpt lat="44.96885" lon="4.77471">
        <ele>544</ele>
        <time>2018-04-09T17:21:15Z</time>
      </trkpt>
      <trkpt lat="44.96854" lon="4.7741">
        <ele>544</ele>
        <time>2018-04-09T17:22:15Z</time>
      </trkpt>
      <trkpt lat="44.96862" lon="4.77391">
        <ele>548</ele>
        <time>2018-04-09T17:23:15Z</time>
      </trkpt>
      <trkpt lat="44.96855" lon="4.77368">
        <ele>548</ele>
        <time>2018-04-09T17:24:15Z</time>
      </trkpt>
      <trkpt lat="44.96854" lon="4.7734">
        <ele>549</ele>
        <time>2018-04-09T17:25:15Z</time>
      </trkpt>
      <trkpt lat="44.96832" lon="4.77317">
        <ele>547</ele>
        <time>2018-04-09T17:26:15Z</time>
      </trkpt>
      <trkpt lat="44.96812" lon="4.77281">
        <ele>552</ele>
        <time>2018-04-09T17:27:15Z</time>
      </trkpt>
      <trkpt lat="44.96802" lon="4.77236">
        <ele>566</ele>
        <time>2018-04-09T17:28:15Z</time>
      </trkpt>
      <trkpt lat="44.96782" lon="4.77226">
        <ele>566</ele>
        <time>2018-04-09T17:29:15Z</time>
      </trkpt>
      <trkpt lat="44.96757" lon="4.77218">
        <ele>565</ele>
        <time>2018-04-09T17:30:15Z</time>
      </trkpt>
      <trkpt lat="44.9673" lon="4.7722">
        <ele>559</ele>
        <time>2018-04-09T17:31:15Z</time>
      </trkpt>
      <trkpt lat="44.96713" lon="4.77207">
        <ele>560</ele>
        <time>2018-04-09T17:32:15Z</time>
      </trkpt>
      <trkpt lat="44.96708" lon="4.77197">
        <ele>560</ele>
        <time>2018-04-09T17:33:15Z</time>
      </trkpt>
      <trkpt lat="44.96758" lon="4.7719">
        <ele>569</ele>
        <time>2018-04-09T17:34:15Z</time>
      </trkpt>
      <trkpt lat="44.96732" lon="4.7717">
        <ele>565</ele>
        <time>2018-04-09T17:35:15Z</time>
      </trkpt>
      <trkpt lat="44.96728" lon="4.77138">
        <ele>565</ele>
        <time>2018-04-09T17:36:15Z</time>
      </trkpt>
      <trkpt lat="44.96791" lon="4.77033">
        <ele>577</ele>
        <time>2018-04-09T17:37:15Z</time>
      </trkpt>
      <trkpt lat="44.96853" lon="4.76887">
        <ele>571</ele>
        <time>2018-04-09T17:38:15Z</time>
      </trkpt>
      <trkpt lat="44.96893" lon="4.76803">
        <ele>560</ele>
        <time>2018-04-09T17:39:15Z</time>
      </trkpt>
      <trkpt lat="44.9692" lon="4.76794">
        <ele>557</ele>
        <time>2018-04-09T17:40:15Z</time>
      </trkpt>
      <trkpt lat="44.96959" lon="4.76834">
        <ele>564</ele>
        <time>2018-04-09T17:41:15Z</time>
      </trkpt>
      <trkpt lat="44.97013" lon="4.76859">
        <ele>556</ele>
        <time>2018-04-09T17:42:15Z</time>
      </trkpt>
      <trkpt lat="44.97096" lon="4.76853">
        <ele>540</ele>
        <time>2018-04-09T17:43:15Z</time>
      </trkpt>
      <trkpt lat="44.97145" lon="4.76865">
        <ele>537</ele>
        <time>2018-04-09T17:44:15Z</time>
      </trkpt>
      <trkpt lat="44.97159" lon="4.76846">
        <ele>530</ele>
        <time>2018-04-09T17:45:15Z</time>
      </trkpt>
      <trkpt lat="44.97142" lon="4.76823">
        <ele>522</ele>
        <time>2018-04-09T17:46:15Z</time>
      </trkpt>
      <trkpt lat="44.97151" lon="4.76805">
        <ele>521</ele>
        <time>2018-04-09T17:47:15Z</time>
      </trkpt>
      <trkpt lat="44.97187" lon="4.76812">
        <ele>513</ele>
        <time>2018-04-09T17:48:15Z</time>
      </trkpt>
      <trkpt lat="44.97261" lon="4.76819">
        <ele>508</ele>
        <time>2018-04-09T17:49:15Z</time>
      </trkpt>
      <trkpt lat="44.9727" lon="4.76816">
        <ele>508</ele>
        <time>2018-04-09T17:50:15Z</time>
      </trkpt>
      <trkpt lat="44.97271" lon="4.76772">
        <ele>507</ele>
        <time>2018-04-09T17:51:15Z</time>
      </trkpt>
      <trkpt lat="44.97265" lon="4.76743">
        <ele>508</ele>
        <time>2018-04-09T17:52:15Z</time>
      </trkpt>
      <trkpt lat="44.97263" lon="4.76737">
        <ele>508</ele>
        <time>2018-04-09T17:53:15Z</time>
      </trkpt>
      <trkpt lat="44.97234" lon="4.76707">
        <ele>506</ele>
        <time>2018-04-09T17:54:15Z</time>
      </trkpt>
      <trkpt lat="44.97228" lon="4.76691">
        <ele>506</ele>
        <time>2018-04-09T17:55:15Z</time>
      </trkpt>
      <trkpt lat="44.97224" lon="4.76675">
        <ele>506</ele>
        <time>2018-04-09T17:56:15Z</time>
      </trkpt>
      <trkpt lat="44.97253" lon="4.76676">
        <ele>512</ele>
        <time>2018-04-09T17:57:15Z</time>
      </trkpt>
      <trkpt lat="44.97269" lon="4.76664">
        <ele>517</ele>
        <time>2018-04-09T17:58:15Z</time>
      </trkpt>
      <trkpt lat="44.97271" lon="4.76597">
        <ele>522</ele>
        <time>2018-04-09T17:59:15Z</time>
      </trkpt>
      <trkpt lat="44.97261" lon="4.76534">
        <ele>530</ele>
        <time>2018-04-09T18:00:15Z</time>
      </trkpt>
      <trkpt lat="44.9725" lon="4.76489">
        <ele>530</ele>
        <time>2018-04-09T18:01:15Z</time>
      </trkpt>
      <trkpt lat="44.97252" lon="4.76406">
        <ele>541</ele>
        <time>2018-04-09T18:02:15Z</time>
      </trkpt>
      <trkpt lat="44.97223" lon="4.7632">
        <ele>543</ele>
        <time>2018-04-09T18:03:15Z</time>
      </trkpt>
      <trkpt lat="44.97188" lon="4.76271">
        <ele>542</ele>
        <time>2018-04-09T18:04:15Z</time>
      </trkpt>
      <trkpt lat="44.97159" lon="4.76244">
        <ele>537</ele>
        <time>2018-04-09T18:05:15Z</time>
      </trkpt>
      <trkpt lat="44.97183" lon="4.76188">
        <ele>545</ele>
        <time>2018-04-09T18:06:15Z</time>
      </trkpt>
      <trkpt lat="44.97193" lon="4.76153">
        <ele>545</ele>
        <time>2018-04-09T18:07:15Z</time>
      </trkpt>
      <trkpt lat="44.97194" lon="4.76074">
        <ele>543</ele>
        <time>2018-04-09T18:08:15Z</time>
      </trkpt>
      <trkpt lat="44.9721" lon="4.75996">
        <ele>541</ele>
        <time>2018-04-09T18:09:15Z</time>
      </trkpt>
      <trkpt lat="44.97227" lon="4.75924">
        <ele>540</ele>
        <time>2018-04-09T18:10:15Z</time>
      </trkpt>
      <trkpt lat="44.97268" lon="4.75887">
        <ele>532</ele>
        <time>2018-04-09T18:11:15Z</time>
      </trkpt>
      <trkpt lat="44.97311" lon="4.75902">
        <ele>531</ele>
        <time>2018-04-09T18:12:15Z</time>
      </trkpt>
      <trkpt lat="44.97328" lon="4.75937">
        <ele>539</ele>
        <time>2018-04-09T18:13:15Z</time>
      </trkpt>
      <trkpt lat="44.97361" lon="4.75958">
        <ele>540</ele>
        <time>2018-04-09T18:14:15Z</time>
      </trkpt>
      <trkpt lat="44.97474" lon="4.75842">
        <ele>522</ele>
        <time>2018-04-09T18:15:15Z</time>
      </trkpt>
      <trkpt lat="44.97568" lon="4.75774">
        <ele>514</ele>
        <time>2018-04-09T18:16:15Z</time>
      </trkpt>
      <trkpt lat="44.97597" lon="4.75772">
        <ele>513</ele>
        <time>2018-04-09T18:17:15Z</time>
      </trkpt>
      <trkpt lat="44.97622" lon="4.75738">
        <ele>507</ele>
        <time>2018-04-09T18:18:15Z</time>
      </trkpt>
      <trkpt lat="44.97634" lon="4.7571">
        <ele>506</ele>
        <time>2018-04-09T18:19:15Z</time>
      </trkpt>
      <trkpt lat="44.97655" lon="4.75701">
        <ele>505</ele>
        <time>2018-04-09T18:20:15Z</time>
      </trkpt>
      <trkpt lat="44.9768" lon="4.75658">
        <ele>501</ele>
        <time>2018-04-09T18:21:15Z</time>
      </trkpt>
      <trkpt lat="44.97689" lon="4.75585">
        <ele>497</ele>
        <time>2018-04-09T18:22:15Z</time>
      </trkpt>
      <trkpt lat="44.97746" lon="4.75445">
        <ele>483</ele>
        <time>2018-04-09T18:23:15Z</time>
      </trkpt>
      <trkpt lat="44.97744" lon="4.75401">
        <ele>477</ele>
        <time>2018-04-09T18:24:15Z</time>
      </trkpt>
      <trkpt lat="44.97752" lon="4.75385">
        <ele>475</ele>
        <time>2018-04-09T18:25:15Z</time>
      </trkpt>
      <trkpt lat="44.97854" lon="4.75238">
        <ele>466</ele>
        <time>2018-04-09T18:26:15Z</time>
      </trkpt>
      <trkpt lat="44.9789" lon="4.75217">
        <ele>463</ele>
        <time>2018-04-09T18:27:15Z</time>
      </trkpt>
      <trkpt lat="44.97914" lon="4.7518">
        <ele>463</ele>
        <time>2018-04-09T18:28:15Z</time>
      </trkpt>
      <trkpt lat="44.97923" lon="4.7518">
        <ele>460</ele>
        <time>2018-04-09T18:29:15Z</time>
      </trkpt>
      <trkpt lat="44.98025" lon="4.75128">
        <ele>454</ele>
        <time>2018-04-09T18:30:15Z</time>
      </trkpt>
      <trkpt lat="44.98121" lon="4.75075">
        <ele>449</ele>
        <time>2018-04-09T18:31:15Z</time>
      </trkpt>
      <trkpt lat="44.98127" lon="4.75072">
        <ele>449</ele>
        <time>2018-04-09T18:32:15Z</time>
      </trkpt>
      <trkpt lat="44.98157" lon="4.75051">
        <ele>448</ele>
        <time>2018-04-09T18:33:15Z</time>
      </trkpt>
      <trkpt lat="44.98234" lon="4.75042">
        <ele>443</ele>
        <time>2018-04-09T18:34:15Z</time>
      </trkpt>
      <trkpt lat="44.9827" lon="4.75046">
        <ele>436</ele>
        <time>2018-04-09T18:35:15Z</time>
      </trkpt>
      <trkpt lat="44.98288" lon="4.75044">
        <ele>434</ele>
        <time>2018-04-09T18:36:15Z</time>
      </trkpt>
      <trkpt lat="44.98319" lon="4.75045">
        <ele>432</ele>
        <time>2018-04-09T18:37:15Z</time>
      </trkpt>
      <trkpt lat="44.98348" lon="4.7505">
        <ele>424</ele>
        <time>2018-04-09T18:38:15Z</time>
      </trkpt>
      <trkpt lat="44.98402" lon="4.75081">
        <ele>422</ele>
        <time>2018-04-09T18:39:15Z</time>
      </trkpt>
      <trkpt lat="44.98433" lon="4.75082">
        <ele>415</ele>
        <time>2018-04-09T18:40:15Z</time>
      </trkpt>
      <trkpt lat="44.98437" lon="4.75092">
        <ele>415</ele>
        <time>2018-04-09T18:41:15Z</time>
      </trkpt>
      <trkpt lat="44.98475" lon="4.75125">
        <ele>410</ele>
        <time>2018-04-09T18:42:15Z</time>
      </trkpt>
      <trkpt lat="44.98477" lon="4.75141">
        <ele>409</ele>
        <time>2018-04-09T18:43:15Z</time>
      </trkpt>
      <trkpt lat="44.98465" lon="4.75156">
        <ele>409</ele>
        <time>2018-04-09T18:44:15Z</time>
      </trkpt>
      <trkpt lat="44.98465" lon="4.75169">
        <ele>405</ele>
        <time>2018-04-09T18:45:15Z</time>
      </trkpt>
      <trkpt lat="44.98472" lon="4.75252">
        <ele>394</ele>
        <time>2018-04-09T18:46:15Z</time>
      </trkpt>
      <trkpt lat="44.98499" lon="4.75256">
        <ele>396</ele>
        <time>2018-04-09T18:47:15Z</time>
      </trkpt>
      <trkpt lat="44.98531" lon="4.75232">
        <ele>389</ele>
        <time>2018-04-09T18:48:15Z</time>
      </trkpt>
      <trkpt lat="44.98558" lon="4.75214">
        <ele>385</ele>
        <time>2018-04-09T18:49:15Z</time>
      </trkpt>
      <trkpt lat="44.98556" lon="4.75138">
        <ele>388</ele>
        <time>2018-04-09T18:50:15Z</time>
      </trkpt>
      <trkpt lat="44.9858" lon="4.75168">
        <ele>378</ele>
        <time>2018-04-09T18:51:15Z</time>
      </trkpt>
      <trkpt lat="44.98598" lon="4.75168">
        <ele>373</ele>
        <time>2018-04-09T18:52:15Z</time>
      </trkpt>
      <trkpt lat="44.98586" lon="4.75104">
        <ele>373</ele>
        <time>2018-04-09T18:53:15Z</time>
      </trkpt>
      <trkpt lat="44.98559" lon="4.74999">
        <ele>377</ele>
        <time>2018-04-09T18:54:15Z</time>
      </trkpt>
      <trkpt lat="44.98608" lon="4.74899">
        <ele>380</ele>
        <time>2018-04-09T18:55:15Z</time>
      </trkpt>
      <trkpt lat="44.9859" lon="4.74886">
        <ele>380</ele>
        <time>2018-04-09T18:56:15Z</time>
      </trkpt>
      <trkpt lat="44.98546" lon="4.74836">
        <ele>379</ele>
        <time>2018-04-09T18:57:15Z</time>
      </trkpt>
      <trkpt lat="44.98541" lon="4.74773">
        <ele>382</ele>
        <time>2018-04-09T18:58:15Z</time>
      </trkpt>
      <trkpt lat="44.98524" lon="4.74734">
        <ele>387</ele>
        <time>2018-04-09T18:59:15Z</time>
      </trkpt>
      <trkpt lat="44.98434" lon="4.74626">
        <ele>390</ele>
        <time>2018-04-09T19:00:15Z</time>
      </trkpt>
      <trkpt lat="44.98403" lon="4.74608">
        <ele>382</ele>
        <time>2018-04-09T19:01:15Z</time>
      </trkpt>
      <trkpt lat="44.98409" lon="4.74552">
        <ele>389</ele>
        <time>2018-04-09T19:02:15Z</time>
      </trkpt>
      <trkpt lat="44.98394" lon="4.74526">
        <ele>390</ele>
        <time>2018-04-09T19:03:15Z</time>
      </trkpt>
      <trkpt lat="44.98396" lon="4.74532">
        <ele>390</ele>
        <time>2018-04-09T19:04:15Z</time>
      </trkpt>
      <trkpt lat="44.98332" lon="4.74558">
        <ele>386</ele>
        <time>2018-04-09T19:05:15Z</time>
      </trkpt>
      <trkpt lat="44.98254" lon="4.74523">
        <ele>391</ele>
        <time>2018-04-09T19:06:15Z</time>
      </trkpt>
      <trkpt lat="44.98207" lon="4.74514">
        <ele>388</ele>
        <time>2018-04-09T19:07:15Z</time>
      </trkpt>
      <trkpt lat="44.98167" lon="4.74494">
        <ele>392</ele>
        <time>2018-04-09T19:08:15Z</time>
      </trkpt>
      <trkpt lat="44.98161" lon="4.74455">
        <ele>399</ele>
        <time>2018-04-09T19:09:15Z</time>
      </trkpt>
      <trkpt lat="44.98122" lon="4.74409">
        <ele>402</ele>
        <time>2018-04-09T19:10:15Z</time>
      </trkpt>
      <trkpt lat="44.98112" lon="4.74447">
        <ele>403</ele>
        <time>2018-04-09T19:11:15Z</time>
      </trkpt>
      <trkpt lat="44.98136" lon="4.7447">
        <ele>400</ele>
        <time>2018-04-09T19:12:15Z</time>
      </trkpt>
      <trkpt lat="44.98138" lon="4.74483">
        <ele>400</ele>
        <time>2018-04-09T19:13:15Z</time>
      </trkpt>
      <trkpt lat="44.98119" lon="4.74517">
        <ele>397</ele>
        <time>2018-04-09T19:14:15Z</time>
      </trkpt>
      <trkpt lat="44.981" lon="4.74481">
        <ele>405</ele>
        <time>2018-04-09T19:15:15Z</time>
      </trkpt>
      <trkpt lat="44.98057" lon="4.7447">
        <ele>416</ele>
        <time>2018-04-09T19:16:15Z</time>
      </trkpt>
      <trkpt lat="44.98006" lon="4.74449">
        <ele>419</ele>
        <time>2018-04-09T19:17:15Z</time>
      </trkpt>
      <trkpt lat="44.97975" lon="4.74447">
        <ele>427</ele>
        <time>2018-04-09T19:18:15Z</time>
      </trkpt>
      <trkpt lat="44.97866" lon="4.74379">
        <ele>439</ele>
        <time>2018-04-09T19:19:15Z</time>
      </trkpt>
      <trkpt lat="44.97868" lon="4.7437">
        <ele>439</ele>
        <time>2018-04-09T19:20:15Z</time>
      </trkpt>
      <trkpt lat="44.97833" lon="4.74355">
        <ele>446</ele>
        <time>2018-04-09T19:21:15Z</time>
      </trkpt>
      <trkpt lat="44.97803" lon="4.74386">
        <ele>445</ele>
        <time>2018-04-09T19:22:15Z</time>
      </trkpt>
      <trkpt lat="44.97773" lon="4.74385">
        <ele>447</ele>
        <time>2018-04-09T19:23:15Z</time>
      </trkpt>
      <trkpt lat="44.97757" lon="4.74403">
        <ele>446</ele>
        <time>2018-04-09T19:24:15Z</time>
      </trkpt>
      <trkpt lat="44.97737" lon="4.74494">
        <ele>443</ele>
        <time>2018-04-09T19:25:15Z</time>
      </trkpt>
      <trkpt lat="44.97705" lon="4.74531">
        <ele>443</ele>
        <time>2018-04-09T19:26:15Z</time>
      </trkpt>
      <trkpt lat="44.97702" lon="4.74559">
        <ele>442</ele>
        <time>2018-04-09T19:27:15Z</time>
      </trkpt>
      <trkpt lat="44.97692" lon="4.74603">
        <ele>438</ele>
        <time>2018-04-09T19:28:15Z</time>
      </trkpt>
      <trkpt lat="44.97692" lon="4.74612">
        <ele>438</ele>
        <time>2018-04-09T19:29:15Z</time>
      </trkpt>
      <trkpt lat="44.97658" lon="4.74608">
        <ele>443</ele>
        <time>2018-04-09T19:30:15Z</time>
      </trkpt>
      <trkpt lat="44.97618" lon="4.74584">
        <ele>445</ele>
        <time>2018-04-09T19:31:15Z</time>
      </trkpt>
      <trkpt lat="44.97536" lon="4.7453">
        <ele>463</ele>
        <time>2018-04-09T19:32:15Z</time>
      </trkpt>
      <trkpt lat="44.97543" lon="4.74406">
        <ele>481</ele>
        <time>2018-04-09T19:33:15Z</time>
      </trkpt>
      <trkpt lat="44.97574" lon="4.74366">
        <ele>482</ele>
        <time>2018-04-09T19:34:15Z</time>
      </trkpt>
      <trkpt lat="44.97573" lon="4.74306">
        <ele>490</ele>
        <time>2018-04-09T19:35:15Z</time>
      </trkpt>
      <trkpt lat="44.97466" lon="4.74245">
        <ele>507</ele>
        <time>2018-04-09T19:36:15Z</time>
      </trkpt>
      <trkpt lat="44.97391" lon="4.74184">
        <ele>505</ele>
        <time>2018-04-09T19:37:15Z</time>
      </trkpt>
      <trkpt lat="44.9734" lon="4.7415">
        <ele>502</ele>
        <time>2018-04-09T19:38:15Z</time>
      </trkpt>
      <trkpt lat="44.97336" lon="4.74131">
        <ele>502</ele>
        <time>2018-04-09T19:39:15Z</time>
      </trkpt>
      <trkpt lat="44.97308" lon="4.74073">
        <ele>504</ele>
        <time>2018-04-09T19:40:15Z</time>
      </trkpt>
      <trkpt lat="44.97358" lon="4.74024">
        <ele>498</ele>
        <time>2018-04-09T19:41:15Z</time>
      </trkpt>
      <trkpt lat="44.9736" lon="4.73926">
        <ele>495</ele>
        <time>2018-04-09T19:42:15Z</time>
      </trkpt>
      <trkpt lat="44.97384" lon="4.73861">
        <ele>487</ele>
        <time>2018-04-09T19:43:15Z</time>
      </trkpt>
      <trkpt lat="44.97387" lon="4.73731">
        <ele>477</ele>
        <time>2018-04-09T19:44:15Z</time>
      </trkpt>
      <trkpt lat="44.97382" lon="4.73661">
        <ele>468</ele>
        <time>2018-04-09T19:45:15Z</time>
      </trkpt>
      <trkpt lat="44.97336" lon="4.73586">
        <ele>476</ele>
        <time>2018-04-09T19:46:15Z</time>
      </trkpt>
      <trkpt lat="44.97301" lon="4.73556">
        <ele>484</ele>
        <time>2018-04-09T19:47:15Z</time>
      </trkpt>
      <trkpt lat="44.9729" lon="4.73527">
        <ele>484</ele>
        <time>2018-04-09T19:48:15Z</time>
      </trkpt>
      <trkpt lat="44.97287" lon="4.73476">
        <ele>476</ele>
        <time>2018-04-09T19:49:15Z</time>
      </trkpt>
      <trkpt lat="44.97288" lon="4.73448">
        <ele>474</ele>
        <time>2018-04-09T19:50:15Z</time>
      </trkpt>
      <trkpt lat="44.97274" lon="4.73358">
        <ele>461</ele>
        <time>2018-04-09T19:51:15Z</time>
      </trkpt>
      <trkpt lat="44.97265" lon="4.73358">
        <ele>461</ele>
        <time>2018-04-09T19:52:15Z</time>
      </trkpt>
      <trkpt lat="44.97251" lon="4.73348">
        <ele>461</ele>
        <time>2018-04-09T19:53:15Z</time>
      </trkpt>
      <trkpt lat="44.97225" lon="4.7334">
        <ele>469</ele>
        <time>2018-04-09T19:54:15Z</time>
      </trkpt>
      <trkpt lat="44.97185" lon="4.73304">
        <ele>459</ele>
        <time>2018-04-09T19:55:15Z</time>
      </trkpt>
      <trkpt lat="44.97149" lon="4.73286">
        <ele>462</ele>
        <time>2018-04-09T19:56:15Z</time>
      </trkpt>
      <trkpt lat="44.96993" lon="4.73353">
        <ele>481</ele>
        <time>2018-04-09T19:57:15Z</time>
      </trkpt>
      <trkpt lat="44.96913" lon="4.734">
        <ele>488</ele>
        <time>2018-04-09T19:58:15Z</time>
      </trkpt>
      <trkpt lat="44.96878" lon="4.73433">
        <ele>497</ele>
        <time>2018-04-09T19:59:15Z</time>
      </trkpt>
      <trkpt lat="44.96844" lon="4.73448">
        <ele>497</ele>
        <time>2018-04-09T20:00:15Z</time>
      </trkpt>
      <trkpt lat="44.96818" lon="4.73424">
        <ele>496</ele>
        <time>2018-04-09T20:01:15Z</time>
      </trkpt>
      <trkpt lat="44.9678" lon="4.73404">
        <ele>491</ele>
        <time>2018-04-09T20:02:15Z</time>
      </trkpt>
      <trkpt lat="44.96746" lon="4.73396">
        <ele>495</ele>
        <time>2018-04-09T20:03:15Z</time>
      </trkpt>
      <trkpt lat="44.96678" lon="4.73425">
        <ele>502</ele>
        <time>2018-04-09T20:04:15Z</time>
      </trkpt>
      <trkpt lat="44.96661" lon="4.73392">
        <ele>497</ele>
        <time>2018-04-09T20:05:15Z</time>
      </trkpt>
      <trkpt lat="44.96637" lon="4.73372">
        <ele>496</ele>
        <time>2018-04-09T20:06:15Z</time>
      </trkpt>
      <trkpt lat="44.96608" lon="4.73352">
        <ele>495</ele>
        <time>2018-04-09T20:07:15Z</time>
      </trkpt>
      <trkpt lat="44.96599" lon="4.73352">
        <ele>494</ele>
        <time>2018-04-09T20:08:15Z</time>
      </trkpt>
      <trkpt lat="44.96565" lon="4.73347">
        <ele>500</ele>
        <time>2018-04-09T20:09:15Z</time>
      </trkpt>
      <trkpt lat="44.9653" lon="4.73317">
        <ele>497</ele>
        <time>2018-04-09T20:10:15Z</time>
      </trkpt>
      <trkpt lat="44.96517" lon="4.733">
        <ele>497</ele>
        <time>2018-04-09T20:11:15Z</time>
      </trkpt>
      <trkpt lat="44.96502" lon="4.73274">
        <ele>498</ele>
        <time>2018-04-09T20:12:15Z</time>
      </trkpt>
      <trkpt lat="44.96502" lon="4.7324">
        <ele>498</ele>
        <time>2018-04-09T20:13:15Z</time>
      </trkpt>
      <trkpt lat="44.96507" lon="4.73233">
        <ele>497</ele>
        <time>2018-04-09T20:14:15Z</time>
      </trkpt>
      <trkpt lat="44.96535" lon="4.73178">
        <ele>494</ele>
        <time>2018-04-09T20:15:15Z</time>
      </trkpt>
      <trkpt lat="44.96536" lon="4.7314">
        <ele>495</ele>
        <time>2018-04-09T20:16:15Z</time>
      </trkpt>
      <trkpt lat="44.96517" lon="4.73088">
        <ele>497</ele>
        <time>2018-04-09T20:17:15Z</time>
      </trkpt>
      <trkpt lat="44.96495" lon="4.73071">
        <ele>504</ele>
        <time>2018-04-09T20:18:15Z</time>
      </trkpt>
      <trkpt lat="44.96511" lon="4.73037">
        <ele>502</ele>
        <time>2018-04-09T20:19:15Z</time>
      </trkpt>
      <trkpt lat="44.96548" lon="4.73023">
        <ele>501</ele>
        <time>2018-04-09T20:20:15Z</time>
      </trkpt>
      <trkpt lat="44.96593" lon="4.73009">
        <ele>498</ele>
        <time>2018-04-09T20:21:15Z</time>
      </trkpt>
      <trkpt lat="44.96621" lon="4.72966">
        <ele>509</ele>
        <time>2018-04-09T20:22:15Z</time>
      </trkpt>
      <trkpt lat="44.96659" lon="4.72967">
        <ele>508</ele>
        <time>2018-04-09T20:23:15Z</time>
      </trkpt>
      <trkpt lat="44.96688" lon="4.72962">
        <ele>505</ele>
        <time>2018-04-09T20:24:15Z</time>
      </trkpt>
      <trkpt lat="44.96725" lon="4.72935">
        <ele>507</ele>
        <time>2018-04-09T20:25:15Z</time>
      </trkpt>
      <trkpt lat="44.96733" lon="4.7286">
        <ele>522</ele>
        <time>2018-04-09T20:26:15Z</time>
      </trkpt>
      <trkpt lat="44.96728" lon="4.72812">
        <ele>530</ele>
        <time>2018-04-09T20:27:15Z</time>
      </trkpt>
      <trkpt lat="44.96738" lon="4.72743">
        <ele>534</ele>
        <time>2018-04-09T20:28:15Z</time>
      </trkpt>
      <trkpt lat="44.96717" lon="4.72675">
        <ele>537</ele>
        <time>2018-04-09T20:29:15Z</time>
      </trkpt>
      <trkpt lat="44.96695" lon="4.72573">
        <ele>538</ele>
        <time>2018-04-09T20:30:15Z</time>
      </trkpt>
      <trkpt lat="44.96689" lon="4.72522">
        <ele>536</ele>
        <time>2018-04-09T20:31:15Z</time>
      </trkpt>
      <trkpt lat="44.96676" lon="4.72512">
        <ele>538</ele>
        <time>2018-04-09T20:32:15Z</time>
      </trkpt>
      <trkpt lat="44.96643" lon="4.72539">
        <ele>546</ele>
        <time>2018-04-09T20:33:15Z</time>
      </trkpt>
      <trkpt lat="44.96616" lon="4.72557">
        <ele>549</ele>
        <time>2018-04-09T20:34:15Z</time>
      </trkpt>
      <trkpt lat="44.96615" lon="4.72601">
        <ele>555</ele>
        <time>2018-04-09T20:35:15Z</time>
      </trkpt>
      <trkpt lat="44.966" lon="4.7268">
        <ele>558</ele>
        <time>2018-04-09T20:36:15Z</time>
      </trkpt>
      <trkpt lat="44.9658" lon="4.72685">
        <ele>566</ele>
        <time>2018-04-09T20:37:15Z</time>
      </trkpt>
      <trkpt lat="44.96472" lon="4.72655">
        <ele>580</ele>
        <time>2018-04-09T20:38:15Z</time>
      </trkpt>
      <trkpt lat="44.96349" lon="4.7264">
        <ele>592</ele>
        <time>2018-04-09T20:39:15Z</time>
      </trkpt>
      <trkpt lat="44.96247" lon="4.72655">
        <ele>606</ele>
        <time>2018-04-09T20:40:15Z</time>
      </trkpt>
      <trkpt lat="44.96249" lon="4.72658">
        <ele>606</ele>
        <time>2018-04-09T20:41:15Z</time>
      </trkpt>
      <trkpt lat="44.96135" lon="4.72628">
        <ele>614</ele>
        <time>2018-04-09T20:42:15Z</time>
      </trkpt>
      <trkpt lat="44.95989" lon="4.72749">
        <ele>614</ele>
        <time>2018-04-09T20:43:15Z</time>
      </trkpt>
      <trkpt lat="44.95991" lon="4.72841">
        <ele>613</ele>
        <time>2018-04-09T20:44:15Z</time>
      </trkpt>
      <trkpt lat="44.95995" lon="4.72885">
        <ele>614</ele>
        <time>2018-04-09T20:45:15Z</time>
      </trkpt>
      <trkpt lat="44.95995" lon="4.72898">
        <ele>613</ele>
        <time>2018-04-09T20:46:15Z</time>
      </trkpt>
      <trkpt lat="44.95975" lon="4.7296">
        <ele>613</ele>
        <time>2018-04-09T20:47:15Z</time>
      </trkpt>
      <trkpt lat="44.95983" lon="4.73021">
        <ele>609</ele>
        <time>2018-04-09T20:48:15Z</time>
      </trkpt>
      <trkpt lat="44.95964" lon="4.73071">
        <ele>609</ele>
        <time>2018-04-09T20:49:15Z</time>
      </trkpt>
      <trkpt lat="44.9593" lon="4.73183">
        <ele>607</ele>
        <time>2018-04-09T20:50:15Z</time>
      </trkpt>
      <trkpt lat="44.95911" lon="4.73221">
        <ele>606</ele>
        <time>2018-04-09T20:51:15Z</time>
      </trkpt>
      <trkpt lat="44.95886" lon="4.73223">
        <ele>605</ele>
        <time>2018-04-09T20:52:15Z</time>
      </trkpt>
      <trkpt lat="44.95813" lon="4.73172">
        <ele>601</ele>
        <time>2018-04-09T20:53:15Z</time>
      </trkpt>
      <trkpt lat="44.95741" lon="4.73172">
        <ele>597</ele>
        <time>2018-04-09T20:54:15Z</time>
      </trkpt>
      <trkpt lat="44.95685" lon="4.7316">
        <ele>595</ele>
        <time>2018-04-09T20:55:15Z</time>
      </trkpt>
      <trkpt lat="44.9563" lon="4.73132">
        <ele>589</ele>
        <time>2018-04-09T20:56:15Z</time>
      </trkpt>
      <trkpt lat="44.95603" lon="4.73125">
        <ele>588</ele>
        <time>2018-04-09T20:57:15Z</time>
      </trkpt>
      <trkpt lat="44.95582" lon="4.73061">
        <ele>586</ele>
        <time>2018-04-09T20:58:15Z</time>
      </trkpt>
      <trkpt lat="44.95571" lon="4.73022">
        <ele>587</ele>
        <time>2018-04-09T20:59:15Z</time>
      </trkpt>
      <trkpt lat="44.9543" lon="4.73086">
        <ele>576</ele>
        <time>2018-04-09T21:00:15Z</time>
      </trkpt>
      <trkpt lat="44.95437" lon="4.72978">
        <ele>575</ele>
        <time>2018-04-09T21:01:15Z</time>
      </trkpt>
      <trkpt lat="44.9542" lon="4.72959">
        <ele>574</ele>
        <time>2018-04-09T21:02:15Z</time>
      </trkpt>
      <trkpt lat="44.95408" lon="4.7285">
        <ele>567</ele>
        <time>2018-04-09T21:03:15Z</time>
      </trkpt>
      <trkpt lat="44.95359" lon="4.72734">
        <ele>567</ele>
        <time>2018-04-09T21:04:15Z</time>
      </trkpt>
      <trkpt lat="44.9533" lon="4.7273">
        <ele>567</ele>
        <time>2018-04-09T21:05:15Z</time>
      </trkpt>
      <trkpt lat="44.95235" lon="4.7265">
        <ele>571</ele>
        <time>2018-04-09T21:06:15Z</time>
      </trkpt>
      <trkpt lat="44.9502" lon="4.72587">
        <ele>575</ele>
        <time>2018-04-09T21:07:15Z</time>
      </trkpt>
      <trkpt lat="44.95002" lon="4.72624">
        <ele>573</ele>
        <time>2018-04-09T21:08:15Z</time>
      </trkpt>
      <trkpt lat="44.94963" lon="4.72651">
        <ele>570</ele>
        <time>2018-04-09T21:09:15Z</time>
      </trkpt>
      <trkpt lat="44.94933" lon="4.72675">
        <ele>566</ele>
        <time>2018-04-09T21:10:15Z</time>
      </trkpt>
      <trkpt lat="44.94882" lon="4.72749">
        <ele>565</ele>
        <time>2018-04-09T21:11:15Z</time>
      </trkpt>
      <trkpt lat="44.94768" lon="4.72823">
        <ele>558</ele>
        <time>2018-04-09T21:12:15Z</time>
      </trkpt>
      <trkpt lat="44.94655" lon="4.72815">
        <ele>560</ele>
        <time>2018-04-09T21:13:15Z</time>
      </trkpt>
      <trkpt lat="44.94569" lon="4.72849">
        <ele>558</ele>
        <time>2018-04-09T21:14:15Z</time>
      </trkpt>
      <trkpt lat="44.9453" lon="4.72908">
        <ele>556</ele>
        <time>2018-04-09T21:15:15Z</time>
      </trkpt>
      <trkpt lat="44.94487" lon="4.729">
        <ele>554</ele>
        <time>2018-04-09T21:16:15Z</time>
      </trkpt>
      <trkpt lat="44.94457" lon="4.72949">
        <ele>551</ele>
        <time>2018-04-09T21:17:15Z</time>
      </trkpt>
      <trkpt lat="44.94431" lon="4.72881">
        <ele>555</ele>
        <time>2018-04-09T21:18:15Z</time>
      </trkpt>
      <trkpt lat="44.94418" lon="4.72878">
        <ele>555</ele>
        <time>2018-04-09T21:19:15Z</time>
      </trkpt>
      <trkpt lat="44.94395" lon="4.7288">
        <ele>552</ele>
        <time>2018-04-09T21:20:15Z</time>
      </trkpt>
      <trkpt lat="44.94345" lon="4.72913">
        <ele>549</ele>
        <time>2018-04-09T21:21:15Z</time>
      </trkpt>
      <trkpt lat="44.94189" lon="4.73039">
        <ele>535</ele>
        <time>2018-04-09T21:22:15Z</time>
      </trkpt>
      <trkpt lat="44.94008" lon="4.73101">
        <ele>525</ele>
        <time>2018-04-09T21:23:15Z</time>
      </trkpt>
      <trkpt lat="44.93922" lon="4.73119">
        <ele>522</ele>
        <time>2018-04-09T21:24:15Z</time>
      </trkpt>
      <trkpt lat="44.93827" lon="4.73172">
        <ele>531</ele>
        <time>2018-04-09T21:25:15Z</time>
      </trkpt>
      <trkpt lat="44.9377" lon="4.73173">
        <ele>537</ele>
        <time>2018-04-09T21:26:15Z</time>
      </trkpt>
      <trkpt lat="44.93728" lon="4.73159">
        <ele>539</ele>
        <time>2018-04-09T21:27:15Z</time>
      </trkpt>
      <trkpt lat="44.93708" lon="4.73142">
        <ele>540</ele>
        <time>2018-04-09T21:28:15Z</time>
      </trkpt>
      <trkpt lat="44.93682" lon="4.73112">
        <ele>540</ele>
        <time>2018-04-09T21:29:15Z</time>
      </trkpt>
      <trkpt lat="44.93675" lon="4.73125">
        <ele>540</ele>
        <time>2018-04-09T21:30:15Z</time>
      </trkpt>
      <trkpt lat="44.93636" lon="4.73161">
        <ele>547</ele>
        <time>2018-04-09T21:31:15Z</time>
      </trkpt>
      <trkpt lat="44.93425" lon="4.73215">
        <ele>568</ele>
        <time>2018-04-09T21:32:15Z</time>
      </trkpt>
      <trkpt lat="44.93364" lon="4.73254">
        <ele>570</ele>
        <time>2018-04-09T21:33:15Z</time>
      </trkpt>
      <trkpt lat="44.93272" lon="4.73244">
        <ele>574</ele>
        <time>2018-04-09T21:34:15Z</time>
      </trkpt>
      <trkpt lat="44.93087" lon="4.73255">
        <ele>578</ele>
        <time>2018-04-09T21:35:15Z</time>
      </trkpt>
      <trkpt lat="44.92966" lon="4.7323">
        <ele>583</ele>
        <time>2018-04-09T21:36:15Z</time>
      </trkpt>
      <trkpt lat="44.92856" lon="4.73232">
        <ele>587</ele>
        <time>2018-04-09T21:37:15Z</time>
      </trkpt>
      <trkpt lat="44.92818" lon="4.73192">
        <ele>586</ele>
        <time>2018-04-09T21:38:15Z</time>
      </trkpt>
      <trkpt lat="44.92801" lon="4.73163">
        <ele>583</ele>
        <time>2018-04-09T21:39:15Z</time>
      </trkpt>
      <trkpt lat="44.92731" lon="4.7316">
        <ele>589</ele>
        <time>2018-04-09T21:40:15Z</time>
      </trkpt>
      <trkpt lat="44.92712" lon="4.73134">
        <ele>590</ele>
        <time>2018-04-09T21:41:15Z</time>
      </trkpt>
      <trkpt lat="44.92699" lon="4.73108">
        <ele>590</ele>
        <time>2018-04-09T21:42:15Z</time>
      </trkpt>
      <trkpt lat="44.92674" lon="4.73085">
        <ele>594</ele>
        <time>2018-04-09T21:43:15Z</time>
      </trkpt>
      <trkpt lat="44.92652" lon="4.73081">
        <ele>594</ele>
        <time>2018-04-09T21:44:15Z</time>
      </trkpt>
      <trkpt lat="44.92591" lon="4.73094">
        <ele>601</ele>
        <time>2018-04-09T21:45:15Z</time>
      </trkpt>
      <trkpt lat="44.92525" lon="4.73145">
        <ele>606</ele>
        <time>2018-04-09T21:46:15Z</time>
      </trkpt>
      <trkpt lat="44.92517" lon="4.73175">
        <ele>611</ele>
        <time>2018-04-09T21:47:15Z</time>
      </trkpt>
      <trkpt lat="44.92478" lon="4.73054">
        <ele>603</ele>
        <time>2018-04-09T21:48:15Z</time>
      </trkpt>
    </trkseg>
  </trk>
  <trk>
    <name><![CDATA[20180411140905-PUomM]]></name>
    <trkseg>
      <trkpt lat="45.02428" lon="4.64933">
        <ele>298</ele>
        <time>2018-04-11T10:38:48Z</time>
      </trkpt>
      <trkpt lat="45.02511" lon="4.64864">
        <ele>305</ele>
        <time>2018-04-11T10:39:48Z</time>
      </trkpt>
      <trkpt lat="45.02594" lon="4.64756">
        <ele>305</ele>
        <time>2018-04-11T10:40:48Z</time>
      </trkpt>
      <trkpt lat="45.02659" lon="4.64739">
        <ele>307</ele>
        <time>2018-04-11T10:41:48Z</time>
      </trkpt>
      <trkpt lat="45.02706" lon="4.64737">
        <ele>311</ele>
        <time>2018-04-11T10:42:48Z</time>
      </trkpt>
      <trkpt lat="45.02757" lon="4.64711">
        <ele>315</ele>
        <time>2018-04-11T10:43:48Z</time>
      </trkpt>
      <trkpt lat="45.02814" lon="4.64657">
        <ele>328</ele>
        <time>2018-04-11T10:44:48Z</time>
      </trkpt>
      <trkpt lat="45.02951" lon="4.64685">
        <ele>320</ele>
        <time>2018-04-11T10:45:48Z</time>
      </trkpt>
      <trkpt lat="45.0303" lon="4.64576">
        <ele>347</ele>
        <time>2018-04-11T10:46:48Z</time>
      </trkpt>
      <trkpt lat="45.0307" lon="4.64306">
        <ele>364</ele>
        <time>2018-04-11T10:47:48Z</time>
      </trkpt>
      <trkpt lat="45.03089" lon="4.6438">
        <ele>363</ele>
        <time>2018-04-11T10:48:48Z</time>
      </trkpt>
      <trkpt lat="45.03104" lon="4.645">
        <ele>357</ele>
        <time>2018-04-11T10:49:48Z</time>
      </trkpt>
      <trkpt lat="45.03127" lon="4.64602">
        <ele>351</ele>
        <time>2018-04-11T10:50:48Z</time>
      </trkpt>
      <trkpt lat="45.03221" lon="4.64589">
        <ele>368</ele>
        <time>2018-04-11T10:51:48Z</time>
      </trkpt>
      <trkpt lat="45.03306" lon="4.64566">
        <ele>379</ele>
        <time>2018-04-11T10:52:48Z</time>
      </trkpt>
      <trkpt lat="45.03286" lon="4.64658">
        <ele>375</ele>
        <time>2018-04-11T10:53:48Z</time>
      </trkpt>
      <trkpt lat="45.03311" lon="4.64714">
        <ele>378</ele>
        <time>2018-04-11T10:54:48Z</time>
      </trkpt>
      <trkpt lat="45.03338" lon="4.64877">
        <ele>382</ele>
        <time>2018-04-11T10:55:48Z</time>
      </trkpt>
      <trkpt lat="45.03311" lon="4.6493">
        <ele>377</ele>
        <time>2018-04-11T10:56:48Z</time>
      </trkpt>
      <trkpt lat="45.03322" lon="4.65012">
        <ele>377</ele>
        <time>2018-04-11T10:57:48Z</time>
      </trkpt>
      <trkpt lat="45.03394" lon="4.65076">
        <ele>384</ele>
        <time>2018-04-11T10:58:48Z</time>
      </trkpt>
      <trkpt lat="45.0345" lon="4.65165">
        <ele>392</ele>
        <time>2018-04-11T10:59:48Z</time>
      </trkpt>
      <trkpt lat="45.0354" lon="4.6515">
        <ele>406</ele>
        <time>2018-04-11T11:00:48Z</time>
      </trkpt>
      <trkpt lat="45.03556" lon="4.65193">
        <ele>408</ele>
        <time>2018-04-11T11:01:48Z</time>
      </trkpt>
      <trkpt lat="45.03635" lon="4.65199">
        <ele>417</ele>
        <time>2018-04-11T11:02:48Z</time>
      </trkpt>
      <trkpt lat="45.03646" lon="4.65276">
        <ele>418</ele>
        <time>2018-04-11T11:03:48Z</time>
      </trkpt>
      <trkpt lat="45.03759" lon="4.65171">
        <ele>431</ele>
        <time>2018-04-11T11:04:48Z</time>
      </trkpt>
      <trkpt lat="45.0386" lon="4.65112">
        <ele>448</ele>
        <time>2018-04-11T11:05:48Z</time>
      </trkpt>
      <trkpt lat="45.03889" lon="4.65069">
        <ele>453</ele>
        <time>2018-04-11T11:06:48Z</time>
      </trkpt>
      <trkpt lat="45.04024" lon="4.64839">
        <ele>469</ele>
        <time>2018-04-11T11:07:48Z</time>
      </trkpt>
      <trkpt lat="45.04027" lon="4.64719">
        <ele>479</ele>
        <time>2018-04-11T11:08:48Z</time>
      </trkpt>
      <trkpt lat="45.04052" lon="4.64637">
        <ele>484</ele>
        <time>2018-04-11T11:09:48Z</time>
      </trkpt>
      <trkpt lat="45.04135" lon="4.64601">
        <ele>483</ele>
        <time>2018-04-11T11:10:48Z</time>
      </trkpt>
      <trkpt lat="45.04191" lon="4.6464">
        <ele>477</ele>
        <time>2018-04-11T11:11:48Z</time>
      </trkpt>
      <trkpt lat="45.04256" lon="4.64594">
        <ele>476</ele>
        <time>2018-04-11T11:12:48Z</time>
      </trkpt>
      <trkpt lat="45.04297" lon="4.64545">
        <ele>476</ele>
        <time>2018-04-11T11:13:48Z</time>
      </trkpt>
      <trkpt lat="45.04285" lon="4.64474">
        <ele>484</ele>
        <time>2018-04-11T11:14:48Z</time>
      </trkpt>
      <trkpt lat="45.04335" lon="4.64443">
        <ele>472</ele>
        <time>2018-04-11T11:15:48Z</time>
      </trkpt>
      <trkpt lat="45.04346" lon="4.64308">
        <ele>482</ele>
        <time>2018-04-11T11:16:48Z</time>
      </trkpt>
      <trkpt lat="45.04371" lon="4.64253">
        <ele>482</ele>
        <time>2018-04-11T11:17:48Z</time>
      </trkpt>
      <trkpt lat="45.04368" lon="4.64166">
        <ele>500</ele>
        <time>2018-04-11T11:18:48Z</time>
      </trkpt>
      <trkpt lat="45.04422" lon="4.64092">
        <ele>504</ele>
        <time>2018-04-11T11:19:48Z</time>
      </trkpt>
      <trkpt lat="45.04447" lon="4.64181">
        <ele>495</ele>
        <time>2018-04-11T11:20:48Z</time>
      </trkpt>
      <trkpt lat="45.04489" lon="4.64222">
        <ele>497</ele>
        <time>2018-04-11T11:21:48Z</time>
      </trkpt>
      <trkpt lat="45.04554" lon="4.64173">
        <ele>518</ele>
        <time>2018-04-11T11:22:48Z</time>
      </trkpt>
      <trkpt lat="45.0457" lon="4.64115">
        <ele>525</ele>
        <time>2018-04-11T11:23:48Z</time>
      </trkpt>
      <trkpt lat="45.04597" lon="4.64082">
        <ele>542</ele>
        <time>2018-04-11T11:24:48Z</time>
      </trkpt>
      <trkpt lat="45.04581" lon="4.6401">
        <ele>535</ele>
        <time>2018-04-11T11:25:48Z</time>
      </trkpt>
      <trkpt lat="45.04584" lon="4.63977">
        <ele>544</ele>
        <time>2018-04-11T11:26:48Z</time>
      </trkpt>
      <trkpt lat="45.04718" lon="4.63811">
        <ele>557</ele>
        <time>2018-04-11T11:27:48Z</time>
      </trkpt>
      <trkpt lat="45.04778" lon="4.63633">
        <ele>570</ele>
        <time>2018-04-11T11:28:48Z</time>
      </trkpt>
      <trkpt lat="45.04816" lon="4.63406">
        <ele>584</ele>
        <time>2018-04-11T11:29:48Z</time>
      </trkpt>
      <trkpt lat="45.04846" lon="4.63397">
        <ele>587</ele>
        <time>2018-04-11T11:30:48Z</time>
      </trkpt>
      <trkpt lat="45.04866" lon="4.63516">
        <ele>587</ele>
        <time>2018-04-11T11:31:48Z</time>
      </trkpt>
      <trkpt lat="45.04875" lon="4.63621">
        <ele>591</ele>
        <time>2018-04-11T11:32:48Z</time>
      </trkpt>
      <trkpt lat="45.04966" lon="4.63664">
        <ele>610</ele>
        <time>2018-04-11T11:33:48Z</time>
      </trkpt>
      <trkpt lat="45.05014" lon="4.63789">
        <ele>618</ele>
        <time>2018-04-11T11:34:48Z</time>
      </trkpt>
      <trkpt lat="45.05074" lon="4.63764">
        <ele>617</ele>
        <time>2018-04-11T11:35:48Z</time>
      </trkpt>
      <trkpt lat="45.05079" lon="4.63848">
        <ele>615</ele>
        <time>2018-04-11T11:36:48Z</time>
      </trkpt>
      <trkpt lat="45.0513" lon="4.63896">
        <ele>607</ele>
        <time>2018-04-11T11:37:48Z</time>
      </trkpt>
      <trkpt lat="45.05162" lon="4.63851">
        <ele>608</ele>
        <time>2018-04-11T11:38:48Z</time>
      </trkpt>
      <trkpt lat="45.05317" lon="4.63914">
        <ele>608</ele>
        <time>2018-04-11T11:39:48Z</time>
      </trkpt>
      <trkpt lat="45.05429" lon="4.63986">
        <ele>598</ele>
        <time>2018-04-11T11:40:48Z</time>
      </trkpt>
      <trkpt lat="45.05569" lon="4.63976">
        <ele>603</ele>
        <time>2018-04-11T11:41:48Z</time>
      </trkpt>
      <trkpt lat="45.05634" lon="4.63958">
        <ele>610</ele>
        <time>2018-04-11T11:42:48Z</time>
      </trkpt>
      <trkpt lat="45.05783" lon="4.64035">
        <ele>620</ele>
        <time>2018-04-11T11:43:48Z</time>
      </trkpt>
      <trkpt lat="45.05851" lon="4.64099">
        <ele>612</ele>
        <time>2018-04-11T11:44:48Z</time>
      </trkpt>
      <trkpt lat="45.05909" lon="4.64147">
        <ele>609</ele>
        <time>2018-04-11T11:45:48Z</time>
      </trkpt>
      <trkpt lat="45.0588" lon="4.64209">
        <ele>597</ele>
        <time>2018-04-11T11:46:48Z</time>
      </trkpt>
      <trkpt lat="45.05833" lon="4.6422">
        <ele>590</ele>
        <time>2018-04-11T11:47:48Z</time>
      </trkpt>
      <trkpt lat="45.05813" lon="4.64243">
        <ele>589</ele>
        <time>2018-04-11T11:48:48Z</time>
      </trkpt>
      <trkpt lat="45.05831" lon="4.64328">
        <ele>576</ele>
        <time>2018-04-11T11:49:48Z</time>
      </trkpt>
      <trkpt lat="45.05773" lon="4.64414">
        <ele>566</ele>
        <time>2018-04-11T11:50:48Z</time>
      </trkpt>
      <trkpt lat="45.05726" lon="4.64524">
        <ele>543</ele>
        <time>2018-04-11T11:51:48Z</time>
      </trkpt>
      <trkpt lat="45.05672" lon="4.64598">
        <ele>533</ele>
        <time>2018-04-11T11:52:48Z</time>
      </trkpt>
      <trkpt lat="45.05622" lon="4.64629">
        <ele>530</ele>
        <time>2018-04-11T11:53:48Z</time>
      </trkpt>
      <trkpt lat="45.0558" lon="4.64772">
        <ele>531</ele>
        <time>2018-04-11T11:54:48Z</time>
      </trkpt>
      <trkpt lat="45.05607" lon="4.64866">
        <ele>527</ele>
        <time>2018-04-11T11:55:48Z</time>
      </trkpt>
      <trkpt lat="45.05604" lon="4.64912">
        <ele>529</ele>
        <time>2018-04-11T11:56:48Z</time>
      </trkpt>
      <trkpt lat="45.05622" lon="4.65008">
        <ele>528</ele>
        <time>2018-04-11T11:57:48Z</time>
      </trkpt>
      <trkpt lat="45.05598" lon="4.65046">
        <ele>530</ele>
        <time>2018-04-11T11:58:48Z</time>
      </trkpt>
      <trkpt lat="45.05485" lon="4.65163">
        <ele>543</ele>
        <time>2018-04-11T11:59:48Z</time>
      </trkpt>
      <trkpt lat="45.05346" lon="4.65311">
        <ele>542</ele>
        <time>2018-04-11T12:00:48Z</time>
      </trkpt>
      <trkpt lat="45.05268" lon="4.65448">
        <ele>527</ele>
        <time>2018-04-11T12:01:48Z</time>
      </trkpt>
      <trkpt lat="45.05214" lon="4.65502">
        <ele>521</ele>
        <time>2018-04-11T12:02:48Z</time>
      </trkpt>
      <trkpt lat="45.05209" lon="4.65571">
        <ele>518</ele>
        <time>2018-04-11T12:03:48Z</time>
      </trkpt>
      <trkpt lat="45.05174" lon="4.6575">
        <ele>505</ele>
        <time>2018-04-11T12:04:48Z</time>
      </trkpt>
      <trkpt lat="45.05106" lon="4.65911">
        <ele>496</ele>
        <time>2018-04-11T12:05:48Z</time>
      </trkpt>
      <trkpt lat="45.05117" lon="4.66017">
        <ele>487</ele>
        <time>2018-04-11T12:06:48Z</time>
      </trkpt>
      <trkpt lat="45.05145" lon="4.66144">
        <ele>480</ele>
        <time>2018-04-11T12:07:48Z</time>
      </trkpt>
      <trkpt lat="45.05113" lon="4.66218">
        <ele>474</ele>
        <time>2018-04-11T12:08:48Z</time>
      </trkpt>
      <trkpt lat="45.05201" lon="4.66339">
        <ele>473</ele>
        <time>2018-04-11T12:09:48Z</time>
      </trkpt>
      <trkpt lat="45.05296" lon="4.66406">
        <ele>473</ele>
        <time>2018-04-11T12:10:48Z</time>
      </trkpt>
      <trkpt lat="45.0541" lon="4.66446">
        <ele>470</ele>
        <time>2018-04-11T12:11:48Z</time>
      </trkpt>
      <trkpt lat="45.05487" lon="4.66607">
        <ele>464</ele>
        <time>2018-04-11T12:12:48Z</time>
      </trkpt>
      <trkpt lat="45.05513" lon="4.66671">
        <ele>458</ele>
        <time>2018-04-11T12:13:48Z</time>
      </trkpt>
      <trkpt lat="45.05504" lon="4.66737">
        <ele>455</ele>
        <time>2018-04-11T12:14:48Z</time>
      </trkpt>
      <trkpt lat="45.05506" lon="4.66824">
        <ele>448</ele>
        <time>2018-04-11T12:15:48Z</time>
      </trkpt>
      <trkpt lat="45.05579" lon="4.66917">
        <ele>441</ele>
        <time>2018-04-11T12:16:48Z</time>
      </trkpt>
      <trkpt lat="45.0565" lon="4.66856">
        <ele>434</ele>
        <time>2018-04-11T12:17:48Z</time>
      </trkpt>
      <trkpt lat="45.05724" lon="4.66779">
        <ele>428</ele>
        <time>2018-04-11T12:18:48Z</time>
      </trkpt>
      <trkpt lat="45.05794" lon="4.66764">
        <ele>425</ele>
        <time>2018-04-11T12:19:48Z</time>
      </trkpt>
      <trkpt lat="45.05892" lon="4.66764">
        <ele>420</ele>
        <time>2018-04-11T12:20:48Z</time>
      </trkpt>
      <trkpt lat="45.05901" lon="4.66695">
        <ele>422</ele>
        <time>2018-04-11T12:21:48Z</time>
      </trkpt>
      <trkpt lat="45.05913" lon="4.6665">
        <ele>423</ele>
        <time>2018-04-11T12:22:48Z</time>
      </trkpt>
      <trkpt lat="45.0595" lon="4.66605">
        <ele>427</ele>
        <time>2018-04-11T12:23:48Z</time>
      </trkpt>
      <trkpt lat="45.0598" lon="4.66673">
        <ele>428</ele>
        <time>2018-04-11T12:24:48Z</time>
      </trkpt>
      <trkpt lat="45.06068" lon="4.66656">
        <ele>436</ele>
        <time>2018-04-11T12:25:48Z</time>
      </trkpt>
      <trkpt lat="45.06141" lon="4.66708">
        <ele>440</ele>
        <time>2018-04-11T12:26:48Z</time>
      </trkpt>
      <trkpt lat="45.06189" lon="4.66731">
        <ele>446</ele>
        <time>2018-04-11T12:27:48Z</time>
      </trkpt>
      <trkpt lat="45.06307" lon="4.66723">
        <ele>455</ele>
        <time>2018-04-11T12:28:48Z</time>
      </trkpt>
      <trkpt lat="45.06445" lon="4.66723">
        <ele>466</ele>
        <time>2018-04-11T12:29:48Z</time>
      </trkpt>
      <trkpt lat="45.06549" lon="4.66766">
        <ele>465</ele>
        <time>2018-04-11T12:30:48Z</time>
      </trkpt>
      <trkpt lat="45.06554" lon="4.66859">
        <ele>465</ele>
        <time>2018-04-11T12:31:48Z</time>
      </trkpt>
      <trkpt lat="45.06563" lon="4.67048">
        <ele>467</ele>
        <time>2018-04-11T12:32:48Z</time>
      </trkpt>
      <trkpt lat="45.06544" lon="4.67249">
        <ele>479</ele>
        <time>2018-04-11T12:33:48Z</time>
      </trkpt>
      <trkpt lat="45.06544" lon="4.67485">
        <ele>491</ele>
        <time>2018-04-11T12:34:48Z</time>
      </trkpt>
      <trkpt lat="45.06528" lon="4.6765">
        <ele>496</ele>
        <time>2018-04-11T12:35:48Z</time>
      </trkpt>
      <trkpt lat="45.06509" lon="4.6783">
        <ele>497</ele>
        <time>2018-04-11T12:36:48Z</time>
      </trkpt>
      <trkpt lat="45.06495" lon="4.68016">
        <ele>494</ele>
        <time>2018-04-11T12:37:48Z</time>
      </trkpt>
      <trkpt lat="45.06425" lon="4.68216">
        <ele>486</ele>
        <time>2018-04-11T12:38:48Z</time>
      </trkpt>
      <trkpt lat="45.06454" lon="4.6839">
        <ele>486</ele>
        <time>2018-04-11T12:39:48Z</time>
      </trkpt>
      <trkpt lat="45.0646" lon="4.68489">
        <ele>486</ele>
        <time>2018-04-11T12:40:48Z</time>
      </trkpt>
      <trkpt lat="45.06524" lon="4.68555">
        <ele>484</ele>
        <time>2018-04-11T12:41:48Z</time>
      </trkpt>
      <trkpt lat="45.06574" lon="4.68645">
        <ele>484</ele>
        <time>2018-04-11T12:42:48Z</time>
      </trkpt>
      <trkpt lat="45.06572" lon="4.68761">
        <ele>476</ele>
        <time>2018-04-11T12:43:48Z</time>
      </trkpt>
      <trkpt lat="45.06559" lon="4.68823">
        <ele>472</ele>
        <time>2018-04-11T12:44:48Z</time>
      </trkpt>
      <trkpt lat="45.06577" lon="4.68905">
        <ele>461</ele>
        <time>2018-04-11T12:45:48Z</time>
      </trkpt>
      <trkpt lat="45.06568" lon="4.68961">
        <ele>456</ele>
        <time>2018-04-11T12:46:48Z</time>
      </trkpt>
      <trkpt lat="45.06605" lon="4.69014">
        <ele>449</ele>
        <time>2018-04-11T12:47:48Z</time>
      </trkpt>
      <trkpt lat="45.06674" lon="4.69038">
        <ele>448</ele>
        <time>2018-04-11T12:48:48Z</time>
      </trkpt>
      <trkpt lat="45.06681" lon="4.6907">
        <ele>447</ele>
        <time>2018-04-11T12:49:48Z</time>
      </trkpt>
      <trkpt lat="45.06771" lon="4.69051">
        <ele>447</ele>
        <time>2018-04-11T12:50:48Z</time>
      </trkpt>
      <trkpt lat="45.06833" lon="4.69085">
        <ele>443</ele>
        <time>2018-04-11T12:51:48Z</time>
      </trkpt>
      <trkpt lat="45.06899" lon="4.69089">
        <ele>438</ele>
        <time>2018-04-11T12:52:48Z</time>
      </trkpt>
      <trkpt lat="45.06969" lon="4.69102">
        <ele>431</ele>
        <time>2018-04-11T12:53:48Z</time>
      </trkpt>
      <trkpt lat="45.07045" lon="4.69081">
        <ele>425</ele>
        <time>2018-04-11T12:54:48Z</time>
      </trkpt>
      <trkpt lat="45.07121" lon="4.69113">
        <ele>418</ele>
        <time>2018-04-11T12:55:48Z</time>
      </trkpt>
      <trkpt lat="45.07171" lon="4.69194">
        <ele>408</ele>
        <time>2018-04-11T12:56:48Z</time>
      </trkpt>
      <trkpt lat="45.07174" lon="4.69246">
        <ele>408</ele>
        <time>2018-04-11T12:57:48Z</time>
      </trkpt>
      <trkpt lat="45.07165" lon="4.69267">
        <ele>410</ele>
        <time>2018-04-11T12:58:48Z</time>
      </trkpt>
      <trkpt lat="45.07257" lon="4.69464">
        <ele>386</ele>
        <time>2018-04-11T12:59:48Z</time>
      </trkpt>
      <trkpt lat="45.07383" lon="4.69548">
        <ele>371</ele>
        <time>2018-04-11T13:00:48Z</time>
      </trkpt>
      <trkpt lat="45.07474" lon="4.69579">
        <ele>360</ele>
        <time>2018-04-11T13:01:48Z</time>
      </trkpt>
      <trkpt lat="45.07552" lon="4.69628">
        <ele>343</ele>
        <time>2018-04-11T13:02:48Z</time>
      </trkpt>
      <trkpt lat="45.07555" lon="4.69521">
        <ele>348</ele>
        <time>2018-04-11T13:03:48Z</time>
      </trkpt>
      <trkpt lat="45.07593" lon="4.6963">
        <ele>341</ele>
        <time>2018-04-11T13:04:48Z</time>
      </trkpt>
      <trkpt lat="45.07593" lon="4.69533">
        <ele>346</ele>
        <time>2018-04-11T13:05:48Z</time>
      </trkpt>
      <trkpt lat="45.07593" lon="4.69439">
        <ele>350</ele>
        <time>2018-04-11T13:06:48Z</time>
      </trkpt>
      <trkpt lat="45.07577" lon="4.69278">
        <ele>352</ele>
        <time>2018-04-11T13:07:48Z</time>
      </trkpt>
      <trkpt lat="45.07687" lon="4.69458">
        <ele>375</ele>
        <time>2018-04-11T13:08:48Z</time>
      </trkpt>
      <trkpt lat="45.077" lon="4.6951">
        <ele>366</ele>
        <time>2018-04-11T13:09:48Z</time>
      </trkpt>
      <trkpt lat="45.07756" lon="4.69518">
        <ele>381</ele>
        <time>2018-04-11T13:10:48Z</time>
      </trkpt>
      <trkpt lat="45.07732" lon="4.69388">
        <ele>389</ele>
        <time>2018-04-11T13:11:48Z</time>
      </trkpt>
      <trkpt lat="45.07771" lon="4.69439">
        <ele>394</ele>
        <time>2018-04-11T13:12:48Z</time>
      </trkpt>
      <trkpt lat="45.07798" lon="4.69431">
        <ele>396</ele>
        <time>2018-04-11T13:13:48Z</time>
      </trkpt>
      <trkpt lat="45.078" lon="4.69332">
        <ele>409</ele>
        <time>2018-04-11T13:14:48Z</time>
      </trkpt>
      <trkpt lat="45.07751" lon="4.69201">
        <ele>419</ele>
        <time>2018-04-11T13:15:48Z</time>
      </trkpt>
      <trkpt lat="45.0775" lon="4.69098">
        <ele>426</ele>
        <time>2018-04-11T13:16:48Z</time>
      </trkpt>
      <trkpt lat="45.07797" lon="4.68995">
        <ele>436</ele>
        <time>2018-04-11T13:17:48Z</time>
      </trkpt>
      <trkpt lat="45.07941" lon="4.68925">
        <ele>453</ele>
        <time>2018-04-11T13:18:48Z</time>
      </trkpt>
      <trkpt lat="45.08027" lon="4.68878">
        <ele>461</ele>
        <time>2018-04-11T13:19:48Z</time>
      </trkpt>
      <trkpt lat="45.08085" lon="4.68725">
        <ele>471</ele>
        <time>2018-04-11T13:20:48Z</time>
      </trkpt>
      <trkpt lat="45.08156" lon="4.68698">
        <ele>469</ele>
        <time>2018-04-11T13:21:48Z</time>
      </trkpt>
      <trkpt lat="45.08277" lon="4.68631">
        <ele>467</ele>
        <time>2018-04-11T13:22:48Z</time>
      </trkpt>
      <trkpt lat="45.08348" lon="4.68631">
        <ele>465</ele>
        <time>2018-04-11T13:23:48Z</time>
      </trkpt>
      <trkpt lat="45.08391" lon="4.68714">
        <ele>463</ele>
        <time>2018-04-11T13:24:48Z</time>
      </trkpt>
      <trkpt lat="45.08365" lon="4.68822">
        <ele>465</ele>
        <time>2018-04-11T13:25:48Z</time>
      </trkpt>
      <trkpt lat="45.0859" lon="4.69069">
        <ele>488</ele>
        <time>2018-04-11T13:26:48Z</time>
      </trkpt>
      <trkpt lat="45.08643" lon="4.69269">
        <ele>486</ele>
        <time>2018-04-11T13:27:48Z</time>
      </trkpt>
      <trkpt lat="45.08686" lon="4.69423">
        <ele>486</ele>
        <time>2018-04-11T13:28:48Z</time>
      </trkpt>
      <trkpt lat="45.0879" lon="4.69552">
        <ele>484</ele>
        <time>2018-04-11T13:29:48Z</time>
      </trkpt>
      <trkpt lat="45.08869" lon="4.6959">
        <ele>481</ele>
        <time>2018-04-11T13:30:48Z</time>
      </trkpt>
      <trkpt lat="45.08975" lon="4.69595">
        <ele>490</ele>
        <time>2018-04-11T13:31:48Z</time>
      </trkpt>
      <trkpt lat="45.0901" lon="4.69674">
        <ele>492</ele>
        <time>2018-04-11T13:32:48Z</time>
      </trkpt>
      <trkpt lat="45.09135" lon="4.69775">
        <ele>493</ele>
        <time>2018-04-11T13:33:48Z</time>
      </trkpt>
      <trkpt lat="45.09432" lon="4.70185">
        <ele>492</ele>
        <time>2018-04-11T13:34:48Z</time>
      </trkpt>
      <trkpt lat="45.09644" lon="4.69784">
        <ele>514</ele>
        <time>2018-04-11T13:35:48Z</time>
      </trkpt>
      <trkpt lat="45.09663" lon="4.69721">
        <ele>518</ele>
        <time>2018-04-11T13:36:48Z</time>
      </trkpt>
      <trkpt lat="45.09716" lon="4.69699">
        <ele>520</ele>
        <time>2018-04-11T13:37:48Z</time>
      </trkpt>
      <trkpt lat="45.10016" lon="4.69429">
        <ele>524</ele>
        <time>2018-04-11T13:38:48Z</time>
      </trkpt>
      <trkpt lat="45.10064" lon="4.69279">
        <ele>528</ele>
        <time>2018-04-11T13:39:48Z</time>
      </trkpt>
      <trkpt lat="45.10187" lon="4.69133">
        <ele>519</ele>
        <time>2018-04-11T13:40:48Z</time>
      </trkpt>
      <trkpt lat="45.1026" lon="4.69174">
        <ele>513</ele>
        <time>2018-04-11T13:41:48Z</time>
      </trkpt>
      <trkpt lat="45.10293" lon="4.69324">
        <ele>509</ele>
        <time>2018-04-11T13:42:48Z</time>
      </trkpt>
      <trkpt lat="45.10349" lon="4.69457">
        <ele>502</ele>
        <time>2018-04-11T13:43:48Z</time>
      </trkpt>
      <trkpt lat="45.10445" lon="4.69502">
        <ele>496</ele>
        <time>2018-04-11T13:44:48Z</time>
      </trkpt>
      <trkpt lat="45.10538" lon="4.69416">
        <ele>496</ele>
        <time>2018-04-11T13:45:48Z</time>
      </trkpt>
      <trkpt lat="45.10617" lon="4.69422">
        <ele>499</ele>
        <time>2018-04-11T13:46:48Z</time>
      </trkpt>
      <trkpt lat="45.10692" lon="4.69373">
        <ele>508</ele>
        <time>2018-04-11T13:47:48Z</time>
      </trkpt>
      <trkpt lat="45.10754" lon="4.69562">
        <ele>510</ele>
        <time>2018-04-11T13:48:48Z</time>
      </trkpt>
      <trkpt lat="45.10752" lon="4.69611">
        <ele>509</ele>
        <time>2018-04-11T13:49:48Z</time>
      </trkpt>
      <trkpt lat="45.10803" lon="4.69642">
        <ele>509</ele>
        <time>2018-04-11T13:50:48Z</time>
      </trkpt>
      <trkpt lat="45.10879" lon="4.69869">
        <ele>496</ele>
        <time>2018-04-11T13:51:48Z</time>
      </trkpt>
      <trkpt lat="45.11132" lon="4.69667">
        <ele>504</ele>
        <time>2018-04-11T13:52:48Z</time>
      </trkpt>
      <trkpt lat="45.11214" lon="4.69812">
        <ele>503</ele>
        <time>2018-04-11T13:53:48Z</time>
      </trkpt>
      <trkpt lat="45.11248" lon="4.6997">
        <ele>503</ele>
        <time>2018-04-11T13:54:48Z</time>
      </trkpt>
      <trkpt lat="45.11288" lon="4.70149">
        <ele>505</ele>
        <time>2018-04-11T13:55:48Z</time>
      </trkpt>
      <trkpt lat="45.11242" lon="4.70181">
        <ele>505</ele>
        <time>2018-04-11T13:56:48Z</time>
      </trkpt>
      <trkpt lat="45.11209" lon="4.70218">
        <ele>505</ele>
        <time>2018-04-11T13:57:48Z</time>
      </trkpt>
      <trkpt lat="45.11205" lon="4.70314">
        <ele>509</ele>
        <time>2018-04-11T13:58:48Z</time>
      </trkpt>
      <trkpt lat="45.11195" lon="4.70366">
        <ele>511</ele>
        <time>2018-04-11T13:59:48Z</time>
      </trkpt>
      <trkpt lat="45.11236" lon="4.70497">
        <ele>517</ele>
        <time>2018-04-11T14:00:48Z</time>
      </trkpt>
      <trkpt lat="45.11344" lon="4.70628">
        <ele>528</ele>
        <time>2018-04-11T14:01:48Z</time>
      </trkpt>
      <trkpt lat="45.1137" lon="4.70668">
        <ele>531</ele>
        <time>2018-04-11T14:02:48Z</time>
      </trkpt>
      <trkpt lat="45.11325" lon="4.7079">
        <ele>538</ele>
        <time>2018-04-11T14:03:48Z</time>
      </trkpt>
      <trkpt lat="45.11241" lon="4.70974">
        <ele>543</ele>
        <time>2018-04-11T14:04:48Z</time>
      </trkpt>
      <trkpt lat="45.1121" lon="4.71045">
        <ele>543</ele>
        <time>2018-04-11T14:05:48Z</time>
      </trkpt>
      <trkpt lat="45.11188" lon="4.7114">
        <ele>543</ele>
        <time>2018-04-11T14:06:48Z</time>
      </trkpt>
      <trkpt lat="45.11101" lon="4.71401">
        <ele>538</ele>
        <time>2018-04-11T14:07:48Z</time>
      </trkpt>
      <trkpt lat="45.1106" lon="4.71457">
        <ele>540</ele>
        <time>2018-04-11T14:08:48Z</time>
      </trkpt>
      <trkpt lat="45.10992" lon="4.71457">
        <ele>545</ele>
        <time>2018-04-11T14:09:48Z</time>
      </trkpt>
      <trkpt lat="45.10971" lon="4.71715">
        <ele>530</ele>
        <time>2018-04-11T14:10:48Z</time>
      </trkpt>
      <trkpt lat="45.11042" lon="4.71768">
        <ele>526</ele>
        <time>2018-04-11T14:11:48Z</time>
      </trkpt>
      <trkpt lat="45.11127" lon="4.71863">
        <ele>518</ele>
        <time>2018-04-11T14:12:48Z</time>
      </trkpt>
      <trkpt lat="45.11436" lon="4.71901">
        <ele>511</ele>
        <time>2018-04-11T14:13:48Z</time>
      </trkpt>
      <trkpt lat="45.11483" lon="4.71863">
        <ele>511</ele>
        <time>2018-04-11T14:14:48Z</time>
      </trkpt>
      <trkpt lat="45.11702" lon="4.71974">
        <ele>511</ele>
        <time>2018-04-11T14:15:48Z</time>
      </trkpt>
      <trkpt lat="45.11742" lon="4.71985">
        <ele>512</ele>
        <time>2018-04-11T14:16:48Z</time>
      </trkpt>
      <trkpt lat="45.11832" lon="4.71953">
        <ele>518</ele>
        <time>2018-04-11T14:17:48Z</time>
      </trkpt>
      <trkpt lat="45.11959" lon="4.7199">
        <ele>521</ele>
        <time>2018-04-11T14:18:48Z</time>
      </trkpt>
      <trkpt lat="45.121" lon="4.71889">
        <ele>515</ele>
        <time>2018-04-11T14:19:48Z</time>
      </trkpt>
      <trkpt lat="45.12166" lon="4.71988">
        <ele>511</ele>
        <time>2018-04-11T14:20:48Z</time>
      </trkpt>
      <trkpt lat="45.12264" lon="4.72149">
        <ele>485</ele>
        <time>2018-04-11T14:21:48Z</time>
      </trkpt>
      <trkpt lat="45.12172" lon="4.72265">
        <ele>483</ele>
        <time>2018-04-11T14:22:48Z</time>
      </trkpt>
      <trkpt lat="45.12095" lon="4.72372">
        <ele>483</ele>
        <time>2018-04-11T14:23:48Z</time>
      </trkpt>
      <trkpt lat="45.11913" lon="4.726">
        <ele>494</ele>
        <time>2018-04-11T14:24:48Z</time>
      </trkpt>
      <trkpt lat="45.12009" lon="4.7269">
        <ele>493</ele>
        <time>2018-04-11T14:25:48Z</time>
      </trkpt>
      <trkpt lat="45.12313" lon="4.72737">
        <ele>486</ele>
        <time>2018-04-11T14:26:48Z</time>
      </trkpt>
      <trkpt lat="45.12621" lon="4.72804">
        <ele>472</ele>
        <time>2018-04-11T14:27:48Z</time>
      </trkpt>
      <trkpt lat="45.12888" lon="4.72733">
        <ele>469</ele>
        <time>2018-04-11T14:28:48Z</time>
      </trkpt>
      <trkpt lat="45.13073" lon="4.72618">
        <ele>462</ele>
        <time>2018-04-11T14:29:48Z</time>
      </trkpt>
      <trkpt lat="45.1315" lon="4.72586">
        <ele>459</ele>
        <time>2018-04-11T14:30:48Z</time>
      </trkpt>
      <trkpt lat="45.13342" lon="4.72657">
        <ele>441</ele>
        <time>2018-04-11T14:31:48Z</time>
      </trkpt>
      <trkpt lat="45.13344" lon="4.72955">
        <ele>438</ele>
        <time>2018-04-11T14:32:48Z</time>
      </trkpt>
      <trkpt lat="45.13476" lon="4.72946">
        <ele>437</ele>
        <time>2018-04-11T14:33:48Z</time>
      </trkpt>
      <trkpt lat="45.13495" lon="4.73024">
        <ele>444</ele>
        <time>2018-04-11T14:34:48Z</time>
      </trkpt>
      <trkpt lat="45.13554" lon="4.73056">
        <ele>444</ele>
        <time>2018-04-11T14:35:48Z</time>
      </trkpt>
      <trkpt lat="45.13586" lon="4.73022">
        <ele>439</ele>
        <time>2018-04-11T14:36:48Z</time>
      </trkpt>
      <trkpt lat="45.13663" lon="4.73277">
        <ele>441</ele>
        <time>2018-04-11T14:37:48Z</time>
      </trkpt>
    </trkseg>
  </trk>
</gpx>